/[cits3200i]/trunk/data/Sailing.gpx


UCC Code Repository

Contents of /trunk/data/Sailing.gpx

Parent Directory Parent Directory | Revision Log Revision Log


Revision 15 - (show annotations) (download)
Sat Sep 11 14:31:33 2010 UTC (11 years, 2 months ago) by rvvs89
File size: 192074 byte(s)
Adding sample GPX data provided by the client.
1 <?xml version="1.0" encoding="utf-8"?><gpx version="1.1" creator="TackTracker"><metadata><bounds minlat="-32.50880900" minlon="115.69687000" maxlat="-32.49442700" maxlon="115.71189800" /><extensions><trackee>AUS 352-Stacey &amp; Chelsea-Blue-0.00-0.00</trackee><count>2227</count><firstTime>2010-04-03T03:19:27Z</firstTime><lastTime>2010-04-03T03:56:33Z</lastTime><startTime>2010-04-03T03:19:41Z</startTime></extensions></metadata><trk><name>03 Apr 2010 11:19:27 2227 records (0 to 2226)</name><type>GPS Tracklog</type><trkseg><trkpt lat="-32.49947200" lon="115.70331600"><time>2010-04-03T03:19:27Z</time></trkpt><trkpt lat="-32.49947400" lon="115.70332400"><time>2010-04-03T03:19:28Z</time></trkpt><trkpt lat="-32.49947800" lon="115.70333300"><time>2010-04-03T03:19:29Z</time></trkpt><trkpt lat="-32.49947900" lon="115.70334100"><time>2010-04-03T03:19:30Z</time></trkpt><trkpt lat="-32.49948400" lon="115.70334500"><time>2010-04-03T03:19:31Z</time></trkpt><trkpt lat="-32.49949100" lon="115.70334700"><time>2010-04-03T03:19:32Z</time></trkpt><trkpt lat="-32.49949700" lon="115.70335100"><time>2010-04-03T03:19:33Z</time></trkpt><trkpt lat="-32.49950300" lon="115.70335300"><time>2010-04-03T03:19:34Z</time></trkpt><trkpt lat="-32.49950900" lon="115.70335700"><time>2010-04-03T03:19:35Z</time></trkpt><trkpt lat="-32.49951400" lon="115.70335800"><time>2010-04-03T03:19:36Z</time></trkpt><trkpt lat="-32.49951800" lon="115.70336200"><time>2010-04-03T03:19:37Z</time></trkpt><trkpt lat="-32.49952000" lon="115.70336600"><time>2010-04-03T03:19:38Z</time></trkpt><trkpt lat="-32.49952200" lon="115.70337200"><time>2010-04-03T03:19:39Z</time></trkpt><trkpt lat="-32.49952900" lon="115.70337800"><time>2010-04-03T03:19:40Z</time></trkpt><trkpt lat="-32.49953600" lon="115.70338600"><time>2010-04-03T03:19:41Z</time></trkpt><trkpt lat="-32.49954100" lon="115.70339400"><time>2010-04-03T03:19:42Z</time></trkpt><trkpt lat="-32.49954300" lon="115.70340100"><time>2010-04-03T03:19:43Z</time></trkpt><trkpt lat="-32.49954800" lon="115.70340500"><time>2010-04-03T03:19:44Z</time></trkpt><trkpt lat="-32.49955500" lon="115.70340800"><time>2010-04-03T03:19:45Z</time></trkpt><trkpt lat="-32.49956200" lon="115.70341200"><time>2010-04-03T03:19:46Z</time></trkpt><trkpt lat="-32.49956900" lon="115.70341100"><time>2010-04-03T03:19:47Z</time></trkpt><trkpt lat="-32.49957500" lon="115.70341000"><time>2010-04-03T03:19:48Z</time></trkpt><trkpt lat="-32.49958200" lon="115.70341400"><time>2010-04-03T03:19:49Z</time></trkpt><trkpt lat="-32.49958700" lon="115.70342300"><time>2010-04-03T03:19:50Z</time></trkpt><trkpt lat="-32.49959500" lon="115.70343300"><time>2010-04-03T03:19:51Z</time></trkpt><trkpt lat="-32.49960200" lon="115.70343700"><time>2010-04-03T03:19:52Z</time></trkpt><trkpt lat="-32.49960800" lon="115.70344000"><time>2010-04-03T03:19:53Z</time></trkpt><trkpt lat="-32.49961100" lon="115.70344300"><time>2010-04-03T03:19:54Z</time></trkpt><trkpt lat="-32.49961900" lon="115.70344200"><time>2010-04-03T03:19:55Z</time></trkpt><trkpt lat="-32.49962400" lon="115.70344300"><time>2010-04-03T03:19:56Z</time></trkpt><trkpt lat="-32.49962300" lon="115.70344800"><time>2010-04-03T03:19:57Z</time></trkpt><trkpt lat="-32.49962200" lon="115.70345600"><time>2010-04-03T03:19:58Z</time></trkpt><trkpt lat="-32.49962400" lon="115.70346200"><time>2010-04-03T03:19:59Z</time></trkpt><trkpt lat="-32.49962900" lon="115.70346900"><time>2010-04-03T03:20:00Z</time></trkpt><trkpt lat="-32.49963300" lon="115.70347500"><time>2010-04-03T03:20:01Z</time></trkpt><trkpt lat="-32.49964000" lon="115.70347900"><time>2010-04-03T03:20:02Z</time></trkpt><trkpt lat="-32.49964800" lon="115.70348100"><time>2010-04-03T03:20:03Z</time></trkpt><trkpt lat="-32.49965400" lon="115.70348400"><time>2010-04-03T03:20:04Z</time></trkpt><trkpt lat="-32.49965900" lon="115.70349000"><time>2010-04-03T03:20:05Z</time></trkpt><trkpt lat="-32.49966200" lon="115.70349200"><time>2010-04-03T03:20:06Z</time></trkpt><trkpt lat="-32.49966400" lon="115.70349700"><time>2010-04-03T03:20:07Z</time></trkpt><trkpt lat="-32.49966700" lon="115.70350200"><time>2010-04-03T03:20:08Z</time></trkpt><trkpt lat="-32.49967000" lon="115.70350900"><time>2010-04-03T03:20:09Z</time></trkpt><trkpt lat="-32.49967300" lon="115.70351500"><time>2010-04-03T03:20:10Z</time></trkpt><trkpt lat="-32.49967000" lon="115.70352600"><time>2010-04-03T03:20:11Z</time></trkpt><trkpt lat="-32.49967300" lon="115.70353600"><time>2010-04-03T03:20:12Z</time></trkpt><trkpt lat="-32.49967800" lon="115.70353900"><time>2010-04-03T03:20:13Z</time></trkpt><trkpt lat="-32.49968500" lon="115.70354300"><time>2010-04-03T03:20:14Z</time></trkpt><trkpt lat="-32.49969000" lon="115.70354700"><time>2010-04-03T03:20:15Z</time></trkpt><trkpt lat="-32.49969200" lon="115.70355300"><time>2010-04-03T03:20:16Z</time></trkpt><trkpt lat="-32.49969600" lon="115.70356600"><time>2010-04-03T03:20:17Z</time></trkpt><trkpt lat="-32.49970300" lon="115.70358000"><time>2010-04-03T03:20:18Z</time></trkpt><trkpt lat="-32.49971300" lon="115.70360000"><time>2010-04-03T03:20:19Z</time></trkpt><trkpt lat="-32.49972700" lon="115.70363400"><time>2010-04-03T03:20:20Z</time></trkpt><trkpt lat="-32.49973800" lon="115.70367800"><time>2010-04-03T03:20:21Z</time></trkpt><trkpt lat="-32.49974500" lon="115.70372800"><time>2010-04-03T03:20:22Z</time></trkpt><trkpt lat="-32.49974700" lon="115.70377800"><time>2010-04-03T03:20:23Z</time></trkpt><trkpt lat="-32.49974800" lon="115.70383000"><time>2010-04-03T03:20:24Z</time></trkpt><trkpt lat="-32.49974700" lon="115.70388200"><time>2010-04-03T03:20:25Z</time></trkpt><trkpt lat="-32.49974200" lon="115.70392900"><time>2010-04-03T03:20:26Z</time></trkpt><trkpt lat="-32.49973900" lon="115.70397300"><time>2010-04-03T03:20:27Z</time></trkpt><trkpt lat="-32.49973600" lon="115.70400900"><time>2010-04-03T03:20:28Z</time></trkpt><trkpt lat="-32.49973000" lon="115.70404600"><time>2010-04-03T03:20:29Z</time></trkpt><trkpt lat="-32.49972200" lon="115.70408800"><time>2010-04-03T03:20:30Z</time></trkpt><trkpt lat="-32.49971700" lon="115.70413400"><time>2010-04-03T03:20:31Z</time></trkpt><trkpt lat="-32.49973300" lon="115.70417400"><time>2010-04-03T03:20:32Z</time></trkpt><trkpt lat="-32.49975400" lon="115.70419300"><time>2010-04-03T03:20:33Z</time></trkpt><trkpt lat="-32.49977300" lon="115.70419500"><time>2010-04-03T03:20:34Z</time></trkpt><trkpt lat="-32.49978700" lon="115.70419200"><time>2010-04-03T03:20:35Z</time></trkpt><trkpt lat="-32.49980000" lon="115.70418900"><time>2010-04-03T03:20:36Z</time></trkpt><trkpt lat="-32.49980900" lon="115.70418900"><time>2010-04-03T03:20:37Z</time></trkpt><trkpt lat="-32.49981600" lon="115.70418700"><time>2010-04-03T03:20:38Z</time></trkpt><trkpt lat="-32.49982300" lon="115.70418600"><time>2010-04-03T03:20:39Z</time></trkpt><trkpt lat="-32.49983200" lon="115.70418300"><time>2010-04-03T03:20:40Z</time></trkpt><trkpt lat="-32.49984200" lon="115.70418300"><time>2010-04-03T03:20:41Z</time></trkpt><trkpt lat="-32.49985000" lon="115.70418600"><time>2010-04-03T03:20:42Z</time></trkpt><trkpt lat="-32.49985600" lon="115.70419000"><time>2010-04-03T03:20:43Z</time></trkpt><trkpt lat="-32.49986500" lon="115.70419400"><time>2010-04-03T03:20:44Z</time></trkpt><trkpt lat="-32.49987800" lon="115.70419400"><time>2010-04-03T03:20:45Z</time></trkpt><trkpt lat="-32.49989200" lon="115.70419300"><time>2010-04-03T03:20:46Z</time></trkpt><trkpt lat="-32.49990500" lon="115.70419200"><time>2010-04-03T03:20:47Z</time></trkpt><trkpt lat="-32.49991600" lon="115.70419400"><time>2010-04-03T03:20:48Z</time></trkpt><trkpt lat="-32.49992500" lon="115.70419700"><time>2010-04-03T03:20:49Z</time></trkpt><trkpt lat="-32.49993500" lon="115.70419600"><time>2010-04-03T03:20:50Z</time></trkpt><trkpt lat="-32.49994700" lon="115.70419800"><time>2010-04-03T03:20:51Z</time></trkpt><trkpt lat="-32.49995700" lon="115.70420000"><time>2010-04-03T03:20:52Z</time></trkpt><trkpt lat="-32.49996900" lon="115.70419800"><time>2010-04-03T03:20:53Z</time></trkpt><trkpt lat="-32.49997800" lon="115.70419700"><time>2010-04-03T03:20:54Z</time></trkpt><trkpt lat="-32.49998700" lon="115.70420000"><time>2010-04-03T03:20:55Z</time></trkpt><trkpt lat="-32.49999000" lon="115.70420700"><time>2010-04-03T03:20:56Z</time></trkpt><trkpt lat="-32.49999500" lon="115.70421800"><time>2010-04-03T03:20:57Z</time></trkpt><trkpt lat="-32.50000700" lon="115.70422600"><time>2010-04-03T03:20:58Z</time></trkpt><trkpt lat="-32.50002000" lon="115.70423500"><time>2010-04-03T03:20:59Z</time></trkpt><trkpt lat="-32.50003800" lon="115.70424100"><time>2010-04-03T03:21:00Z</time></trkpt><trkpt lat="-32.50005500" lon="115.70424000"><time>2010-04-03T03:21:01Z</time></trkpt><trkpt lat="-32.50006900" lon="115.70423800"><time>2010-04-03T03:21:02Z</time></trkpt><trkpt lat="-32.50008200" lon="115.70424100"><time>2010-04-03T03:21:03Z</time></trkpt><trkpt lat="-32.50009700" lon="115.70424100"><time>2010-04-03T03:21:04Z</time></trkpt><trkpt lat="-32.50010600" lon="115.70423900"><time>2010-04-03T03:21:05Z</time></trkpt><trkpt lat="-32.50011500" lon="115.70424100"><time>2010-04-03T03:21:06Z</time></trkpt><trkpt lat="-32.50012300" lon="115.70424100"><time>2010-04-03T03:21:07Z</time></trkpt><trkpt lat="-32.50013200" lon="115.70424000"><time>2010-04-03T03:21:08Z</time></trkpt><trkpt lat="-32.50013800" lon="115.70424000"><time>2010-04-03T03:21:09Z</time></trkpt><trkpt lat="-32.50014400" lon="115.70424400"><time>2010-04-03T03:21:10Z</time></trkpt><trkpt lat="-32.50015400" lon="115.70424300"><time>2010-04-03T03:21:11Z</time></trkpt><trkpt lat="-32.50016400" lon="115.70424300"><time>2010-04-03T03:21:12Z</time></trkpt><trkpt lat="-32.50017300" lon="115.70424500"><time>2010-04-03T03:21:13Z</time></trkpt><trkpt lat="-32.50018400" lon="115.70424500"><time>2010-04-03T03:21:14Z</time></trkpt><trkpt lat="-32.50019100" lon="115.70424500"><time>2010-04-03T03:21:15Z</time></trkpt><trkpt lat="-32.50020000" lon="115.70425200"><time>2010-04-03T03:21:16Z</time></trkpt><trkpt lat="-32.50021200" lon="115.70425600"><time>2010-04-03T03:21:17Z</time></trkpt><trkpt lat="-32.50022900" lon="115.70425800"><time>2010-04-03T03:21:18Z</time></trkpt><trkpt lat="-32.50024500" lon="115.70426300"><time>2010-04-03T03:21:19Z</time></trkpt><trkpt lat="-32.50026600" lon="115.70427000"><time>2010-04-03T03:21:20Z</time></trkpt><trkpt lat="-32.50028900" lon="115.70427700"><time>2010-04-03T03:21:21Z</time></trkpt><trkpt lat="-32.50031600" lon="115.70428100"><time>2010-04-03T03:21:22Z</time></trkpt><trkpt lat="-32.50034500" lon="115.70428200"><time>2010-04-03T03:21:23Z</time></trkpt><trkpt lat="-32.50037500" lon="115.70428600"><time>2010-04-03T03:21:24Z</time></trkpt><trkpt lat="-32.50040800" lon="115.70429000"><time>2010-04-03T03:21:25Z</time></trkpt><trkpt lat="-32.50044400" lon="115.70429600"><time>2010-04-03T03:21:26Z</time></trkpt><trkpt lat="-32.50047700" lon="115.70430100"><time>2010-04-03T03:21:27Z</time></trkpt><trkpt lat="-32.50051100" lon="115.70430400"><time>2010-04-03T03:21:28Z</time></trkpt><trkpt lat="-32.50054500" lon="115.70431000"><time>2010-04-03T03:21:29Z</time></trkpt><trkpt lat="-32.50057600" lon="115.70431300"><time>2010-04-03T03:21:30Z</time></trkpt><trkpt lat="-32.50060800" lon="115.70431500"><time>2010-04-03T03:21:31Z</time></trkpt><trkpt lat="-32.50064200" lon="115.70431600"><time>2010-04-03T03:21:32Z</time></trkpt><trkpt lat="-32.50067400" lon="115.70432000"><time>2010-04-03T03:21:33Z</time></trkpt><trkpt lat="-32.50070300" lon="115.70432200"><time>2010-04-03T03:21:34Z</time></trkpt><trkpt lat="-32.50073600" lon="115.70432400"><time>2010-04-03T03:21:35Z</time></trkpt><trkpt lat="-32.50077000" lon="115.70432700"><time>2010-04-03T03:21:36Z</time></trkpt><trkpt lat="-32.50080400" lon="115.70433400"><time>2010-04-03T03:21:37Z</time></trkpt><trkpt lat="-32.50083600" lon="115.70433900"><time>2010-04-03T03:21:38Z</time></trkpt><trkpt lat="-32.50086800" lon="115.70434100"><time>2010-04-03T03:21:39Z</time></trkpt><trkpt lat="-32.50090000" lon="115.70434500"><time>2010-04-03T03:21:40Z</time></trkpt><trkpt lat="-32.50093000" lon="115.70434900"><time>2010-04-03T03:21:41Z</time></trkpt><trkpt lat="-32.50096100" lon="115.70435100"><time>2010-04-03T03:21:42Z</time></trkpt><trkpt lat="-32.50099500" lon="115.70434700"><time>2010-04-03T03:21:43Z</time></trkpt><trkpt lat="-32.50102700" lon="115.70434100"><time>2010-04-03T03:21:44Z</time></trkpt><trkpt lat="-32.50105900" lon="115.70434200"><time>2010-04-03T03:21:45Z</time></trkpt><trkpt lat="-32.50108900" lon="115.70434600"><time>2010-04-03T03:21:46Z</time></trkpt><trkpt lat="-32.50111900" lon="115.70434500"><time>2010-04-03T03:21:47Z</time></trkpt><trkpt lat="-32.50114900" lon="115.70434300"><time>2010-04-03T03:21:48Z</time></trkpt><trkpt lat="-32.50117600" lon="115.70434300"><time>2010-04-03T03:21:49Z</time></trkpt><trkpt lat="-32.50120500" lon="115.70434300"><time>2010-04-03T03:21:50Z</time></trkpt><trkpt lat="-32.50123500" lon="115.70434100"><time>2010-04-03T03:21:51Z</time></trkpt><trkpt lat="-32.50126500" lon="115.70434200"><time>2010-04-03T03:21:52Z</time></trkpt><trkpt lat="-32.50129500" lon="115.70434400"><time>2010-04-03T03:21:53Z</time></trkpt><trkpt lat="-32.50132400" lon="115.70434800"><time>2010-04-03T03:21:54Z</time></trkpt><trkpt lat="-32.50135400" lon="115.70435100"><time>2010-04-03T03:21:55Z</time></trkpt><trkpt lat="-32.50138500" lon="115.70435300"><time>2010-04-03T03:21:56Z</time></trkpt><trkpt lat="-32.50141500" lon="115.70435700"><time>2010-04-03T03:21:57Z</time></trkpt><trkpt lat="-32.50144300" lon="115.70436500"><time>2010-04-03T03:21:58Z</time></trkpt><trkpt lat="-32.50147500" lon="115.70436700"><time>2010-04-03T03:21:59Z</time></trkpt><trkpt lat="-32.50150800" lon="115.70436700"><time>2010-04-03T03:22:00Z</time></trkpt><trkpt lat="-32.50153600" lon="115.70436200"><time>2010-04-03T03:22:01Z</time></trkpt><trkpt lat="-32.50154900" lon="115.70434700"><time>2010-04-03T03:22:02Z</time></trkpt><trkpt lat="-32.50155100" lon="115.70433300"><time>2010-04-03T03:22:03Z</time></trkpt><trkpt lat="-32.50154800" lon="115.70431900"><time>2010-04-03T03:22:04Z</time></trkpt><trkpt lat="-32.50154300" lon="115.70429700"><time>2010-04-03T03:22:05Z</time></trkpt><trkpt lat="-32.50153300" lon="115.70427100"><time>2010-04-03T03:22:06Z</time></trkpt><trkpt lat="-32.50151300" lon="115.70424600"><time>2010-04-03T03:22:07Z</time></trkpt><trkpt lat="-32.50148500" lon="115.70421800"><time>2010-04-03T03:22:08Z</time></trkpt><trkpt lat="-32.50146200" lon="115.70418200"><time>2010-04-03T03:22:09Z</time></trkpt><trkpt lat="-32.50145800" lon="115.70415000"><time>2010-04-03T03:22:10Z</time></trkpt><trkpt lat="-32.50146700" lon="115.70413300"><time>2010-04-03T03:22:11Z</time></trkpt><trkpt lat="-32.50147500" lon="115.70412300"><time>2010-04-03T03:22:12Z</time></trkpt><trkpt lat="-32.50147600" lon="115.70411500"><time>2010-04-03T03:22:13Z</time></trkpt><trkpt lat="-32.50148000" lon="115.70410900"><time>2010-04-03T03:22:14Z</time></trkpt><trkpt lat="-32.50148200" lon="115.70410900"><time>2010-04-03T03:22:15Z</time></trkpt><trkpt lat="-32.50148700" lon="115.70411400"><time>2010-04-03T03:22:16Z</time></trkpt><trkpt lat="-32.50149100" lon="115.70411700"><time>2010-04-03T03:22:17Z</time></trkpt><trkpt lat="-32.50149700" lon="115.70411500"><time>2010-04-03T03:22:18Z</time></trkpt><trkpt lat="-32.50150200" lon="115.70411700"><time>2010-04-03T03:22:19Z</time></trkpt><trkpt lat="-32.50150600" lon="115.70411800"><time>2010-04-03T03:22:20Z</time></trkpt><trkpt lat="-32.50151300" lon="115.70412000"><time>2010-04-03T03:22:21Z</time></trkpt><trkpt lat="-32.50151900" lon="115.70412400"><time>2010-04-03T03:22:22Z</time></trkpt><trkpt lat="-32.50152900" lon="115.70412700"><time>2010-04-03T03:22:23Z</time></trkpt><trkpt lat="-32.50154000" lon="115.70413100"><time>2010-04-03T03:22:24Z</time></trkpt><trkpt lat="-32.50155300" lon="115.70414400"><time>2010-04-03T03:22:25Z</time></trkpt><trkpt lat="-32.50157600" lon="115.70415200"><time>2010-04-03T03:22:26Z</time></trkpt><trkpt lat="-32.50160600" lon="115.70415500"><time>2010-04-03T03:22:27Z</time></trkpt><trkpt lat="-32.50163700" lon="115.70415200"><time>2010-04-03T03:22:28Z</time></trkpt><trkpt lat="-32.50166700" lon="115.70414700"><time>2010-04-03T03:22:29Z</time></trkpt><trkpt lat="-32.50169800" lon="115.70414500"><time>2010-04-03T03:22:30Z</time></trkpt><trkpt lat="-32.50173200" lon="115.70414800"><time>2010-04-03T03:22:31Z</time></trkpt><trkpt lat="-32.50176400" lon="115.70414900"><time>2010-04-03T03:22:32Z</time></trkpt><trkpt lat="-32.50179500" lon="115.70415100"><time>2010-04-03T03:22:33Z</time></trkpt><trkpt lat="-32.50183000" lon="115.70415000"><time>2010-04-03T03:22:34Z</time></trkpt><trkpt lat="-32.50186200" lon="115.70414400"><time>2010-04-03T03:22:35Z</time></trkpt><trkpt lat="-32.50189100" lon="115.70414100"><time>2010-04-03T03:22:36Z</time></trkpt><trkpt lat="-32.50192000" lon="115.70414300"><time>2010-04-03T03:22:37Z</time></trkpt><trkpt lat="-32.50195300" lon="115.70413900"><time>2010-04-03T03:22:38Z</time></trkpt><trkpt lat="-32.50198700" lon="115.70412900"><time>2010-04-03T03:22:39Z</time></trkpt><trkpt lat="-32.50201800" lon="115.70412800"><time>2010-04-03T03:22:40Z</time></trkpt><trkpt lat="-32.50204700" lon="115.70412800"><time>2010-04-03T03:22:41Z</time></trkpt><trkpt lat="-32.50207500" lon="115.70412600"><time>2010-04-03T03:22:42Z</time></trkpt><trkpt lat="-32.50210200" lon="115.70412300"><time>2010-04-03T03:22:43Z</time></trkpt><trkpt lat="-32.50212700" lon="115.70412000"><time>2010-04-03T03:22:44Z</time></trkpt><trkpt lat="-32.50215600" lon="115.70411600"><time>2010-04-03T03:22:45Z</time></trkpt><trkpt lat="-32.50218300" lon="115.70411600"><time>2010-04-03T03:22:46Z</time></trkpt><trkpt lat="-32.50221300" lon="115.70411600"><time>2010-04-03T03:22:47Z</time></trkpt><trkpt lat="-32.50224100" lon="115.70410900"><time>2010-04-03T03:22:48Z</time></trkpt><trkpt lat="-32.50226900" lon="115.70410500"><time>2010-04-03T03:22:49Z</time></trkpt><trkpt lat="-32.50229600" lon="115.70410200"><time>2010-04-03T03:22:50Z</time></trkpt><trkpt lat="-32.50232200" lon="115.70410700"><time>2010-04-03T03:22:51Z</time></trkpt><trkpt lat="-32.50235200" lon="115.70410700"><time>2010-04-03T03:22:52Z</time></trkpt><trkpt lat="-32.50237900" lon="115.70411100"><time>2010-04-03T03:22:53Z</time></trkpt><trkpt lat="-32.50240600" lon="115.70411600"><time>2010-04-03T03:22:54Z</time></trkpt><trkpt lat="-32.50243600" lon="115.70411600"><time>2010-04-03T03:22:55Z</time></trkpt><trkpt lat="-32.50246500" lon="115.70411900"><time>2010-04-03T03:22:56Z</time></trkpt><trkpt lat="-32.50249300" lon="115.70412000"><time>2010-04-03T03:22:57Z</time></trkpt><trkpt lat="-32.50252300" lon="115.70411800"><time>2010-04-03T03:22:58Z</time></trkpt><trkpt lat="-32.50255400" lon="115.70412100"><time>2010-04-03T03:22:59Z</time></trkpt><trkpt lat="-32.50258800" lon="115.70412100"><time>2010-04-03T03:23:00Z</time></trkpt><trkpt lat="-32.50262300" lon="115.70412400"><time>2010-04-03T03:23:01Z</time></trkpt><trkpt lat="-32.50265900" lon="115.70412400"><time>2010-04-03T03:23:02Z</time></trkpt><trkpt lat="-32.50269200" lon="115.70412300"><time>2010-04-03T03:23:03Z</time></trkpt><trkpt lat="-32.50272600" lon="115.70412200"><time>2010-04-03T03:23:04Z</time></trkpt><trkpt lat="-32.50275600" lon="115.70411900"><time>2010-04-03T03:23:05Z</time></trkpt><trkpt lat="-32.50278600" lon="115.70412000"><time>2010-04-03T03:23:06Z</time></trkpt><trkpt lat="-32.50281600" lon="115.70412100"><time>2010-04-03T03:23:07Z</time></trkpt><trkpt lat="-32.50284500" lon="115.70412700"><time>2010-04-03T03:23:08Z</time></trkpt><trkpt lat="-32.50287500" lon="115.70412900"><time>2010-04-03T03:23:09Z</time></trkpt><trkpt lat="-32.50290500" lon="115.70412800"><time>2010-04-03T03:23:10Z</time></trkpt><trkpt lat="-32.50293000" lon="115.70413100"><time>2010-04-03T03:23:11Z</time></trkpt><trkpt lat="-32.50296300" lon="115.70412400"><time>2010-04-03T03:23:12Z</time></trkpt><trkpt lat="-32.50299100" lon="115.70412700"><time>2010-04-03T03:23:13Z</time></trkpt><trkpt lat="-32.50302000" lon="115.70412600"><time>2010-04-03T03:23:14Z</time></trkpt><trkpt lat="-32.50304700" lon="115.70412200"><time>2010-04-03T03:23:15Z</time></trkpt><trkpt lat="-32.50307400" lon="115.70412200"><time>2010-04-03T03:23:16Z</time></trkpt><trkpt lat="-32.50310400" lon="115.70412200"><time>2010-04-03T03:23:17Z</time></trkpt><trkpt lat="-32.50313300" lon="115.70412400"><time>2010-04-03T03:23:18Z</time></trkpt><trkpt lat="-32.50316600" lon="115.70412300"><time>2010-04-03T03:23:19Z</time></trkpt><trkpt lat="-32.50319600" lon="115.70412200"><time>2010-04-03T03:23:20Z</time></trkpt><trkpt lat="-32.50322900" lon="115.70411500"><time>2010-04-03T03:23:21Z</time></trkpt><trkpt lat="-32.50326200" lon="115.70411200"><time>2010-04-03T03:23:22Z</time></trkpt><trkpt lat="-32.50329500" lon="115.70411200"><time>2010-04-03T03:23:23Z</time></trkpt><trkpt lat="-32.50332600" lon="115.70411200"><time>2010-04-03T03:23:24Z</time></trkpt><trkpt lat="-32.50335700" lon="115.70411200"><time>2010-04-03T03:23:25Z</time></trkpt><trkpt lat="-32.50338800" lon="115.70411000"><time>2010-04-03T03:23:26Z</time></trkpt><trkpt lat="-32.50341700" lon="115.70411200"><time>2010-04-03T03:23:27Z</time></trkpt><trkpt lat="-32.50344800" lon="115.70411300"><time>2010-04-03T03:23:28Z</time></trkpt><trkpt lat="-32.50347900" lon="115.70411700"><time>2010-04-03T03:23:29Z</time></trkpt><trkpt lat="-32.50350800" lon="115.70412000"><time>2010-04-03T03:23:30Z</time></trkpt><trkpt lat="-32.50353500" lon="115.70411700"><time>2010-04-03T03:23:31Z</time></trkpt><trkpt lat="-32.50356400" lon="115.70411400"><time>2010-04-03T03:23:32Z</time></trkpt><trkpt lat="-32.50359100" lon="115.70411300"><time>2010-04-03T03:23:33Z</time></trkpt><trkpt lat="-32.50362100" lon="115.70411400"><time>2010-04-03T03:23:34Z</time></trkpt><trkpt lat="-32.50365100" lon="115.70411600"><time>2010-04-03T03:23:35Z</time></trkpt><trkpt lat="-32.50368200" lon="115.70412200"><time>2010-04-03T03:23:36Z</time></trkpt><trkpt lat="-32.50371200" lon="115.70412800"><time>2010-04-03T03:23:37Z</time></trkpt><trkpt lat="-32.50374400" lon="115.70413200"><time>2010-04-03T03:23:38Z</time></trkpt><trkpt lat="-32.50377600" lon="115.70413300"><time>2010-04-03T03:23:39Z</time></trkpt><trkpt lat="-32.50380800" lon="115.70413200"><time>2010-04-03T03:23:40Z</time></trkpt><trkpt lat="-32.50384100" lon="115.70413100"><time>2010-04-03T03:23:41Z</time></trkpt><trkpt lat="-32.50387400" lon="115.70413100"><time>2010-04-03T03:23:42Z</time></trkpt><trkpt lat="-32.50390600" lon="115.70413500"><time>2010-04-03T03:23:43Z</time></trkpt><trkpt lat="-32.50393500" lon="115.70413600"><time>2010-04-03T03:23:44Z</time></trkpt><trkpt lat="-32.50396800" lon="115.70413200"><time>2010-04-03T03:23:45Z</time></trkpt><trkpt lat="-32.50400100" lon="115.70412700"><time>2010-04-03T03:23:46Z</time></trkpt><trkpt lat="-32.50403600" lon="115.70412200"><time>2010-04-03T03:23:47Z</time></trkpt><trkpt lat="-32.50407300" lon="115.70411900"><time>2010-04-03T03:23:48Z</time></trkpt><trkpt lat="-32.50410800" lon="115.70411900"><time>2010-04-03T03:23:49Z</time></trkpt><trkpt lat="-32.50413900" lon="115.70411900"><time>2010-04-03T03:23:50Z</time></trkpt><trkpt lat="-32.50416700" lon="115.70412100"><time>2010-04-03T03:23:51Z</time></trkpt><trkpt lat="-32.50420100" lon="115.70412500"><time>2010-04-03T03:23:52Z</time></trkpt><trkpt lat="-32.50423200" lon="115.70413000"><time>2010-04-03T03:23:53Z</time></trkpt><trkpt lat="-32.50426400" lon="115.70414000"><time>2010-04-03T03:23:54Z</time></trkpt><trkpt lat="-32.50429200" lon="115.70414300"><time>2010-04-03T03:23:55Z</time></trkpt><trkpt lat="-32.50432200" lon="115.70414800"><time>2010-04-03T03:23:56Z</time></trkpt><trkpt lat="-32.50435600" lon="115.70414700"><time>2010-04-03T03:23:57Z</time></trkpt><trkpt lat="-32.50438900" lon="115.70414600"><time>2010-04-03T03:23:58Z</time></trkpt><trkpt lat="-32.50442300" lon="115.70414900"><time>2010-04-03T03:23:59Z</time></trkpt><trkpt lat="-32.50445500" lon="115.70415000"><time>2010-04-03T03:24:00Z</time></trkpt><trkpt lat="-32.50448800" lon="115.70415400"><time>2010-04-03T03:24:01Z</time></trkpt><trkpt lat="-32.50451800" lon="115.70416100"><time>2010-04-03T03:24:02Z</time></trkpt><trkpt lat="-32.50455000" lon="115.70416400"><time>2010-04-03T03:24:03Z</time></trkpt><trkpt lat="-32.50457700" lon="115.70415400"><time>2010-04-03T03:24:04Z</time></trkpt><trkpt lat="-32.50459100" lon="115.70413300"><time>2010-04-03T03:24:05Z</time></trkpt><trkpt lat="-32.50459400" lon="115.70411800"><time>2010-04-03T03:24:06Z</time></trkpt><trkpt lat="-32.50459500" lon="115.70410700"><time>2010-04-03T03:24:07Z</time></trkpt><trkpt lat="-32.50458800" lon="115.70409000"><time>2010-04-03T03:24:08Z</time></trkpt><trkpt lat="-32.50458200" lon="115.70406400"><time>2010-04-03T03:24:09Z</time></trkpt><trkpt lat="-32.50457600" lon="115.70403500"><time>2010-04-03T03:24:10Z</time></trkpt><trkpt lat="-32.50457600" lon="115.70399700"><time>2010-04-03T03:24:11Z</time></trkpt><trkpt lat="-32.50457400" lon="115.70395700"><time>2010-04-03T03:24:12Z</time></trkpt><trkpt lat="-32.50457300" lon="115.70392000"><time>2010-04-03T03:24:13Z</time></trkpt><trkpt lat="-32.50457100" lon="115.70387900"><time>2010-04-03T03:24:14Z</time></trkpt><trkpt lat="-32.50457200" lon="115.70384100"><time>2010-04-03T03:24:15Z</time></trkpt><trkpt lat="-32.50457400" lon="115.70380400"><time>2010-04-03T03:24:16Z</time></trkpt><trkpt lat="-32.50457300" lon="115.70376900"><time>2010-04-03T03:24:17Z</time></trkpt><trkpt lat="-32.50457500" lon="115.70373100"><time>2010-04-03T03:24:18Z</time></trkpt><trkpt lat="-32.50457800" lon="115.70369000"><time>2010-04-03T03:24:19Z</time></trkpt><trkpt lat="-32.50457800" lon="115.70365100"><time>2010-04-03T03:24:20Z</time></trkpt><trkpt lat="-32.50457800" lon="115.70361700"><time>2010-04-03T03:24:21Z</time></trkpt><trkpt lat="-32.50458100" lon="115.70358400"><time>2010-04-03T03:24:22Z</time></trkpt><trkpt lat="-32.50458600" lon="115.70354900"><time>2010-04-03T03:24:23Z</time></trkpt><trkpt lat="-32.50458600" lon="115.70350900"><time>2010-04-03T03:24:24Z</time></trkpt><trkpt lat="-32.50458500" lon="115.70347000"><time>2010-04-03T03:24:25Z</time></trkpt><trkpt lat="-32.50458300" lon="115.70343200"><time>2010-04-03T03:24:26Z</time></trkpt><trkpt lat="-32.50457900" lon="115.70339300"><time>2010-04-03T03:24:27Z</time></trkpt><trkpt lat="-32.50457700" lon="115.70335200"><time>2010-04-03T03:24:28Z</time></trkpt><trkpt lat="-32.50457800" lon="115.70331100"><time>2010-04-03T03:24:29Z</time></trkpt><trkpt lat="-32.50457600" lon="115.70327400"><time>2010-04-03T03:24:30Z</time></trkpt><trkpt lat="-32.50457700" lon="115.70323800"><time>2010-04-03T03:24:31Z</time></trkpt><trkpt lat="-32.50457800" lon="115.70320300"><time>2010-04-03T03:24:32Z</time></trkpt><trkpt lat="-32.50457600" lon="115.70316900"><time>2010-04-03T03:24:33Z</time></trkpt><trkpt lat="-32.50457700" lon="115.70313400"><time>2010-04-03T03:24:34Z</time></trkpt><trkpt lat="-32.50457700" lon="115.70310000"><time>2010-04-03T03:24:35Z</time></trkpt><trkpt lat="-32.50457700" lon="115.70306200"><time>2010-04-03T03:24:36Z</time></trkpt><trkpt lat="-32.50457800" lon="115.70302600"><time>2010-04-03T03:24:37Z</time></trkpt><trkpt lat="-32.50457500" lon="115.70298800"><time>2010-04-03T03:24:38Z</time></trkpt><trkpt lat="-32.50457100" lon="115.70294900"><time>2010-04-03T03:24:39Z</time></trkpt><trkpt lat="-32.50456700" lon="115.70290800"><time>2010-04-03T03:24:40Z</time></trkpt><trkpt lat="-32.50456100" lon="115.70286900"><time>2010-04-03T03:24:41Z</time></trkpt><trkpt lat="-32.50455900" lon="115.70283200"><time>2010-04-03T03:24:42Z</time></trkpt><trkpt lat="-32.50455500" lon="115.70279800"><time>2010-04-03T03:24:43Z</time></trkpt><trkpt lat="-32.50455400" lon="115.70276100"><time>2010-04-03T03:24:44Z</time></trkpt><trkpt lat="-32.50455600" lon="115.70272700"><time>2010-04-03T03:24:45Z</time></trkpt><trkpt lat="-32.50455400" lon="115.70269200"><time>2010-04-03T03:24:46Z</time></trkpt><trkpt lat="-32.50455100" lon="115.70265800"><time>2010-04-03T03:24:47Z</time></trkpt><trkpt lat="-32.50454700" lon="115.70261800"><time>2010-04-03T03:24:48Z</time></trkpt><trkpt lat="-32.50454500" lon="115.70258000"><time>2010-04-03T03:24:49Z</time></trkpt><trkpt lat="-32.50454500" lon="115.70254300"><time>2010-04-03T03:24:50Z</time></trkpt><trkpt lat="-32.50454200" lon="115.70250600"><time>2010-04-03T03:24:51Z</time></trkpt><trkpt lat="-32.50453800" lon="115.70246900"><time>2010-04-03T03:24:52Z</time></trkpt><trkpt lat="-32.50453300" lon="115.70243300"><time>2010-04-03T03:24:53Z</time></trkpt><trkpt lat="-32.50452800" lon="115.70239400"><time>2010-04-03T03:24:54Z</time></trkpt><trkpt lat="-32.50452000" lon="115.70235300"><time>2010-04-03T03:24:55Z</time></trkpt><trkpt lat="-32.50451400" lon="115.70231100"><time>2010-04-03T03:24:56Z</time></trkpt><trkpt lat="-32.50450700" lon="115.70227000"><time>2010-04-03T03:24:57Z</time></trkpt><trkpt lat="-32.50450100" lon="115.70222800"><time>2010-04-03T03:24:58Z</time></trkpt><trkpt lat="-32.50449800" lon="115.70218700"><time>2010-04-03T03:24:59Z</time></trkpt><trkpt lat="-32.50449600" lon="115.70214500"><time>2010-04-03T03:25:00Z</time></trkpt><trkpt lat="-32.50449300" lon="115.70210400"><time>2010-04-03T03:25:01Z</time></trkpt><trkpt lat="-32.50449300" lon="115.70206300"><time>2010-04-03T03:25:02Z</time></trkpt><trkpt lat="-32.50449200" lon="115.70202100"><time>2010-04-03T03:25:03Z</time></trkpt><trkpt lat="-32.50448800" lon="115.70198300"><time>2010-04-03T03:25:04Z</time></trkpt><trkpt lat="-32.50448300" lon="115.70194800"><time>2010-04-03T03:25:05Z</time></trkpt><trkpt lat="-32.50448400" lon="115.70190800"><time>2010-04-03T03:25:06Z</time></trkpt><trkpt lat="-32.50448500" lon="115.70186500"><time>2010-04-03T03:25:07Z</time></trkpt><trkpt lat="-32.50448700" lon="115.70182200"><time>2010-04-03T03:25:08Z</time></trkpt><trkpt lat="-32.50448900" lon="115.70178200"><time>2010-04-03T03:25:09Z</time></trkpt><trkpt lat="-32.50449000" lon="115.70173900"><time>2010-04-03T03:25:10Z</time></trkpt><trkpt lat="-32.50449200" lon="115.70169900"><time>2010-04-03T03:25:11Z</time></trkpt><trkpt lat="-32.50449200" lon="115.70166700"><time>2010-04-03T03:25:12Z</time></trkpt><trkpt lat="-32.50449100" lon="115.70163400"><time>2010-04-03T03:25:13Z</time></trkpt><trkpt lat="-32.50449100" lon="115.70159700"><time>2010-04-03T03:25:14Z</time></trkpt><trkpt lat="-32.50449100" lon="115.70155700"><time>2010-04-03T03:25:15Z</time></trkpt><trkpt lat="-32.50449100" lon="115.70152000"><time>2010-04-03T03:25:16Z</time></trkpt><trkpt lat="-32.50449100" lon="115.70148300"><time>2010-04-03T03:25:17Z</time></trkpt><trkpt lat="-32.50449100" lon="115.70144500"><time>2010-04-03T03:25:18Z</time></trkpt><trkpt lat="-32.50448900" lon="115.70141100"><time>2010-04-03T03:25:19Z</time></trkpt><trkpt lat="-32.50448500" lon="115.70137700"><time>2010-04-03T03:25:20Z</time></trkpt><trkpt lat="-32.50448500" lon="115.70134300"><time>2010-04-03T03:25:21Z</time></trkpt><trkpt lat="-32.50448200" lon="115.70130800"><time>2010-04-03T03:25:22Z</time></trkpt><trkpt lat="-32.50447600" lon="115.70127400"><time>2010-04-03T03:25:23Z</time></trkpt><trkpt lat="-32.50447400" lon="115.70123700"><time>2010-04-03T03:25:24Z</time></trkpt><trkpt lat="-32.50447200" lon="115.70120100"><time>2010-04-03T03:25:25Z</time></trkpt><trkpt lat="-32.50447000" lon="115.70116700"><time>2010-04-03T03:25:26Z</time></trkpt><trkpt lat="-32.50446900" lon="115.70113200"><time>2010-04-03T03:25:27Z</time></trkpt><trkpt lat="-32.50446600" lon="115.70109600"><time>2010-04-03T03:25:28Z</time></trkpt><trkpt lat="-32.50446300" lon="115.70106800"><time>2010-04-03T03:25:29Z</time></trkpt><trkpt lat="-32.50447100" lon="115.70105200"><time>2010-04-03T03:25:30Z</time></trkpt><trkpt lat="-32.50448200" lon="115.70104600"><time>2010-04-03T03:25:31Z</time></trkpt><trkpt lat="-32.50449900" lon="115.70104700"><time>2010-04-03T03:25:32Z</time></trkpt><trkpt lat="-32.50451900" lon="115.70105000"><time>2010-04-03T03:25:33Z</time></trkpt><trkpt lat="-32.50454400" lon="115.70105200"><time>2010-04-03T03:25:34Z</time></trkpt><trkpt lat="-32.50457100" lon="115.70105200"><time>2010-04-03T03:25:35Z</time></trkpt><trkpt lat="-32.50460400" lon="115.70105000"><time>2010-04-03T03:25:36Z</time></trkpt><trkpt lat="-32.50463400" lon="115.70104900"><time>2010-04-03T03:25:37Z</time></trkpt><trkpt lat="-32.50466400" lon="115.70105300"><time>2010-04-03T03:25:38Z</time></trkpt><trkpt lat="-32.50469600" lon="115.70105700"><time>2010-04-03T03:25:39Z</time></trkpt><trkpt lat="-32.50473000" lon="115.70104900"><time>2010-04-03T03:25:40Z</time></trkpt><trkpt lat="-32.50476000" lon="115.70105000"><time>2010-04-03T03:25:41Z</time></trkpt><trkpt lat="-32.50479300" lon="115.70105100"><time>2010-04-03T03:25:42Z</time></trkpt><trkpt lat="-32.50482100" lon="115.70104900"><time>2010-04-03T03:25:43Z</time></trkpt><trkpt lat="-32.50485000" lon="115.70104200"><time>2010-04-03T03:25:44Z</time></trkpt><trkpt lat="-32.50488000" lon="115.70103500"><time>2010-04-03T03:25:45Z</time></trkpt><trkpt lat="-32.50491300" lon="115.70103500"><time>2010-04-03T03:25:46Z</time></trkpt><trkpt lat="-32.50493900" lon="115.70103600"><time>2010-04-03T03:25:47Z</time></trkpt><trkpt lat="-32.50496900" lon="115.70103400"><time>2010-04-03T03:25:48Z</time></trkpt><trkpt lat="-32.50500200" lon="115.70103500"><time>2010-04-03T03:25:49Z</time></trkpt><trkpt lat="-32.50503500" lon="115.70103400"><time>2010-04-03T03:25:50Z</time></trkpt><trkpt lat="-32.50506800" lon="115.70103300"><time>2010-04-03T03:25:51Z</time></trkpt><trkpt lat="-32.50510200" lon="115.70103200"><time>2010-04-03T03:25:52Z</time></trkpt><trkpt lat="-32.50513600" lon="115.70103100"><time>2010-04-03T03:25:53Z</time></trkpt><trkpt lat="-32.50516800" lon="115.70103000"><time>2010-04-03T03:25:54Z</time></trkpt><trkpt lat="-32.50520200" lon="115.70102500"><time>2010-04-03T03:25:55Z</time></trkpt><trkpt lat="-32.50523700" lon="115.70101400"><time>2010-04-03T03:25:56Z</time></trkpt><trkpt lat="-32.50526900" lon="115.70100800"><time>2010-04-03T03:25:57Z</time></trkpt><trkpt lat="-32.50530000" lon="115.70100000"><time>2010-04-03T03:25:58Z</time></trkpt><trkpt lat="-32.50533300" lon="115.70099000"><time>2010-04-03T03:25:59Z</time></trkpt><trkpt lat="-32.50536600" lon="115.70099100"><time>2010-04-03T03:26:00Z</time></trkpt><trkpt lat="-32.50539500" lon="115.70099600"><time>2010-04-03T03:26:01Z</time></trkpt><trkpt lat="-32.50542200" lon="115.70099600"><time>2010-04-03T03:26:02Z</time></trkpt><trkpt lat="-32.50545000" lon="115.70099200"><time>2010-04-03T03:26:03Z</time></trkpt><trkpt lat="-32.50547900" lon="115.70098700"><time>2010-04-03T03:26:04Z</time></trkpt><trkpt lat="-32.50550800" lon="115.70098200"><time>2010-04-03T03:26:05Z</time></trkpt><trkpt lat="-32.50553900" lon="115.70097500"><time>2010-04-03T03:26:06Z</time></trkpt><trkpt lat="-32.50556900" lon="115.70097100"><time>2010-04-03T03:26:07Z</time></trkpt><trkpt lat="-32.50560100" lon="115.70096800"><time>2010-04-03T03:26:08Z</time></trkpt><trkpt lat="-32.50563300" lon="115.70096600"><time>2010-04-03T03:26:09Z</time></trkpt><trkpt lat="-32.50566200" lon="115.70097100"><time>2010-04-03T03:26:10Z</time></trkpt><trkpt lat="-32.50569300" lon="115.70097300"><time>2010-04-03T03:26:11Z</time></trkpt><trkpt lat="-32.50572300" lon="115.70098000"><time>2010-04-03T03:26:12Z</time></trkpt><trkpt lat="-32.50575100" lon="115.70098200"><time>2010-04-03T03:26:13Z</time></trkpt><trkpt lat="-32.50577900" lon="115.70098200"><time>2010-04-03T03:26:14Z</time></trkpt><trkpt lat="-32.50580900" lon="115.70098200"><time>2010-04-03T03:26:15Z</time></trkpt><trkpt lat="-32.50583700" lon="115.70098100"><time>2010-04-03T03:26:16Z</time></trkpt><trkpt lat="-32.50586700" lon="115.70098400"><time>2010-04-03T03:26:17Z</time></trkpt><trkpt lat="-32.50589800" lon="115.70098300"><time>2010-04-03T03:26:18Z</time></trkpt><trkpt lat="-32.50592000" lon="115.70097000"><time>2010-04-03T03:26:19Z</time></trkpt><trkpt lat="-32.50592800" lon="115.70095000"><time>2010-04-03T03:26:20Z</time></trkpt><trkpt lat="-32.50592300" lon="115.70093200"><time>2010-04-03T03:26:21Z</time></trkpt><trkpt lat="-32.50591700" lon="115.70091100"><time>2010-04-03T03:26:22Z</time></trkpt><trkpt lat="-32.50591200" lon="115.70088600"><time>2010-04-03T03:26:23Z</time></trkpt><trkpt lat="-32.50590700" lon="115.70085900"><time>2010-04-03T03:26:24Z</time></trkpt><trkpt lat="-32.50590600" lon="115.70082400"><time>2010-04-03T03:26:25Z</time></trkpt><trkpt lat="-32.50590700" lon="115.70078700"><time>2010-04-03T03:26:26Z</time></trkpt><trkpt lat="-32.50590800" lon="115.70075400"><time>2010-04-03T03:26:27Z</time></trkpt><trkpt lat="-32.50591100" lon="115.70072100"><time>2010-04-03T03:26:28Z</time></trkpt><trkpt lat="-32.50591500" lon="115.70069000"><time>2010-04-03T03:26:29Z</time></trkpt><trkpt lat="-32.50591600" lon="115.70065600"><time>2010-04-03T03:26:30Z</time></trkpt><trkpt lat="-32.50591400" lon="115.70062000"><time>2010-04-03T03:26:31Z</time></trkpt><trkpt lat="-32.50591400" lon="115.70058300"><time>2010-04-03T03:26:32Z</time></trkpt><trkpt lat="-32.50591400" lon="115.70054800"><time>2010-04-03T03:26:33Z</time></trkpt><trkpt lat="-32.50591400" lon="115.70051400"><time>2010-04-03T03:26:34Z</time></trkpt><trkpt lat="-32.50591400" lon="115.70048200"><time>2010-04-03T03:26:35Z</time></trkpt><trkpt lat="-32.50591400" lon="115.70044700"><time>2010-04-03T03:26:36Z</time></trkpt><trkpt lat="-32.50591500" lon="115.70041100"><time>2010-04-03T03:26:37Z</time></trkpt><trkpt lat="-32.50591600" lon="115.70037400"><time>2010-04-03T03:26:38Z</time></trkpt><trkpt lat="-32.50591700" lon="115.70033800"><time>2010-04-03T03:26:39Z</time></trkpt><trkpt lat="-32.50592000" lon="115.70030300"><time>2010-04-03T03:26:40Z</time></trkpt><trkpt lat="-32.50592200" lon="115.70026800"><time>2010-04-03T03:26:41Z</time></trkpt><trkpt lat="-32.50592400" lon="115.70023300"><time>2010-04-03T03:26:42Z</time></trkpt><trkpt lat="-32.50592400" lon="115.70020000"><time>2010-04-03T03:26:43Z</time></trkpt><trkpt lat="-32.50592400" lon="115.70016700"><time>2010-04-03T03:26:44Z</time></trkpt><trkpt lat="-32.50592200" lon="115.70013300"><time>2010-04-03T03:26:45Z</time></trkpt><trkpt lat="-32.50592100" lon="115.70009600"><time>2010-04-03T03:26:46Z</time></trkpt><trkpt lat="-32.50592100" lon="115.70005800"><time>2010-04-03T03:26:47Z</time></trkpt><trkpt lat="-32.50591900" lon="115.70002500"><time>2010-04-03T03:26:48Z</time></trkpt><trkpt lat="-32.50591700" lon="115.69999400"><time>2010-04-03T03:26:49Z</time></trkpt><trkpt lat="-32.50591700" lon="115.69996000"><time>2010-04-03T03:26:50Z</time></trkpt><trkpt lat="-32.50591600" lon="115.69992800"><time>2010-04-03T03:26:51Z</time></trkpt><trkpt lat="-32.50591300" lon="115.69989500"><time>2010-04-03T03:26:52Z</time></trkpt><trkpt lat="-32.50591000" lon="115.69986100"><time>2010-04-03T03:26:53Z</time></trkpt><trkpt lat="-32.50590900" lon="115.69982700"><time>2010-04-03T03:26:54Z</time></trkpt><trkpt lat="-32.50590700" lon="115.69979000"><time>2010-04-03T03:26:55Z</time></trkpt><trkpt lat="-32.50590600" lon="115.69975300"><time>2010-04-03T03:26:56Z</time></trkpt><trkpt lat="-32.50590600" lon="115.69971500"><time>2010-04-03T03:26:57Z</time></trkpt><trkpt lat="-32.50590600" lon="115.69967500"><time>2010-04-03T03:26:58Z</time></trkpt><trkpt lat="-32.50590700" lon="115.69964000"><time>2010-04-03T03:26:59Z</time></trkpt><trkpt lat="-32.50590800" lon="115.69960500"><time>2010-04-03T03:27:00Z</time></trkpt><trkpt lat="-32.50590600" lon="115.69956700"><time>2010-04-03T03:27:01Z</time></trkpt><trkpt lat="-32.50590400" lon="115.69952900"><time>2010-04-03T03:27:02Z</time></trkpt><trkpt lat="-32.50590300" lon="115.69949000"><time>2010-04-03T03:27:03Z</time></trkpt><trkpt lat="-32.50590100" lon="115.69945600"><time>2010-04-03T03:27:04Z</time></trkpt><trkpt lat="-32.50589900" lon="115.69941800"><time>2010-04-03T03:27:05Z</time></trkpt><trkpt lat="-32.50589600" lon="115.69938000"><time>2010-04-03T03:27:06Z</time></trkpt><trkpt lat="-32.50589300" lon="115.69934300"><time>2010-04-03T03:27:07Z</time></trkpt><trkpt lat="-32.50589200" lon="115.69930800"><time>2010-04-03T03:27:08Z</time></trkpt><trkpt lat="-32.50589300" lon="115.69927300"><time>2010-04-03T03:27:09Z</time></trkpt><trkpt lat="-32.50589200" lon="115.69923800"><time>2010-04-03T03:27:10Z</time></trkpt><trkpt lat="-32.50589200" lon="115.69920500"><time>2010-04-03T03:27:11Z</time></trkpt><trkpt lat="-32.50589100" lon="115.69917100"><time>2010-04-03T03:27:12Z</time></trkpt><trkpt lat="-32.50589000" lon="115.69913400"><time>2010-04-03T03:27:13Z</time></trkpt><trkpt lat="-32.50589000" lon="115.69909300"><time>2010-04-03T03:27:14Z</time></trkpt><trkpt lat="-32.50588700" lon="115.69905100"><time>2010-04-03T03:27:15Z</time></trkpt><trkpt lat="-32.50588900" lon="115.69901100"><time>2010-04-03T03:27:16Z</time></trkpt><trkpt lat="-32.50588900" lon="115.69897200"><time>2010-04-03T03:27:17Z</time></trkpt><trkpt lat="-32.50588900" lon="115.69893500"><time>2010-04-03T03:27:18Z</time></trkpt><trkpt lat="-32.50588800" lon="115.69889800"><time>2010-04-03T03:27:19Z</time></trkpt><trkpt lat="-32.50588600" lon="115.69886300"><time>2010-04-03T03:27:20Z</time></trkpt><trkpt lat="-32.50588400" lon="115.69882800"><time>2010-04-03T03:27:21Z</time></trkpt><trkpt lat="-32.50587800" lon="115.69879200"><time>2010-04-03T03:27:22Z</time></trkpt><trkpt lat="-32.50587600" lon="115.69875900"><time>2010-04-03T03:27:23Z</time></trkpt><trkpt lat="-32.50587500" lon="115.69872500"><time>2010-04-03T03:27:24Z</time></trkpt><trkpt lat="-32.50587500" lon="115.69869000"><time>2010-04-03T03:27:25Z</time></trkpt><trkpt lat="-32.50587300" lon="115.69865400"><time>2010-04-03T03:27:26Z</time></trkpt><trkpt lat="-32.50587300" lon="115.69861800"><time>2010-04-03T03:27:27Z</time></trkpt><trkpt lat="-32.50587300" lon="115.69858100"><time>2010-04-03T03:27:28Z</time></trkpt><trkpt lat="-32.50587400" lon="115.69854400"><time>2010-04-03T03:27:29Z</time></trkpt><trkpt lat="-32.50587400" lon="115.69850700"><time>2010-04-03T03:27:30Z</time></trkpt><trkpt lat="-32.50587300" lon="115.69847000"><time>2010-04-03T03:27:31Z</time></trkpt><trkpt lat="-32.50587100" lon="115.69843300"><time>2010-04-03T03:27:32Z</time></trkpt><trkpt lat="-32.50587100" lon="115.69839400"><time>2010-04-03T03:27:33Z</time></trkpt><trkpt lat="-32.50586800" lon="115.69835800"><time>2010-04-03T03:27:34Z</time></trkpt><trkpt lat="-32.50586400" lon="115.69832100"><time>2010-04-03T03:27:35Z</time></trkpt><trkpt lat="-32.50586100" lon="115.69828300"><time>2010-04-03T03:27:36Z</time></trkpt><trkpt lat="-32.50585900" lon="115.69825000"><time>2010-04-03T03:27:37Z</time></trkpt><trkpt lat="-32.50585600" lon="115.69821700"><time>2010-04-03T03:27:38Z</time></trkpt><trkpt lat="-32.50585100" lon="115.69818000"><time>2010-04-03T03:27:39Z</time></trkpt><trkpt lat="-32.50584600" lon="115.69814500"><time>2010-04-03T03:27:40Z</time></trkpt><trkpt lat="-32.50584700" lon="115.69810700"><time>2010-04-03T03:27:41Z</time></trkpt><trkpt lat="-32.50584800" lon="115.69806900"><time>2010-04-03T03:27:42Z</time></trkpt><trkpt lat="-32.50584600" lon="115.69803100"><time>2010-04-03T03:27:43Z</time></trkpt><trkpt lat="-32.50584700" lon="115.69799600"><time>2010-04-03T03:27:44Z</time></trkpt><trkpt lat="-32.50584500" lon="115.69796300"><time>2010-04-03T03:27:45Z</time></trkpt><trkpt lat="-32.50584400" lon="115.69793100"><time>2010-04-03T03:27:46Z</time></trkpt><trkpt lat="-32.50584300" lon="115.69789800"><time>2010-04-03T03:27:47Z</time></trkpt><trkpt lat="-32.50584400" lon="115.69786300"><time>2010-04-03T03:27:48Z</time></trkpt><trkpt lat="-32.50584500" lon="115.69782900"><time>2010-04-03T03:27:49Z</time></trkpt><trkpt lat="-32.50584300" lon="115.69779300"><time>2010-04-03T03:27:50Z</time></trkpt><trkpt lat="-32.50583900" lon="115.69776100"><time>2010-04-03T03:27:51Z</time></trkpt><trkpt lat="-32.50583900" lon="115.69772600"><time>2010-04-03T03:27:52Z</time></trkpt><trkpt lat="-32.50583800" lon="115.69769200"><time>2010-04-03T03:27:53Z</time></trkpt><trkpt lat="-32.50583900" lon="115.69765700"><time>2010-04-03T03:27:54Z</time></trkpt><trkpt lat="-32.50584000" lon="115.69762500"><time>2010-04-03T03:27:55Z</time></trkpt><trkpt lat="-32.50583900" lon="115.69759100"><time>2010-04-03T03:27:56Z</time></trkpt><trkpt lat="-32.50583800" lon="115.69755600"><time>2010-04-03T03:27:57Z</time></trkpt><trkpt lat="-32.50584000" lon="115.69752200"><time>2010-04-03T03:27:58Z</time></trkpt><trkpt lat="-32.50584200" lon="115.69748900"><time>2010-04-03T03:27:59Z</time></trkpt><trkpt lat="-32.50584100" lon="115.69745600"><time>2010-04-03T03:28:00Z</time></trkpt><trkpt lat="-32.50583500" lon="115.69742700"><time>2010-04-03T03:28:01Z</time></trkpt><trkpt lat="-32.50583100" lon="115.69739600"><time>2010-04-03T03:28:02Z</time></trkpt><trkpt lat="-32.50582600" lon="115.69736600"><time>2010-04-03T03:28:03Z</time></trkpt><trkpt lat="-32.50582100" lon="115.69733500"><time>2010-04-03T03:28:04Z</time></trkpt><trkpt lat="-32.50581700" lon="115.69730300"><time>2010-04-03T03:28:05Z</time></trkpt><trkpt lat="-32.50581700" lon="115.69727100"><time>2010-04-03T03:28:06Z</time></trkpt><trkpt lat="-32.50581700" lon="115.69723700"><time>2010-04-03T03:28:07Z</time></trkpt><trkpt lat="-32.50581400" lon="115.69719900"><time>2010-04-03T03:28:08Z</time></trkpt><trkpt lat="-32.50581200" lon="115.69716200"><time>2010-04-03T03:28:09Z</time></trkpt><trkpt lat="-32.50581100" lon="115.69712700"><time>2010-04-03T03:28:10Z</time></trkpt><trkpt lat="-32.50581000" lon="115.69709200"><time>2010-04-03T03:28:11Z</time></trkpt><trkpt lat="-32.50581400" lon="115.69706300"><time>2010-04-03T03:28:12Z</time></trkpt><trkpt lat="-32.50582500" lon="115.69704500"><time>2010-04-03T03:28:13Z</time></trkpt><trkpt lat="-32.50583700" lon="115.69703900"><time>2010-04-03T03:28:14Z</time></trkpt><trkpt lat="-32.50584900" lon="115.69703600"><time>2010-04-03T03:28:15Z</time></trkpt><trkpt lat="-32.50586500" lon="115.69703500"><time>2010-04-03T03:28:16Z</time></trkpt><trkpt lat="-32.50588700" lon="115.69703300"><time>2010-04-03T03:28:17Z</time></trkpt><trkpt lat="-32.50591300" lon="115.69702900"><time>2010-04-03T03:28:18Z</time></trkpt><trkpt lat="-32.50594300" lon="115.69702900"><time>2010-04-03T03:28:19Z</time></trkpt><trkpt lat="-32.50597800" lon="115.69702900"><time>2010-04-03T03:28:20Z</time></trkpt><trkpt lat="-32.50601200" lon="115.69702900"><time>2010-04-03T03:28:21Z</time></trkpt><trkpt lat="-32.50604700" lon="115.69702900"><time>2010-04-03T03:28:22Z</time></trkpt><trkpt lat="-32.50608300" lon="115.69703100"><time>2010-04-03T03:28:23Z</time></trkpt><trkpt lat="-32.50612000" lon="115.69703100"><time>2010-04-03T03:28:24Z</time></trkpt><trkpt lat="-32.50615700" lon="115.69703000"><time>2010-04-03T03:28:25Z</time></trkpt><trkpt lat="-32.50619500" lon="115.69702900"><time>2010-04-03T03:28:26Z</time></trkpt><trkpt lat="-32.50623400" lon="115.69702900"><time>2010-04-03T03:28:27Z</time></trkpt><trkpt lat="-32.50627200" lon="115.69702800"><time>2010-04-03T03:28:28Z</time></trkpt><trkpt lat="-32.50630900" lon="115.69702800"><time>2010-04-03T03:28:29Z</time></trkpt><trkpt lat="-32.50634300" lon="115.69703000"><time>2010-04-03T03:28:30Z</time></trkpt><trkpt lat="-32.50638000" lon="115.69703300"><time>2010-04-03T03:28:31Z</time></trkpt><trkpt lat="-32.50641500" lon="115.69704000"><time>2010-04-03T03:28:32Z</time></trkpt><trkpt lat="-32.50645100" lon="115.69704400"><time>2010-04-03T03:28:33Z</time></trkpt><trkpt lat="-32.50648300" lon="115.69704300"><time>2010-04-03T03:28:34Z</time></trkpt><trkpt lat="-32.50651700" lon="115.69704600"><time>2010-04-03T03:28:35Z</time></trkpt><trkpt lat="-32.50655200" lon="115.69704900"><time>2010-04-03T03:28:36Z</time></trkpt><trkpt lat="-32.50659000" lon="115.69705200"><time>2010-04-03T03:28:37Z</time></trkpt><trkpt lat="-32.50662800" lon="115.69705600"><time>2010-04-03T03:28:38Z</time></trkpt><trkpt lat="-32.50666900" lon="115.69705900"><time>2010-04-03T03:28:39Z</time></trkpt><trkpt lat="-32.50670500" lon="115.69706200"><time>2010-04-03T03:28:40Z</time></trkpt><trkpt lat="-32.50674000" lon="115.69706700"><time>2010-04-03T03:28:41Z</time></trkpt><trkpt lat="-32.50677700" lon="115.69707300"><time>2010-04-03T03:28:42Z</time></trkpt><trkpt lat="-32.50681600" lon="115.69707700"><time>2010-04-03T03:28:43Z</time></trkpt><trkpt lat="-32.50685400" lon="115.69708200"><time>2010-04-03T03:28:44Z</time></trkpt><trkpt lat="-32.50688900" lon="115.69708700"><time>2010-04-03T03:28:45Z</time></trkpt><trkpt lat="-32.50692500" lon="115.69708900"><time>2010-04-03T03:28:46Z</time></trkpt><trkpt lat="-32.50696200" lon="115.69708700"><time>2010-04-03T03:28:47Z</time></trkpt><trkpt lat="-32.50700100" lon="115.69708500"><time>2010-04-03T03:28:48Z</time></trkpt><trkpt lat="-32.50703900" lon="115.69708700"><time>2010-04-03T03:28:49Z</time></trkpt><trkpt lat="-32.50707600" lon="115.69709000"><time>2010-04-03T03:28:50Z</time></trkpt><trkpt lat="-32.50711000" lon="115.69709500"><time>2010-04-03T03:28:51Z</time></trkpt><trkpt lat="-32.50714200" lon="115.69709400"><time>2010-04-03T03:28:52Z</time></trkpt><trkpt lat="-32.50717100" lon="115.69709400"><time>2010-04-03T03:28:53Z</time></trkpt><trkpt lat="-32.50720300" lon="115.69709500"><time>2010-04-03T03:28:54Z</time></trkpt><trkpt lat="-32.50723800" lon="115.69709500"><time>2010-04-03T03:28:55Z</time></trkpt><trkpt lat="-32.50727000" lon="115.69709500"><time>2010-04-03T03:28:56Z</time></trkpt><trkpt lat="-32.50729900" lon="115.69710200"><time>2010-04-03T03:28:57Z</time></trkpt><trkpt lat="-32.50732900" lon="115.69711100"><time>2010-04-03T03:28:58Z</time></trkpt><trkpt lat="-32.50736000" lon="115.69711500"><time>2010-04-03T03:28:59Z</time></trkpt><trkpt lat="-32.50738900" lon="115.69711800"><time>2010-04-03T03:29:00Z</time></trkpt><trkpt lat="-32.50742100" lon="115.69711900"><time>2010-04-03T03:29:01Z</time></trkpt><trkpt lat="-32.50745100" lon="115.69712600"><time>2010-04-03T03:29:02Z</time></trkpt><trkpt lat="-32.50747800" lon="115.69713100"><time>2010-04-03T03:29:03Z</time></trkpt><trkpt lat="-32.50750600" lon="115.69713500"><time>2010-04-03T03:29:04Z</time></trkpt><trkpt lat="-32.50753300" lon="115.69713800"><time>2010-04-03T03:29:05Z</time></trkpt><trkpt lat="-32.50755900" lon="115.69714300"><time>2010-04-03T03:29:06Z</time></trkpt><trkpt lat="-32.50758600" lon="115.69715000"><time>2010-04-03T03:29:07Z</time></trkpt><trkpt lat="-32.50761400" lon="115.69715900"><time>2010-04-03T03:29:08Z</time></trkpt><trkpt lat="-32.50764100" lon="115.69716300"><time>2010-04-03T03:29:09Z</time></trkpt><trkpt lat="-32.50766900" lon="115.69716200"><time>2010-04-03T03:29:10Z</time></trkpt><trkpt lat="-32.50769300" lon="115.69716000"><time>2010-04-03T03:29:11Z</time></trkpt><trkpt lat="-32.50771900" lon="115.69716300"><time>2010-04-03T03:29:12Z</time></trkpt><trkpt lat="-32.50774600" lon="115.69716600"><time>2010-04-03T03:29:13Z</time></trkpt><trkpt lat="-32.50777400" lon="115.69716700"><time>2010-04-03T03:29:14Z</time></trkpt><trkpt lat="-32.50780100" lon="115.69717000"><time>2010-04-03T03:29:15Z</time></trkpt><trkpt lat="-32.50782500" lon="115.69717500"><time>2010-04-03T03:29:16Z</time></trkpt><trkpt lat="-32.50785100" lon="115.69718200"><time>2010-04-03T03:29:17Z</time></trkpt><trkpt lat="-32.50788000" lon="115.69718800"><time>2010-04-03T03:29:18Z</time></trkpt><trkpt lat="-32.50790900" lon="115.69719300"><time>2010-04-03T03:29:19Z</time></trkpt><trkpt lat="-32.50793900" lon="115.69719600"><time>2010-04-03T03:29:20Z</time></trkpt><trkpt lat="-32.50796900" lon="115.69719800"><time>2010-04-03T03:29:21Z</time></trkpt><trkpt lat="-32.50799900" lon="115.69720500"><time>2010-04-03T03:29:22Z</time></trkpt><trkpt lat="-32.50802500" lon="115.69721300"><time>2010-04-03T03:29:23Z</time></trkpt><trkpt lat="-32.50805000" lon="115.69722100"><time>2010-04-03T03:29:24Z</time></trkpt><trkpt lat="-32.50807600" lon="115.69723000"><time>2010-04-03T03:29:25Z</time></trkpt><trkpt lat="-32.50810100" lon="115.69723500"><time>2010-04-03T03:29:26Z</time></trkpt><trkpt lat="-32.50813100" lon="115.69723600"><time>2010-04-03T03:29:27Z</time></trkpt><trkpt lat="-32.50815500" lon="115.69724000"><time>2010-04-03T03:29:28Z</time></trkpt><trkpt lat="-32.50818000" lon="115.69724200"><time>2010-04-03T03:29:29Z</time></trkpt><trkpt lat="-32.50820700" lon="115.69724500"><time>2010-04-03T03:29:30Z</time></trkpt><trkpt lat="-32.50823300" lon="115.69724600"><time>2010-04-03T03:29:31Z</time></trkpt><trkpt lat="-32.50825800" lon="115.69725300"><time>2010-04-03T03:29:32Z</time></trkpt><trkpt lat="-32.50828600" lon="115.69726000"><time>2010-04-03T03:29:33Z</time></trkpt><trkpt lat="-32.50831500" lon="115.69726600"><time>2010-04-03T03:29:34Z</time></trkpt><trkpt lat="-32.50834000" lon="115.69727600"><time>2010-04-03T03:29:35Z</time></trkpt><trkpt lat="-32.50836400" lon="115.69729400"><time>2010-04-03T03:29:36Z</time></trkpt><trkpt lat="-32.50838500" lon="115.69732800"><time>2010-04-03T03:29:37Z</time></trkpt><trkpt lat="-32.50840600" lon="115.69737400"><time>2010-04-03T03:29:38Z</time></trkpt><trkpt lat="-32.50842000" lon="115.69743100"><time>2010-04-03T03:29:39Z</time></trkpt><trkpt lat="-32.50842700" lon="115.69749600"><time>2010-04-03T03:29:40Z</time></trkpt><trkpt lat="-32.50843200" lon="115.69756400"><time>2010-04-03T03:29:41Z</time></trkpt><trkpt lat="-32.50843600" lon="115.69762800"><time>2010-04-03T03:29:42Z</time></trkpt><trkpt lat="-32.50843300" lon="115.69769100"><time>2010-04-03T03:29:43Z</time></trkpt><trkpt lat="-32.50842000" lon="115.69774600"><time>2010-04-03T03:29:44Z</time></trkpt><trkpt lat="-32.50840300" lon="115.69779500"><time>2010-04-03T03:29:45Z</time></trkpt><trkpt lat="-32.50838100" lon="115.69784000"><time>2010-04-03T03:29:46Z</time></trkpt><trkpt lat="-32.50836000" lon="115.69788100"><time>2010-04-03T03:29:47Z</time></trkpt><trkpt lat="-32.50834500" lon="115.69792500"><time>2010-04-03T03:29:48Z</time></trkpt><trkpt lat="-32.50832800" lon="115.69796700"><time>2010-04-03T03:29:49Z</time></trkpt><trkpt lat="-32.50830700" lon="115.69801000"><time>2010-04-03T03:29:50Z</time></trkpt><trkpt lat="-32.50828900" lon="115.69805300"><time>2010-04-03T03:29:51Z</time></trkpt><trkpt lat="-32.50826600" lon="115.69809200"><time>2010-04-03T03:29:52Z</time></trkpt><trkpt lat="-32.50824400" lon="115.69813000"><time>2010-04-03T03:29:53Z</time></trkpt><trkpt lat="-32.50822300" lon="115.69816200"><time>2010-04-03T03:29:54Z</time></trkpt><trkpt lat="-32.50819800" lon="115.69819400"><time>2010-04-03T03:29:55Z</time></trkpt><trkpt lat="-32.50817400" lon="115.69822500"><time>2010-04-03T03:29:56Z</time></trkpt><trkpt lat="-32.50814800" lon="115.69826000"><time>2010-04-03T03:29:57Z</time></trkpt><trkpt lat="-32.50812400" lon="115.69830100"><time>2010-04-03T03:29:58Z</time></trkpt><trkpt lat="-32.50810100" lon="115.69834500"><time>2010-04-03T03:29:59Z</time></trkpt><trkpt lat="-32.50807700" lon="115.69838800"><time>2010-04-03T03:30:00Z</time></trkpt><trkpt lat="-32.50805400" lon="115.69842400"><time>2010-04-03T03:30:01Z</time></trkpt><trkpt lat="-32.50803000" lon="115.69845700"><time>2010-04-03T03:30:02Z</time></trkpt><trkpt lat="-32.50801000" lon="115.69849100"><time>2010-04-03T03:30:03Z</time></trkpt><trkpt lat="-32.50799500" lon="115.69852800"><time>2010-04-03T03:30:04Z</time></trkpt><trkpt lat="-32.50798100" lon="115.69857000"><time>2010-04-03T03:30:05Z</time></trkpt><trkpt lat="-32.50796200" lon="115.69861600"><time>2010-04-03T03:30:06Z</time></trkpt><trkpt lat="-32.50794100" lon="115.69866000"><time>2010-04-03T03:30:07Z</time></trkpt><trkpt lat="-32.50791400" lon="115.69869900"><time>2010-04-03T03:30:08Z</time></trkpt><trkpt lat="-32.50788600" lon="115.69873700"><time>2010-04-03T03:30:09Z</time></trkpt><trkpt lat="-32.50785500" lon="115.69877200"><time>2010-04-03T03:30:10Z</time></trkpt><trkpt lat="-32.50782500" lon="115.69880200"><time>2010-04-03T03:30:11Z</time></trkpt><trkpt lat="-32.50779400" lon="115.69883300"><time>2010-04-03T03:30:12Z</time></trkpt><trkpt lat="-32.50776700" lon="115.69886400"><time>2010-04-03T03:30:13Z</time></trkpt><trkpt lat="-32.50774800" lon="115.69889700"><time>2010-04-03T03:30:14Z</time></trkpt><trkpt lat="-32.50773400" lon="115.69893400"><time>2010-04-03T03:30:15Z</time></trkpt><trkpt lat="-32.50772700" lon="115.69897900"><time>2010-04-03T03:30:16Z</time></trkpt><trkpt lat="-32.50772300" lon="115.69902600"><time>2010-04-03T03:30:17Z</time></trkpt><trkpt lat="-32.50771500" lon="115.69907400"><time>2010-04-03T03:30:18Z</time></trkpt><trkpt lat="-32.50770300" lon="115.69912200"><time>2010-04-03T03:30:19Z</time></trkpt><trkpt lat="-32.50769100" lon="115.69916700"><time>2010-04-03T03:30:20Z</time></trkpt><trkpt lat="-32.50768000" lon="115.69921200"><time>2010-04-03T03:30:21Z</time></trkpt><trkpt lat="-32.50767000" lon="115.69925700"><time>2010-04-03T03:30:22Z</time></trkpt><trkpt lat="-32.50765800" lon="115.69930000"><time>2010-04-03T03:30:23Z</time></trkpt><trkpt lat="-32.50764600" lon="115.69934400"><time>2010-04-03T03:30:24Z</time></trkpt><trkpt lat="-32.50763700" lon="115.69939000"><time>2010-04-03T03:30:25Z</time></trkpt><trkpt lat="-32.50763100" lon="115.69943600"><time>2010-04-03T03:30:26Z</time></trkpt><trkpt lat="-32.50762400" lon="115.69948200"><time>2010-04-03T03:30:27Z</time></trkpt><trkpt lat="-32.50761000" lon="115.69952800"><time>2010-04-03T03:30:28Z</time></trkpt><trkpt lat="-32.50759100" lon="115.69957200"><time>2010-04-03T03:30:29Z</time></trkpt><trkpt lat="-32.50756800" lon="115.69961500"><time>2010-04-03T03:30:30Z</time></trkpt><trkpt lat="-32.50754300" lon="115.69965500"><time>2010-04-03T03:30:31Z</time></trkpt><trkpt lat="-32.50751500" lon="115.69969300"><time>2010-04-03T03:30:32Z</time></trkpt><trkpt lat="-32.50748800" lon="115.69972900"><time>2010-04-03T03:30:33Z</time></trkpt><trkpt lat="-32.50746400" lon="115.69976900"><time>2010-04-03T03:30:34Z</time></trkpt><trkpt lat="-32.50744300" lon="115.69981700"><time>2010-04-03T03:30:35Z</time></trkpt><trkpt lat="-32.50742900" lon="115.69986900"><time>2010-04-03T03:30:36Z</time></trkpt><trkpt lat="-32.50741500" lon="115.69992400"><time>2010-04-03T03:30:37Z</time></trkpt><trkpt lat="-32.50739700" lon="115.69997500"><time>2010-04-03T03:30:38Z</time></trkpt><trkpt lat="-32.50737900" lon="115.70002300"><time>2010-04-03T03:30:39Z</time></trkpt><trkpt lat="-32.50736300" lon="115.70007000"><time>2010-04-03T03:30:40Z</time></trkpt><trkpt lat="-32.50734800" lon="115.70011800"><time>2010-04-03T03:30:41Z</time></trkpt><trkpt lat="-32.50733100" lon="115.70016400"><time>2010-04-03T03:30:42Z</time></trkpt><trkpt lat="-32.50731400" lon="115.70020900"><time>2010-04-03T03:30:43Z</time></trkpt><trkpt lat="-32.50729900" lon="115.70025100"><time>2010-04-03T03:30:44Z</time></trkpt><trkpt lat="-32.50728200" lon="115.70028800"><time>2010-04-03T03:30:45Z</time></trkpt><trkpt lat="-32.50725900" lon="115.70031700"><time>2010-04-03T03:30:46Z</time></trkpt><trkpt lat="-32.50723200" lon="115.70034000"><time>2010-04-03T03:30:47Z</time></trkpt><trkpt lat="-32.50720400" lon="115.70036000"><time>2010-04-03T03:30:48Z</time></trkpt><trkpt lat="-32.50717700" lon="115.70038300"><time>2010-04-03T03:30:49Z</time></trkpt><trkpt lat="-32.50715000" lon="115.70040500"><time>2010-04-03T03:30:50Z</time></trkpt><trkpt lat="-32.50712300" lon="115.70042200"><time>2010-04-03T03:30:51Z</time></trkpt><trkpt lat="-32.50710100" lon="115.70043600"><time>2010-04-03T03:30:52Z</time></trkpt><trkpt lat="-32.50707400" lon="115.70045000"><time>2010-04-03T03:30:53Z</time></trkpt><trkpt lat="-32.50704800" lon="115.70046300"><time>2010-04-03T03:30:54Z</time></trkpt><trkpt lat="-32.50702400" lon="115.70048000"><time>2010-04-03T03:30:55Z</time></trkpt><trkpt lat="-32.50699500" lon="115.70049700"><time>2010-04-03T03:30:56Z</time></trkpt><trkpt lat="-32.50696100" lon="115.70051500"><time>2010-04-03T03:30:57Z</time></trkpt><trkpt lat="-32.50692400" lon="115.70052900"><time>2010-04-03T03:30:58Z</time></trkpt><trkpt lat="-32.50688800" lon="115.70054500"><time>2010-04-03T03:30:59Z</time></trkpt><trkpt lat="-32.50685600" lon="115.70056000"><time>2010-04-03T03:31:00Z</time></trkpt><trkpt lat="-32.50682800" lon="115.70056600"><time>2010-04-03T03:31:01Z</time></trkpt><trkpt lat="-32.50680000" lon="115.70056400"><time>2010-04-03T03:31:02Z</time></trkpt><trkpt lat="-32.50676500" lon="115.70056100"><time>2010-04-03T03:31:03Z</time></trkpt><trkpt lat="-32.50672500" lon="115.70056200"><time>2010-04-03T03:31:04Z</time></trkpt><trkpt lat="-32.50668000" lon="115.70057300"><time>2010-04-03T03:31:05Z</time></trkpt><trkpt lat="-32.50663700" lon="115.70058500"><time>2010-04-03T03:31:06Z</time></trkpt><trkpt lat="-32.50659700" lon="115.70060000"><time>2010-04-03T03:31:07Z</time></trkpt><trkpt lat="-32.50655500" lon="115.70061500"><time>2010-04-03T03:31:08Z</time></trkpt><trkpt lat="-32.50651400" lon="115.70062600"><time>2010-04-03T03:31:09Z</time></trkpt><trkpt lat="-32.50647000" lon="115.70063500"><time>2010-04-03T03:31:10Z</time></trkpt><trkpt lat="-32.50642200" lon="115.70064800"><time>2010-04-03T03:31:11Z</time></trkpt><trkpt lat="-32.50637300" lon="115.70066500"><time>2010-04-03T03:31:12Z</time></trkpt><trkpt lat="-32.50632600" lon="115.70068800"><time>2010-04-03T03:31:13Z</time></trkpt><trkpt lat="-32.50627900" lon="115.70070900"><time>2010-04-03T03:31:14Z</time></trkpt><trkpt lat="-32.50623400" lon="115.70072700"><time>2010-04-03T03:31:15Z</time></trkpt><trkpt lat="-32.50618600" lon="115.70074100"><time>2010-04-03T03:31:16Z</time></trkpt><trkpt lat="-32.50613700" lon="115.70075900"><time>2010-04-03T03:31:17Z</time></trkpt><trkpt lat="-32.50609200" lon="115.70077700"><time>2010-04-03T03:31:18Z</time></trkpt><trkpt lat="-32.50605100" lon="115.70079200"><time>2010-04-03T03:31:19Z</time></trkpt><trkpt lat="-32.50601100" lon="115.70080300"><time>2010-04-03T03:31:20Z</time></trkpt><trkpt lat="-32.50596800" lon="115.70081600"><time>2010-04-03T03:31:21Z</time></trkpt><trkpt lat="-32.50592900" lon="115.70083000"><time>2010-04-03T03:31:22Z</time></trkpt><trkpt lat="-32.50588900" lon="115.70085400"><time>2010-04-03T03:31:23Z</time></trkpt><trkpt lat="-32.50585200" lon="115.70087700"><time>2010-04-03T03:31:24Z</time></trkpt><trkpt lat="-32.50581400" lon="115.70089500"><time>2010-04-03T03:31:25Z</time></trkpt><trkpt lat="-32.50577500" lon="115.70090900"><time>2010-04-03T03:31:26Z</time></trkpt><trkpt lat="-32.50573600" lon="115.70092200"><time>2010-04-03T03:31:27Z</time></trkpt><trkpt lat="-32.50569800" lon="115.70093500"><time>2010-04-03T03:31:28Z</time></trkpt><trkpt lat="-32.50566200" lon="115.70094100"><time>2010-04-03T03:31:29Z</time></trkpt><trkpt lat="-32.50562200" lon="115.70095000"><time>2010-04-03T03:31:30Z</time></trkpt><trkpt lat="-32.50558300" lon="115.70096400"><time>2010-04-03T03:31:31Z</time></trkpt><trkpt lat="-32.50554300" lon="115.70097800"><time>2010-04-03T03:31:32Z</time></trkpt><trkpt lat="-32.50550400" lon="115.70099600"><time>2010-04-03T03:31:33Z</time></trkpt><trkpt lat="-32.50546600" lon="115.70101700"><time>2010-04-03T03:31:34Z</time></trkpt><trkpt lat="-32.50542500" lon="115.70104500"><time>2010-04-03T03:31:35Z</time></trkpt><trkpt lat="-32.50538000" lon="115.70106700"><time>2010-04-03T03:31:36Z</time></trkpt><trkpt lat="-32.50533900" lon="115.70108300"><time>2010-04-03T03:31:37Z</time></trkpt><trkpt lat="-32.50529700" lon="115.70109400"><time>2010-04-03T03:31:38Z</time></trkpt><trkpt lat="-32.50525600" lon="115.70110600"><time>2010-04-03T03:31:39Z</time></trkpt><trkpt lat="-32.50521600" lon="115.70111900"><time>2010-04-03T03:31:40Z</time></trkpt><trkpt lat="-32.50518000" lon="115.70113200"><time>2010-04-03T03:31:41Z</time></trkpt><trkpt lat="-32.50514700" lon="115.70114100"><time>2010-04-03T03:31:42Z</time></trkpt><trkpt lat="-32.50511300" lon="115.70114000"><time>2010-04-03T03:31:43Z</time></trkpt><trkpt lat="-32.50508100" lon="115.70113600"><time>2010-04-03T03:31:44Z</time></trkpt><trkpt lat="-32.50504600" lon="115.70113100"><time>2010-04-03T03:31:45Z</time></trkpt><trkpt lat="-32.50500600" lon="115.70112900"><time>2010-04-03T03:31:46Z</time></trkpt><trkpt lat="-32.50496400" lon="115.70112800"><time>2010-04-03T03:31:47Z</time></trkpt><trkpt lat="-32.50492100" lon="115.70113300"><time>2010-04-03T03:31:48Z</time></trkpt><trkpt lat="-32.50487600" lon="115.70113800"><time>2010-04-03T03:31:49Z</time></trkpt><trkpt lat="-32.50483100" lon="115.70114700"><time>2010-04-03T03:31:50Z</time></trkpt><trkpt lat="-32.50478700" lon="115.70116300"><time>2010-04-03T03:31:51Z</time></trkpt><trkpt lat="-32.50474300" lon="115.70118600"><time>2010-04-03T03:31:52Z</time></trkpt><trkpt lat="-32.50470100" lon="115.70120800"><time>2010-04-03T03:31:53Z</time></trkpt><trkpt lat="-32.50466100" lon="115.70122900"><time>2010-04-03T03:31:54Z</time></trkpt><trkpt lat="-32.50462400" lon="115.70125400"><time>2010-04-03T03:31:55Z</time></trkpt><trkpt lat="-32.50458800" lon="115.70128200"><time>2010-04-03T03:31:56Z</time></trkpt><trkpt lat="-32.50455200" lon="115.70130800"><time>2010-04-03T03:31:57Z</time></trkpt><trkpt lat="-32.50451600" lon="115.70133200"><time>2010-04-03T03:31:58Z</time></trkpt><trkpt lat="-32.50448000" lon="115.70135500"><time>2010-04-03T03:31:59Z</time></trkpt><trkpt lat="-32.50444100" lon="115.70138100"><time>2010-04-03T03:32:00Z</time></trkpt><trkpt lat="-32.50440300" lon="115.70141000"><time>2010-04-03T03:32:01Z</time></trkpt><trkpt lat="-32.50436400" lon="115.70143800"><time>2010-04-03T03:32:02Z</time></trkpt><trkpt lat="-32.50432700" lon="115.70146700"><time>2010-04-03T03:32:03Z</time></trkpt><trkpt lat="-32.50429400" lon="115.70149800"><time>2010-04-03T03:32:04Z</time></trkpt><trkpt lat="-32.50426200" lon="115.70153000"><time>2010-04-03T03:32:05Z</time></trkpt><trkpt lat="-32.50423100" lon="115.70155600"><time>2010-04-03T03:32:06Z</time></trkpt><trkpt lat="-32.50419700" lon="115.70157400"><time>2010-04-03T03:32:07Z</time></trkpt><trkpt lat="-32.50415800" lon="115.70158500"><time>2010-04-03T03:32:08Z</time></trkpt><trkpt lat="-32.50411800" lon="115.70160100"><time>2010-04-03T03:32:09Z</time></trkpt><trkpt lat="-32.50407900" lon="115.70162100"><time>2010-04-03T03:32:10Z</time></trkpt><trkpt lat="-32.50404300" lon="115.70164100"><time>2010-04-03T03:32:11Z</time></trkpt><trkpt lat="-32.50400900" lon="115.70166000"><time>2010-04-03T03:32:12Z</time></trkpt><trkpt lat="-32.50397500" lon="115.70167500"><time>2010-04-03T03:32:13Z</time></trkpt><trkpt lat="-32.50394100" lon="115.70168900"><time>2010-04-03T03:32:14Z</time></trkpt><trkpt lat="-32.50390600" lon="115.70170800"><time>2010-04-03T03:32:15Z</time></trkpt><trkpt lat="-32.50386900" lon="115.70172400"><time>2010-04-03T03:32:16Z</time></trkpt><trkpt lat="-32.50382900" lon="115.70174200"><time>2010-04-03T03:32:17Z</time></trkpt><trkpt lat="-32.50378800" lon="115.70176200"><time>2010-04-03T03:32:18Z</time></trkpt><trkpt lat="-32.50374900" lon="115.70179400"><time>2010-04-03T03:32:19Z</time></trkpt><trkpt lat="-32.50371500" lon="115.70183300"><time>2010-04-03T03:32:20Z</time></trkpt><trkpt lat="-32.50368100" lon="115.70186400"><time>2010-04-03T03:32:21Z</time></trkpt><trkpt lat="-32.50364400" lon="115.70188500"><time>2010-04-03T03:32:22Z</time></trkpt><trkpt lat="-32.50360600" lon="115.70190400"><time>2010-04-03T03:32:23Z</time></trkpt><trkpt lat="-32.50356700" lon="115.70191800"><time>2010-04-03T03:32:24Z</time></trkpt><trkpt lat="-32.50352800" lon="115.70192700"><time>2010-04-03T03:32:25Z</time></trkpt><trkpt lat="-32.50348900" lon="115.70193800"><time>2010-04-03T03:32:26Z</time></trkpt><trkpt lat="-32.50344700" lon="115.70195100"><time>2010-04-03T03:32:27Z</time></trkpt><trkpt lat="-32.50340600" lon="115.70196800"><time>2010-04-03T03:32:28Z</time></trkpt><trkpt lat="-32.50336800" lon="115.70198800"><time>2010-04-03T03:32:29Z</time></trkpt><trkpt lat="-32.50333200" lon="115.70200600"><time>2010-04-03T03:32:30Z</time></trkpt><trkpt lat="-32.50329700" lon="115.70201600"><time>2010-04-03T03:32:31Z</time></trkpt><trkpt lat="-32.50325700" lon="115.70202400"><time>2010-04-03T03:32:32Z</time></trkpt><trkpt lat="-32.50322000" lon="115.70202600"><time>2010-04-03T03:32:33Z</time></trkpt><trkpt lat="-32.50318400" lon="115.70202600"><time>2010-04-03T03:32:34Z</time></trkpt><trkpt lat="-32.50314700" lon="115.70203000"><time>2010-04-03T03:32:35Z</time></trkpt><trkpt lat="-32.50310900" lon="115.70204000"><time>2010-04-03T03:32:36Z</time></trkpt><trkpt lat="-32.50307200" lon="115.70205100"><time>2010-04-03T03:32:37Z</time></trkpt><trkpt lat="-32.50303400" lon="115.70206000"><time>2010-04-03T03:32:38Z</time></trkpt><trkpt lat="-32.50299300" lon="115.70207100"><time>2010-04-03T03:32:39Z</time></trkpt><trkpt lat="-32.50295300" lon="115.70208300"><time>2010-04-03T03:32:40Z</time></trkpt><trkpt lat="-32.50291000" lon="115.70209600"><time>2010-04-03T03:32:41Z</time></trkpt><trkpt lat="-32.50286700" lon="115.70210900"><time>2010-04-03T03:32:42Z</time></trkpt><trkpt lat="-32.50282700" lon="115.70212900"><time>2010-04-03T03:32:43Z</time></trkpt><trkpt lat="-32.50279200" lon="115.70214600"><time>2010-04-03T03:32:44Z</time></trkpt><trkpt lat="-32.50275800" lon="115.70216000"><time>2010-04-03T03:32:45Z</time></trkpt><trkpt lat="-32.50272300" lon="115.70217100"><time>2010-04-03T03:32:46Z</time></trkpt><trkpt lat="-32.50268700" lon="115.70218200"><time>2010-04-03T03:32:47Z</time></trkpt><trkpt lat="-32.50264900" lon="115.70219500"><time>2010-04-03T03:32:48Z</time></trkpt><trkpt lat="-32.50261200" lon="115.70221300"><time>2010-04-03T03:32:49Z</time></trkpt><trkpt lat="-32.50257400" lon="115.70223800"><time>2010-04-03T03:32:50Z</time></trkpt><trkpt lat="-32.50254200" lon="115.70226900"><time>2010-04-03T03:32:51Z</time></trkpt><trkpt lat="-32.50251300" lon="115.70230400"><time>2010-04-03T03:32:52Z</time></trkpt><trkpt lat="-32.50248600" lon="115.70233900"><time>2010-04-03T03:32:53Z</time></trkpt><trkpt lat="-32.50245800" lon="115.70236800"><time>2010-04-03T03:32:54Z</time></trkpt><trkpt lat="-32.50242300" lon="115.70238700"><time>2010-04-03T03:32:55Z</time></trkpt><trkpt lat="-32.50238300" lon="115.70240200"><time>2010-04-03T03:32:56Z</time></trkpt><trkpt lat="-32.50234200" lon="115.70242300"><time>2010-04-03T03:32:57Z</time></trkpt><trkpt lat="-32.50230200" lon="115.70245100"><time>2010-04-03T03:32:58Z</time></trkpt><trkpt lat="-32.50226800" lon="115.70248200"><time>2010-04-03T03:32:59Z</time></trkpt><trkpt lat="-32.50223500" lon="115.70251000"><time>2010-04-03T03:33:00Z</time></trkpt><trkpt lat="-32.50220000" lon="115.70253200"><time>2010-04-03T03:33:01Z</time></trkpt><trkpt lat="-32.50216800" lon="115.70255000"><time>2010-04-03T03:33:02Z</time></trkpt><trkpt lat="-32.50213800" lon="115.70257100"><time>2010-04-03T03:33:03Z</time></trkpt><trkpt lat="-32.50210600" lon="115.70259400"><time>2010-04-03T03:33:04Z</time></trkpt><trkpt lat="-32.50207500" lon="115.70261100"><time>2010-04-03T03:33:05Z</time></trkpt><trkpt lat="-32.50203800" lon="115.70262200"><time>2010-04-03T03:33:06Z</time></trkpt><trkpt lat="-32.50199900" lon="115.70262500"><time>2010-04-03T03:33:07Z</time></trkpt><trkpt lat="-32.50196000" lon="115.70262400"><time>2010-04-03T03:33:08Z</time></trkpt><trkpt lat="-32.50192000" lon="115.70262000"><time>2010-04-03T03:33:09Z</time></trkpt><trkpt lat="-32.50187600" lon="115.70262100"><time>2010-04-03T03:33:10Z</time></trkpt><trkpt lat="-32.50183100" lon="115.70262300"><time>2010-04-03T03:33:11Z</time></trkpt><trkpt lat="-32.50178400" lon="115.70263200"><time>2010-04-03T03:33:12Z</time></trkpt><trkpt lat="-32.50173500" lon="115.70264700"><time>2010-04-03T03:33:13Z</time></trkpt><trkpt lat="-32.50168700" lon="115.70266000"><time>2010-04-03T03:33:14Z</time></trkpt><trkpt lat="-32.50164200" lon="115.70267200"><time>2010-04-03T03:33:15Z</time></trkpt><trkpt lat="-32.50159900" lon="115.70268700"><time>2010-04-03T03:33:16Z</time></trkpt><trkpt lat="-32.50155600" lon="115.70270100"><time>2010-04-03T03:33:17Z</time></trkpt><trkpt lat="-32.50151600" lon="115.70271200"><time>2010-04-03T03:33:18Z</time></trkpt><trkpt lat="-32.50147300" lon="115.70271800"><time>2010-04-03T03:33:19Z</time></trkpt><trkpt lat="-32.50143000" lon="115.70272500"><time>2010-04-03T03:33:20Z</time></trkpt><trkpt lat="-32.50138800" lon="115.70273700"><time>2010-04-03T03:33:21Z</time></trkpt><trkpt lat="-32.50134700" lon="115.70275500"><time>2010-04-03T03:33:22Z</time></trkpt><trkpt lat="-32.50131600" lon="115.70278100"><time>2010-04-03T03:33:23Z</time></trkpt><trkpt lat="-32.50129200" lon="115.70280700"><time>2010-04-03T03:33:24Z</time></trkpt><trkpt lat="-32.50127500" lon="115.70283200"><time>2010-04-03T03:33:25Z</time></trkpt><trkpt lat="-32.50125900" lon="115.70286700"><time>2010-04-03T03:33:26Z</time></trkpt><trkpt lat="-32.50124100" lon="115.70290700"><time>2010-04-03T03:33:27Z</time></trkpt><trkpt lat="-32.50122300" lon="115.70295100"><time>2010-04-03T03:33:28Z</time></trkpt><trkpt lat="-32.50120600" lon="115.70299900"><time>2010-04-03T03:33:29Z</time></trkpt><trkpt lat="-32.50118600" lon="115.70305100"><time>2010-04-03T03:33:30Z</time></trkpt><trkpt lat="-32.50116500" lon="115.70310400"><time>2010-04-03T03:33:31Z</time></trkpt><trkpt lat="-32.50114500" lon="115.70316200"><time>2010-04-03T03:33:32Z</time></trkpt><trkpt lat="-32.50112700" lon="115.70321700"><time>2010-04-03T03:33:33Z</time></trkpt><trkpt lat="-32.50111200" lon="115.70327000"><time>2010-04-03T03:33:34Z</time></trkpt><trkpt lat="-32.50110100" lon="115.70332100"><time>2010-04-03T03:33:35Z</time></trkpt><trkpt lat="-32.50109100" lon="115.70336700"><time>2010-04-03T03:33:36Z</time></trkpt><trkpt lat="-32.50108300" lon="115.70340900"><time>2010-04-03T03:33:37Z</time></trkpt><trkpt lat="-32.50107600" lon="115.70344300"><time>2010-04-03T03:33:38Z</time></trkpt><trkpt lat="-32.50106900" lon="115.70347100"><time>2010-04-03T03:33:39Z</time></trkpt><trkpt lat="-32.50105900" lon="115.70350300"><time>2010-04-03T03:33:40Z</time></trkpt><trkpt lat="-32.50104500" lon="115.70353600"><time>2010-04-03T03:33:41Z</time></trkpt><trkpt lat="-32.50102900" lon="115.70357000"><time>2010-04-03T03:33:42Z</time></trkpt><trkpt lat="-32.50101300" lon="115.70360500"><time>2010-04-03T03:33:43Z</time></trkpt><trkpt lat="-32.50099800" lon="115.70363700"><time>2010-04-03T03:33:44Z</time></trkpt><trkpt lat="-32.50098500" lon="115.70366700"><time>2010-04-03T03:33:45Z</time></trkpt><trkpt lat="-32.50098000" lon="115.70369300"><time>2010-04-03T03:33:46Z</time></trkpt><trkpt lat="-32.50098000" lon="115.70371800"><time>2010-04-03T03:33:47Z</time></trkpt><trkpt lat="-32.50098100" lon="115.70374900"><time>2010-04-03T03:33:48Z</time></trkpt><trkpt lat="-32.50098100" lon="115.70378300"><time>2010-04-03T03:33:49Z</time></trkpt><trkpt lat="-32.50098000" lon="115.70382100"><time>2010-04-03T03:33:50Z</time></trkpt><trkpt lat="-32.50097500" lon="115.70386000"><time>2010-04-03T03:33:51Z</time></trkpt><trkpt lat="-32.50096300" lon="115.70389800"><time>2010-04-03T03:33:52Z</time></trkpt><trkpt lat="-32.50094100" lon="115.70392200"><time>2010-04-03T03:33:53Z</time></trkpt><trkpt lat="-32.50091800" lon="115.70393500"><time>2010-04-03T03:33:54Z</time></trkpt><trkpt lat="-32.50089500" lon="115.70394300"><time>2010-04-03T03:33:55Z</time></trkpt><trkpt lat="-32.50087300" lon="115.70394100"><time>2010-04-03T03:33:56Z</time></trkpt><trkpt lat="-32.50085400" lon="115.70392800"><time>2010-04-03T03:33:57Z</time></trkpt><trkpt lat="-32.50084000" lon="115.70390400"><time>2010-04-03T03:33:58Z</time></trkpt><trkpt lat="-32.50083300" lon="115.70387800"><time>2010-04-03T03:33:59Z</time></trkpt><trkpt lat="-32.50083000" lon="115.70384300"><time>2010-04-03T03:34:00Z</time></trkpt><trkpt lat="-32.50083000" lon="115.70380400"><time>2010-04-03T03:34:01Z</time></trkpt><trkpt lat="-32.50083300" lon="115.70376200"><time>2010-04-03T03:34:02Z</time></trkpt><trkpt lat="-32.50084000" lon="115.70372700"><time>2010-04-03T03:34:03Z</time></trkpt><trkpt lat="-32.50084600" lon="115.70369000"><time>2010-04-03T03:34:04Z</time></trkpt><trkpt lat="-32.50085100" lon="115.70365600"><time>2010-04-03T03:34:05Z</time></trkpt><trkpt lat="-32.50085700" lon="115.70362200"><time>2010-04-03T03:34:06Z</time></trkpt><trkpt lat="-32.50086200" lon="115.70358600"><time>2010-04-03T03:34:07Z</time></trkpt><trkpt lat="-32.50086400" lon="115.70355000"><time>2010-04-03T03:34:08Z</time></trkpt><trkpt lat="-32.50086300" lon="115.70351700"><time>2010-04-03T03:34:09Z</time></trkpt><trkpt lat="-32.50086500" lon="115.70348600"><time>2010-04-03T03:34:10Z</time></trkpt><trkpt lat="-32.50087000" lon="115.70345500"><time>2010-04-03T03:34:11Z</time></trkpt><trkpt lat="-32.50087200" lon="115.70342100"><time>2010-04-03T03:34:12Z</time></trkpt><trkpt lat="-32.50087500" lon="115.70338700"><time>2010-04-03T03:34:13Z</time></trkpt><trkpt lat="-32.50087500" lon="115.70335200"><time>2010-04-03T03:34:14Z</time></trkpt><trkpt lat="-32.50087400" lon="115.70331900"><time>2010-04-03T03:34:15Z</time></trkpt><trkpt lat="-32.50087200" lon="115.70327800"><time>2010-04-03T03:34:16Z</time></trkpt><trkpt lat="-32.50087200" lon="115.70324000"><time>2010-04-03T03:34:17Z</time></trkpt><trkpt lat="-32.50087500" lon="115.70320600"><time>2010-04-03T03:34:18Z</time></trkpt><trkpt lat="-32.50088300" lon="115.70317900"><time>2010-04-03T03:34:19Z</time></trkpt><trkpt lat="-32.50088300" lon="115.70314600"><time>2010-04-03T03:34:20Z</time></trkpt><trkpt lat="-32.50088100" lon="115.70311100"><time>2010-04-03T03:34:21Z</time></trkpt><trkpt lat="-32.50088000" lon="115.70307700"><time>2010-04-03T03:34:22Z</time></trkpt><trkpt lat="-32.50087300" lon="115.70304200"><time>2010-04-03T03:34:23Z</time></trkpt><trkpt lat="-32.50087400" lon="115.70301100"><time>2010-04-03T03:34:24Z</time></trkpt><trkpt lat="-32.50087500" lon="115.70297400"><time>2010-04-03T03:34:25Z</time></trkpt><trkpt lat="-32.50087300" lon="115.70293700"><time>2010-04-03T03:34:26Z</time></trkpt><trkpt lat="-32.50086700" lon="115.70290200"><time>2010-04-03T03:34:27Z</time></trkpt><trkpt lat="-32.50086300" lon="115.70286500"><time>2010-04-03T03:34:28Z</time></trkpt><trkpt lat="-32.50086000" lon="115.70282400"><time>2010-04-03T03:34:29Z</time></trkpt><trkpt lat="-32.50085500" lon="115.70278800"><time>2010-04-03T03:34:30Z</time></trkpt><trkpt lat="-32.50085100" lon="115.70274800"><time>2010-04-03T03:34:31Z</time></trkpt><trkpt lat="-32.50084700" lon="115.70271200"><time>2010-04-03T03:34:32Z</time></trkpt><trkpt lat="-32.50084300" lon="115.70267400"><time>2010-04-03T03:34:33Z</time></trkpt><trkpt lat="-32.50083800" lon="115.70263900"><time>2010-04-03T03:34:34Z</time></trkpt><trkpt lat="-32.50083100" lon="115.70259900"><time>2010-04-03T03:34:35Z</time></trkpt><trkpt lat="-32.50082900" lon="115.70256300"><time>2010-04-03T03:34:36Z</time></trkpt><trkpt lat="-32.50083500" lon="115.70253500"><time>2010-04-03T03:34:37Z</time></trkpt><trkpt lat="-32.50084500" lon="115.70252300"><time>2010-04-03T03:34:38Z</time></trkpt><trkpt lat="-32.50085600" lon="115.70252700"><time>2010-04-03T03:34:39Z</time></trkpt><trkpt lat="-32.50086900" lon="115.70252800"><time>2010-04-03T03:34:40Z</time></trkpt><trkpt lat="-32.50088600" lon="115.70252700"><time>2010-04-03T03:34:41Z</time></trkpt><trkpt lat="-32.50090900" lon="115.70252200"><time>2010-04-03T03:34:42Z</time></trkpt><trkpt lat="-32.50093500" lon="115.70251800"><time>2010-04-03T03:34:43Z</time></trkpt><trkpt lat="-32.50096700" lon="115.70251400"><time>2010-04-03T03:34:44Z</time></trkpt><trkpt lat="-32.50099000" lon="115.70251200"><time>2010-04-03T03:34:45Z</time></trkpt><trkpt lat="-32.50102400" lon="115.70251400"><time>2010-04-03T03:34:46Z</time></trkpt><trkpt lat="-32.50105500" lon="115.70250900"><time>2010-04-03T03:34:47Z</time></trkpt><trkpt lat="-32.50108500" lon="115.70250900"><time>2010-04-03T03:34:48Z</time></trkpt><trkpt lat="-32.50110800" lon="115.70251100"><time>2010-04-03T03:34:49Z</time></trkpt><trkpt lat="-32.50113500" lon="115.70250800"><time>2010-04-03T03:34:50Z</time></trkpt><trkpt lat="-32.50116600" lon="115.70250300"><time>2010-04-03T03:34:51Z</time></trkpt><trkpt lat="-32.50119900" lon="115.70250100"><time>2010-04-03T03:34:52Z</time></trkpt><trkpt lat="-32.50123100" lon="115.70250400"><time>2010-04-03T03:34:53Z</time></trkpt><trkpt lat="-32.50126100" lon="115.70250700"><time>2010-04-03T03:34:54Z</time></trkpt><trkpt lat="-32.50129300" lon="115.70251100"><time>2010-04-03T03:34:55Z</time></trkpt><trkpt lat="-32.50132300" lon="115.70251800"><time>2010-04-03T03:34:56Z</time></trkpt><trkpt lat="-32.50135200" lon="115.70252200"><time>2010-04-03T03:34:57Z</time></trkpt><trkpt lat="-32.50138300" lon="115.70252100"><time>2010-04-03T03:34:58Z</time></trkpt><trkpt lat="-32.50141400" lon="115.70252200"><time>2010-04-03T03:34:59Z</time></trkpt><trkpt lat="-32.50144400" lon="115.70252500"><time>2010-04-03T03:35:00Z</time></trkpt><trkpt lat="-32.50147400" lon="115.70253100"><time>2010-04-03T03:35:01Z</time></trkpt><trkpt lat="-32.50150300" lon="115.70253600"><time>2010-04-03T03:35:02Z</time></trkpt><trkpt lat="-32.50153100" lon="115.70253600"><time>2010-04-03T03:35:03Z</time></trkpt><trkpt lat="-32.50155900" lon="115.70253800"><time>2010-04-03T03:35:04Z</time></trkpt><trkpt lat="-32.50158900" lon="115.70253900"><time>2010-04-03T03:35:05Z</time></trkpt><trkpt lat="-32.50161900" lon="115.70253800"><time>2010-04-03T03:35:06Z</time></trkpt><trkpt lat="-32.50165000" lon="115.70254100"><time>2010-04-03T03:35:07Z</time></trkpt><trkpt lat="-32.50168600" lon="115.70254600"><time>2010-04-03T03:35:08Z</time></trkpt><trkpt lat="-32.50171900" lon="115.70255200"><time>2010-04-03T03:35:09Z</time></trkpt><trkpt lat="-32.50174900" lon="115.70255800"><time>2010-04-03T03:35:10Z</time></trkpt><trkpt lat="-32.50178200" lon="115.70256500"><time>2010-04-03T03:35:11Z</time></trkpt><trkpt lat="-32.50181300" lon="115.70257000"><time>2010-04-03T03:35:12Z</time></trkpt><trkpt lat="-32.50184500" lon="115.70257700"><time>2010-04-03T03:35:13Z</time></trkpt><trkpt lat="-32.50187600" lon="115.70258500"><time>2010-04-03T03:35:14Z</time></trkpt><trkpt lat="-32.50190700" lon="115.70259300"><time>2010-04-03T03:35:15Z</time></trkpt><trkpt lat="-32.50193800" lon="115.70259900"><time>2010-04-03T03:35:16Z</time></trkpt><trkpt lat="-32.50196900" lon="115.70260700"><time>2010-04-03T03:35:17Z</time></trkpt><trkpt lat="-32.50200300" lon="115.70261500"><time>2010-04-03T03:35:18Z</time></trkpt><trkpt lat="-32.50203300" lon="115.70262200"><time>2010-04-03T03:35:19Z</time></trkpt><trkpt lat="-32.50206300" lon="115.70262200"><time>2010-04-03T03:35:20Z</time></trkpt><trkpt lat="-32.50209200" lon="115.70262500"><time>2010-04-03T03:35:21Z</time></trkpt><trkpt lat="-32.50211900" lon="115.70262800"><time>2010-04-03T03:35:22Z</time></trkpt><trkpt lat="-32.50215100" lon="115.70263000"><time>2010-04-03T03:35:23Z</time></trkpt><trkpt lat="-32.50217900" lon="115.70263700"><time>2010-04-03T03:35:24Z</time></trkpt><trkpt lat="-32.50220900" lon="115.70264500"><time>2010-04-03T03:35:25Z</time></trkpt><trkpt lat="-32.50224100" lon="115.70264700"><time>2010-04-03T03:35:26Z</time></trkpt><trkpt lat="-32.50227100" lon="115.70264700"><time>2010-04-03T03:35:27Z</time></trkpt><trkpt lat="-32.50229200" lon="115.70263700"><time>2010-04-03T03:35:28Z</time></trkpt><trkpt lat="-32.50229900" lon="115.70262100"><time>2010-04-03T03:35:29Z</time></trkpt><trkpt lat="-32.50230300" lon="115.70260600"><time>2010-04-03T03:35:30Z</time></trkpt><trkpt lat="-32.50230200" lon="115.70258600"><time>2010-04-03T03:35:31Z</time></trkpt><trkpt lat="-32.50230200" lon="115.70256100"><time>2010-04-03T03:35:32Z</time></trkpt><trkpt lat="-32.50230300" lon="115.70253200"><time>2010-04-03T03:35:33Z</time></trkpt><trkpt lat="-32.50230400" lon="115.70249800"><time>2010-04-03T03:35:34Z</time></trkpt><trkpt lat="-32.50230500" lon="115.70246200"><time>2010-04-03T03:35:35Z</time></trkpt><trkpt lat="-32.50230600" lon="115.70242300"><time>2010-04-03T03:35:36Z</time></trkpt><trkpt lat="-32.50230800" lon="115.70238300"><time>2010-04-03T03:35:37Z</time></trkpt><trkpt lat="-32.50231000" lon="115.70234500"><time>2010-04-03T03:35:38Z</time></trkpt><trkpt lat="-32.50231500" lon="115.70230800"><time>2010-04-03T03:35:39Z</time></trkpt><trkpt lat="-32.50231700" lon="115.70227000"><time>2010-04-03T03:35:40Z</time></trkpt><trkpt lat="-32.50232000" lon="115.70223400"><time>2010-04-03T03:35:41Z</time></trkpt><trkpt lat="-32.50232500" lon="115.70219600"><time>2010-04-03T03:35:42Z</time></trkpt><trkpt lat="-32.50232700" lon="115.70216100"><time>2010-04-03T03:35:43Z</time></trkpt><trkpt lat="-32.50232600" lon="115.70212600"><time>2010-04-03T03:35:44Z</time></trkpt><trkpt lat="-32.50232700" lon="115.70208900"><time>2010-04-03T03:35:45Z</time></trkpt><trkpt lat="-32.50232700" lon="115.70205600"><time>2010-04-03T03:35:46Z</time></trkpt><trkpt lat="-32.50232400" lon="115.70202600"><time>2010-04-03T03:35:47Z</time></trkpt><trkpt lat="-32.50232400" lon="115.70199800"><time>2010-04-03T03:35:48Z</time></trkpt><trkpt lat="-32.50232000" lon="115.70196600"><time>2010-04-03T03:35:49Z</time></trkpt><trkpt lat="-32.50231700" lon="115.70193000"><time>2010-04-03T03:35:50Z</time></trkpt><trkpt lat="-32.50231600" lon="115.70189400"><time>2010-04-03T03:35:51Z</time></trkpt><trkpt lat="-32.50231600" lon="115.70185900"><time>2010-04-03T03:35:52Z</time></trkpt><trkpt lat="-32.50231900" lon="115.70182700"><time>2010-04-03T03:35:53Z</time></trkpt><trkpt lat="-32.50231900" lon="115.70179100"><time>2010-04-03T03:35:54Z</time></trkpt><trkpt lat="-32.50231900" lon="115.70175700"><time>2010-04-03T03:35:55Z</time></trkpt><trkpt lat="-32.50231900" lon="115.70172000"><time>2010-04-03T03:35:56Z</time></trkpt><trkpt lat="-32.50232400" lon="115.70168400"><time>2010-04-03T03:35:57Z</time></trkpt><trkpt lat="-32.50232400" lon="115.70165300"><time>2010-04-03T03:35:58Z</time></trkpt><trkpt lat="-32.50232300" lon="115.70161900"><time>2010-04-03T03:35:59Z</time></trkpt><trkpt lat="-32.50232300" lon="115.70158100"><time>2010-04-03T03:36:00Z</time></trkpt><trkpt lat="-32.50232200" lon="115.70154100"><time>2010-04-03T03:36:01Z</time></trkpt><trkpt lat="-32.50232400" lon="115.70150400"><time>2010-04-03T03:36:02Z</time></trkpt><trkpt lat="-32.50233100" lon="115.70146600"><time>2010-04-03T03:36:03Z</time></trkpt><trkpt lat="-32.50233600" lon="115.70142800"><time>2010-04-03T03:36:04Z</time></trkpt><trkpt lat="-32.50233800" lon="115.70139400"><time>2010-04-03T03:36:05Z</time></trkpt><trkpt lat="-32.50234000" lon="115.70136100"><time>2010-04-03T03:36:06Z</time></trkpt><trkpt lat="-32.50234200" lon="115.70132100"><time>2010-04-03T03:36:07Z</time></trkpt><trkpt lat="-32.50234200" lon="115.70128400"><time>2010-04-03T03:36:08Z</time></trkpt><trkpt lat="-32.50234100" lon="115.70124600"><time>2010-04-03T03:36:09Z</time></trkpt><trkpt lat="-32.50234000" lon="115.70120700"><time>2010-04-03T03:36:10Z</time></trkpt><trkpt lat="-32.50234200" lon="115.70117900"><time>2010-04-03T03:36:11Z</time></trkpt><trkpt lat="-32.50234500" lon="115.70114700"><time>2010-04-03T03:36:12Z</time></trkpt><trkpt lat="-32.50234500" lon="115.70110800"><time>2010-04-03T03:36:13Z</time></trkpt><trkpt lat="-32.50234700" lon="115.70107100"><time>2010-04-03T03:36:14Z</time></trkpt><trkpt lat="-32.50235800" lon="115.70104600"><time>2010-04-03T03:36:15Z</time></trkpt><trkpt lat="-32.50237300" lon="115.70103900"><time>2010-04-03T03:36:16Z</time></trkpt><trkpt lat="-32.50238400" lon="115.70103700"><time>2010-04-03T03:36:17Z</time></trkpt><trkpt lat="-32.50239800" lon="115.70104300"><time>2010-04-03T03:36:18Z</time></trkpt><trkpt lat="-32.50241400" lon="115.70105100"><time>2010-04-03T03:36:19Z</time></trkpt><trkpt lat="-32.50243400" lon="115.70105500"><time>2010-04-03T03:36:20Z</time></trkpt><trkpt lat="-32.50246100" lon="115.70105800"><time>2010-04-03T03:36:21Z</time></trkpt><trkpt lat="-32.50249000" lon="115.70106100"><time>2010-04-03T03:36:22Z</time></trkpt><trkpt lat="-32.50251700" lon="115.70106300"><time>2010-04-03T03:36:23Z</time></trkpt><trkpt lat="-32.50254600" lon="115.70106500"><time>2010-04-03T03:36:24Z</time></trkpt><trkpt lat="-32.50257600" lon="115.70106800"><time>2010-04-03T03:36:25Z</time></trkpt><trkpt lat="-32.50260600" lon="115.70107500"><time>2010-04-03T03:36:26Z</time></trkpt><trkpt lat="-32.50263500" lon="115.70107900"><time>2010-04-03T03:36:27Z</time></trkpt><trkpt lat="-32.50266300" lon="115.70108300"><time>2010-04-03T03:36:28Z</time></trkpt><trkpt lat="-32.50269300" lon="115.70108800"><time>2010-04-03T03:36:29Z</time></trkpt><trkpt lat="-32.50272500" lon="115.70109300"><time>2010-04-03T03:36:30Z</time></trkpt><trkpt lat="-32.50275600" lon="115.70110100"><time>2010-04-03T03:36:31Z</time></trkpt><trkpt lat="-32.50278600" lon="115.70111000"><time>2010-04-03T03:36:32Z</time></trkpt><trkpt lat="-32.50281800" lon="115.70111300"><time>2010-04-03T03:36:33Z</time></trkpt><trkpt lat="-32.50284800" lon="115.70111300"><time>2010-04-03T03:36:34Z</time></trkpt><trkpt lat="-32.50287900" lon="115.70111700"><time>2010-04-03T03:36:35Z</time></trkpt><trkpt lat="-32.50290300" lon="115.70112000"><time>2010-04-03T03:36:36Z</time></trkpt><trkpt lat="-32.50293000" lon="115.70112600"><time>2010-04-03T03:36:37Z</time></trkpt><trkpt lat="-32.50296000" lon="115.70113300"><time>2010-04-03T03:36:38Z</time></trkpt><trkpt lat="-32.50298800" lon="115.70114000"><time>2010-04-03T03:36:39Z</time></trkpt><trkpt lat="-32.50301600" lon="115.70115100"><time>2010-04-03T03:36:40Z</time></trkpt><trkpt lat="-32.50304200" lon="115.70116200"><time>2010-04-03T03:36:41Z</time></trkpt><trkpt lat="-32.50307000" lon="115.70117000"><time>2010-04-03T03:36:42Z</time></trkpt><trkpt lat="-32.50309900" lon="115.70118000"><time>2010-04-03T03:36:43Z</time></trkpt><trkpt lat="-32.50313600" lon="115.70119000"><time>2010-04-03T03:36:44Z</time></trkpt><trkpt lat="-32.50316400" lon="115.70119900"><time>2010-04-03T03:36:45Z</time></trkpt><trkpt lat="-32.50319200" lon="115.70120300"><time>2010-04-03T03:36:46Z</time></trkpt><trkpt lat="-32.50322600" lon="115.70121100"><time>2010-04-03T03:36:47Z</time></trkpt><trkpt lat="-32.50325600" lon="115.70121900"><time>2010-04-03T03:36:48Z</time></trkpt><trkpt lat="-32.50328600" lon="115.70122500"><time>2010-04-03T03:36:49Z</time></trkpt><trkpt lat="-32.50331900" lon="115.70122700"><time>2010-04-03T03:36:50Z</time></trkpt><trkpt lat="-32.50334900" lon="115.70123200"><time>2010-04-03T03:36:51Z</time></trkpt><trkpt lat="-32.50337800" lon="115.70123500"><time>2010-04-03T03:36:52Z</time></trkpt><trkpt lat="-32.50340500" lon="115.70124200"><time>2010-04-03T03:36:53Z</time></trkpt><trkpt lat="-32.50343300" lon="115.70124800"><time>2010-04-03T03:36:54Z</time></trkpt><trkpt lat="-32.50346400" lon="115.70124600"><time>2010-04-03T03:36:55Z</time></trkpt><trkpt lat="-32.50349500" lon="115.70124900"><time>2010-04-03T03:36:56Z</time></trkpt><trkpt lat="-32.50352600" lon="115.70125700"><time>2010-04-03T03:36:57Z</time></trkpt><trkpt lat="-32.50355600" lon="115.70126600"><time>2010-04-03T03:36:58Z</time></trkpt><trkpt lat="-32.50358800" lon="115.70127200"><time>2010-04-03T03:36:59Z</time></trkpt><trkpt lat="-32.50362100" lon="115.70127500"><time>2010-04-03T03:37:00Z</time></trkpt><trkpt lat="-32.50365400" lon="115.70127800"><time>2010-04-03T03:37:01Z</time></trkpt><trkpt lat="-32.50368900" lon="115.70127900"><time>2010-04-03T03:37:02Z</time></trkpt><trkpt lat="-32.50372100" lon="115.70128500"><time>2010-04-03T03:37:03Z</time></trkpt><trkpt lat="-32.50375500" lon="115.70129200"><time>2010-04-03T03:37:04Z</time></trkpt><trkpt lat="-32.50378800" lon="115.70130000"><time>2010-04-03T03:37:05Z</time></trkpt><trkpt lat="-32.50382200" lon="115.70130700"><time>2010-04-03T03:37:06Z</time></trkpt><trkpt lat="-32.50385300" lon="115.70131400"><time>2010-04-03T03:37:07Z</time></trkpt><trkpt lat="-32.50388300" lon="115.70132600"><time>2010-04-03T03:37:08Z</time></trkpt><trkpt lat="-32.50391400" lon="115.70133500"><time>2010-04-03T03:37:09Z</time></trkpt><trkpt lat="-32.50395000" lon="115.70134100"><time>2010-04-03T03:37:10Z</time></trkpt><trkpt lat="-32.50398300" lon="115.70135300"><time>2010-04-03T03:37:11Z</time></trkpt><trkpt lat="-32.50401400" lon="115.70136800"><time>2010-04-03T03:37:12Z</time></trkpt><trkpt lat="-32.50404800" lon="115.70138100"><time>2010-04-03T03:37:13Z</time></trkpt><trkpt lat="-32.50408400" lon="115.70138800"><time>2010-04-03T03:37:14Z</time></trkpt><trkpt lat="-32.50412100" lon="115.70139300"><time>2010-04-03T03:37:15Z</time></trkpt><trkpt lat="-32.50415300" lon="115.70139800"><time>2010-04-03T03:37:16Z</time></trkpt><trkpt lat="-32.50418300" lon="115.70140400"><time>2010-04-03T03:37:17Z</time></trkpt><trkpt lat="-32.50421500" lon="115.70140800"><time>2010-04-03T03:37:18Z</time></trkpt><trkpt lat="-32.50425300" lon="115.70140700"><time>2010-04-03T03:37:19Z</time></trkpt><trkpt lat="-32.50428500" lon="115.70141100"><time>2010-04-03T03:37:20Z</time></trkpt><trkpt lat="-32.50431800" lon="115.70141900"><time>2010-04-03T03:37:21Z</time></trkpt><trkpt lat="-32.50435100" lon="115.70143000"><time>2010-04-03T03:37:22Z</time></trkpt><trkpt lat="-32.50438500" lon="115.70143900"><time>2010-04-03T03:37:23Z</time></trkpt><trkpt lat="-32.50441200" lon="115.70144700"><time>2010-04-03T03:37:24Z</time></trkpt><trkpt lat="-32.50444800" lon="115.70145300"><time>2010-04-03T03:37:25Z</time></trkpt><trkpt lat="-32.50447800" lon="115.70146200"><time>2010-04-03T03:37:26Z</time></trkpt><trkpt lat="-32.50451000" lon="115.70147200"><time>2010-04-03T03:37:27Z</time></trkpt><trkpt lat="-32.50454200" lon="115.70147800"><time>2010-04-03T03:37:28Z</time></trkpt><trkpt lat="-32.50457400" lon="115.70147900"><time>2010-04-03T03:37:29Z</time></trkpt><trkpt lat="-32.50460500" lon="115.70148300"><time>2010-04-03T03:37:30Z</time></trkpt><trkpt lat="-32.50463600" lon="115.70148800"><time>2010-04-03T03:37:31Z</time></trkpt><trkpt lat="-32.50466900" lon="115.70149400"><time>2010-04-03T03:37:32Z</time></trkpt><trkpt lat="-32.50470200" lon="115.70150200"><time>2010-04-03T03:37:33Z</time></trkpt><trkpt lat="-32.50473600" lon="115.70150800"><time>2010-04-03T03:37:34Z</time></trkpt><trkpt lat="-32.50476700" lon="115.70151200"><time>2010-04-03T03:37:35Z</time></trkpt><trkpt lat="-32.50479100" lon="115.70151200"><time>2010-04-03T03:37:36Z</time></trkpt><trkpt lat="-32.50481900" lon="115.70151100"><time>2010-04-03T03:37:37Z</time></trkpt><trkpt lat="-32.50485100" lon="115.70151000"><time>2010-04-03T03:37:38Z</time></trkpt><trkpt lat="-32.50488200" lon="115.70151100"><time>2010-04-03T03:37:39Z</time></trkpt><trkpt lat="-32.50491200" lon="115.70151400"><time>2010-04-03T03:37:40Z</time></trkpt><trkpt lat="-32.50494400" lon="115.70152000"><time>2010-04-03T03:37:41Z</time></trkpt><trkpt lat="-32.50497600" lon="115.70152200"><time>2010-04-03T03:37:42Z</time></trkpt><trkpt lat="-32.50500800" lon="115.70152700"><time>2010-04-03T03:37:43Z</time></trkpt><trkpt lat="-32.50504100" lon="115.70152800"><time>2010-04-03T03:37:44Z</time></trkpt><trkpt lat="-32.50507400" lon="115.70153400"><time>2010-04-03T03:37:45Z</time></trkpt><trkpt lat="-32.50510400" lon="115.70154100"><time>2010-04-03T03:37:46Z</time></trkpt><trkpt lat="-32.50513600" lon="115.70154700"><time>2010-04-03T03:37:47Z</time></trkpt><trkpt lat="-32.50517100" lon="115.70154700"><time>2010-04-03T03:37:48Z</time></trkpt><trkpt lat="-32.50520600" lon="115.70154900"><time>2010-04-03T03:37:49Z</time></trkpt><trkpt lat="-32.50524000" lon="115.70155300"><time>2010-04-03T03:37:50Z</time></trkpt><trkpt lat="-32.50527300" lon="115.70155300"><time>2010-04-03T03:37:51Z</time></trkpt><trkpt lat="-32.50530600" lon="115.70155500"><time>2010-04-03T03:37:52Z</time></trkpt><trkpt lat="-32.50533600" lon="115.70155700"><time>2010-04-03T03:37:53Z</time></trkpt><trkpt lat="-32.50536400" lon="115.70156100"><time>2010-04-03T03:37:54Z</time></trkpt><trkpt lat="-32.50539500" lon="115.70156200"><time>2010-04-03T03:37:55Z</time></trkpt><trkpt lat="-32.50542800" lon="115.70156000"><time>2010-04-03T03:37:56Z</time></trkpt><trkpt lat="-32.50545600" lon="115.70156000"><time>2010-04-03T03:37:57Z</time></trkpt><trkpt lat="-32.50548900" lon="115.70155800"><time>2010-04-03T03:37:58Z</time></trkpt><trkpt lat="-32.50552300" lon="115.70155600"><time>2010-04-03T03:37:59Z</time></trkpt><trkpt lat="-32.50555500" lon="115.70155600"><time>2010-04-03T03:38:00Z</time></trkpt><trkpt lat="-32.50558500" lon="115.70155300"><time>2010-04-03T03:38:01Z</time></trkpt><trkpt lat="-32.50561700" lon="115.70155000"><time>2010-04-03T03:38:02Z</time></trkpt><trkpt lat="-32.50564700" lon="115.70155100"><time>2010-04-03T03:38:03Z</time></trkpt><trkpt lat="-32.50567600" lon="115.70155400"><time>2010-04-03T03:38:04Z</time></trkpt><trkpt lat="-32.50570500" lon="115.70155500"><time>2010-04-03T03:38:05Z</time></trkpt><trkpt lat="-32.50573400" lon="115.70155700"><time>2010-04-03T03:38:06Z</time></trkpt><trkpt lat="-32.50576500" lon="115.70155800"><time>2010-04-03T03:38:07Z</time></trkpt><trkpt lat="-32.50579600" lon="115.70155400"><time>2010-04-03T03:38:08Z</time></trkpt><trkpt lat="-32.50582600" lon="115.70155500"><time>2010-04-03T03:38:09Z</time></trkpt><trkpt lat="-32.50585800" lon="115.70155400"><time>2010-04-03T03:38:10Z</time></trkpt><trkpt lat="-32.50588700" lon="115.70154800"><time>2010-04-03T03:38:11Z</time></trkpt><trkpt lat="-32.50590400" lon="115.70153600"><time>2010-04-03T03:38:12Z</time></trkpt><trkpt lat="-32.50590700" lon="115.70152500"><time>2010-04-03T03:38:13Z</time></trkpt><trkpt lat="-32.50590800" lon="115.70151400"><time>2010-04-03T03:38:14Z</time></trkpt><trkpt lat="-32.50590700" lon="115.70150200"><time>2010-04-03T03:38:15Z</time></trkpt><trkpt lat="-32.50590400" lon="115.70148300"><time>2010-04-03T03:38:16Z</time></trkpt><trkpt lat="-32.50590200" lon="115.70145600"><time>2010-04-03T03:38:17Z</time></trkpt><trkpt lat="-32.50590300" lon="115.70142300"><time>2010-04-03T03:38:18Z</time></trkpt><trkpt lat="-32.50590500" lon="115.70138900"><time>2010-04-03T03:38:19Z</time></trkpt><trkpt lat="-32.50590600" lon="115.70135400"><time>2010-04-03T03:38:20Z</time></trkpt><trkpt lat="-32.50590800" lon="115.70132000"><time>2010-04-03T03:38:21Z</time></trkpt><trkpt lat="-32.50591100" lon="115.70128800"><time>2010-04-03T03:38:22Z</time></trkpt><trkpt lat="-32.50591400" lon="115.70125300"><time>2010-04-03T03:38:23Z</time></trkpt><trkpt lat="-32.50591900" lon="115.70121900"><time>2010-04-03T03:38:24Z</time></trkpt><trkpt lat="-32.50592400" lon="115.70118200"><time>2010-04-03T03:38:25Z</time></trkpt><trkpt lat="-32.50592800" lon="115.70114700"><time>2010-04-03T03:38:26Z</time></trkpt><trkpt lat="-32.50593200" lon="115.70111100"><time>2010-04-03T03:38:27Z</time></trkpt><trkpt lat="-32.50593800" lon="115.70107600"><time>2010-04-03T03:38:28Z</time></trkpt><trkpt lat="-32.50594500" lon="115.70104200"><time>2010-04-03T03:38:29Z</time></trkpt><trkpt lat="-32.50595500" lon="115.70100700"><time>2010-04-03T03:38:30Z</time></trkpt><trkpt lat="-32.50596300" lon="115.70097000"><time>2010-04-03T03:38:31Z</time></trkpt><trkpt lat="-32.50596700" lon="115.70093100"><time>2010-04-03T03:38:32Z</time></trkpt><trkpt lat="-32.50597200" lon="115.70089200"><time>2010-04-03T03:38:33Z</time></trkpt><trkpt lat="-32.50597600" lon="115.70085400"><time>2010-04-03T03:38:34Z</time></trkpt><trkpt lat="-32.50598100" lon="115.70081900"><time>2010-04-03T03:38:35Z</time></trkpt><trkpt lat="-32.50598900" lon="115.70078100"><time>2010-04-03T03:38:36Z</time></trkpt><trkpt lat="-32.50599600" lon="115.70074300"><time>2010-04-03T03:38:37Z</time></trkpt><trkpt lat="-32.50600000" lon="115.70070600"><time>2010-04-03T03:38:38Z</time></trkpt><trkpt lat="-32.50600200" lon="115.70066900"><time>2010-04-03T03:38:39Z</time></trkpt><trkpt lat="-32.50600500" lon="115.70063500"><time>2010-04-03T03:38:40Z</time></trkpt><trkpt lat="-32.50600700" lon="115.70060100"><time>2010-04-03T03:38:41Z</time></trkpt><trkpt lat="-32.50601200" lon="115.70056700"><time>2010-04-03T03:38:42Z</time></trkpt><trkpt lat="-32.50601500" lon="115.70053200"><time>2010-04-03T03:38:43Z</time></trkpt><trkpt lat="-32.50601700" lon="115.70049900"><time>2010-04-03T03:38:44Z</time></trkpt><trkpt lat="-32.50601800" lon="115.70046100"><time>2010-04-03T03:38:45Z</time></trkpt><trkpt lat="-32.50601700" lon="115.70042400"><time>2010-04-03T03:38:46Z</time></trkpt><trkpt lat="-32.50601400" lon="115.70038800"><time>2010-04-03T03:38:47Z</time></trkpt><trkpt lat="-32.50600900" lon="115.70034900"><time>2010-04-03T03:38:48Z</time></trkpt><trkpt lat="-32.50600800" lon="115.70031200"><time>2010-04-03T03:38:49Z</time></trkpt><trkpt lat="-32.50600600" lon="115.70027200"><time>2010-04-03T03:38:50Z</time></trkpt><trkpt lat="-32.50600400" lon="115.70023100"><time>2010-04-03T03:38:51Z</time></trkpt><trkpt lat="-32.50600200" lon="115.70019000"><time>2010-04-03T03:38:52Z</time></trkpt><trkpt lat="-32.50600200" lon="115.70015000"><time>2010-04-03T03:38:53Z</time></trkpt><trkpt lat="-32.50600300" lon="115.70011200"><time>2010-04-03T03:38:54Z</time></trkpt><trkpt lat="-32.50600400" lon="115.70007300"><time>2010-04-03T03:38:55Z</time></trkpt><trkpt lat="-32.50600600" lon="115.70003500"><time>2010-04-03T03:38:56Z</time></trkpt><trkpt lat="-32.50600700" lon="115.69999300"><time>2010-04-03T03:38:57Z</time></trkpt><trkpt lat="-32.50600800" lon="115.69995300"><time>2010-04-03T03:38:58Z</time></trkpt><trkpt lat="-32.50601300" lon="115.69991600"><time>2010-04-03T03:38:59Z</time></trkpt><trkpt lat="-32.50601400" lon="115.69988000"><time>2010-04-03T03:39:00Z</time></trkpt><trkpt lat="-32.50601300" lon="115.69984200"><time>2010-04-03T03:39:01Z</time></trkpt><trkpt lat="-32.50601500" lon="115.69980100"><time>2010-04-03T03:39:02Z</time></trkpt><trkpt lat="-32.50602000" lon="115.69976000"><time>2010-04-03T03:39:03Z</time></trkpt><trkpt lat="-32.50602600" lon="115.69972000"><time>2010-04-03T03:39:04Z</time></trkpt><trkpt lat="-32.50603000" lon="115.69968200"><time>2010-04-03T03:39:05Z</time></trkpt><trkpt lat="-32.50603500" lon="115.69964400"><time>2010-04-03T03:39:06Z</time></trkpt><trkpt lat="-32.50603900" lon="115.69960400"><time>2010-04-03T03:39:07Z</time></trkpt><trkpt lat="-32.50604200" lon="115.69956700"><time>2010-04-03T03:39:08Z</time></trkpt><trkpt lat="-32.50604500" lon="115.69953100"><time>2010-04-03T03:39:09Z</time></trkpt><trkpt lat="-32.50604600" lon="115.69949400"><time>2010-04-03T03:39:10Z</time></trkpt><trkpt lat="-32.50605100" lon="115.69945600"><time>2010-04-03T03:39:11Z</time></trkpt><trkpt lat="-32.50605800" lon="115.69941400"><time>2010-04-03T03:39:12Z</time></trkpt><trkpt lat="-32.50606700" lon="115.69937600"><time>2010-04-03T03:39:13Z</time></trkpt><trkpt lat="-32.50607600" lon="115.69934100"><time>2010-04-03T03:39:14Z</time></trkpt><trkpt lat="-32.50608300" lon="115.69930800"><time>2010-04-03T03:39:15Z</time></trkpt><trkpt lat="-32.50609100" lon="115.69927200"><time>2010-04-03T03:39:16Z</time></trkpt><trkpt lat="-32.50609600" lon="115.69923800"><time>2010-04-03T03:39:17Z</time></trkpt><trkpt lat="-32.50609700" lon="115.69919900"><time>2010-04-03T03:39:18Z</time></trkpt><trkpt lat="-32.50609900" lon="115.69915900"><time>2010-04-03T03:39:19Z</time></trkpt><trkpt lat="-32.50609700" lon="115.69911600"><time>2010-04-03T03:39:20Z</time></trkpt><trkpt lat="-32.50609800" lon="115.69907700"><time>2010-04-03T03:39:21Z</time></trkpt><trkpt lat="-32.50610200" lon="115.69904400"><time>2010-04-03T03:39:22Z</time></trkpt><trkpt lat="-32.50610400" lon="115.69900200"><time>2010-04-03T03:39:23Z</time></trkpt><trkpt lat="-32.50610300" lon="115.69895900"><time>2010-04-03T03:39:24Z</time></trkpt><trkpt lat="-32.50610000" lon="115.69891900"><time>2010-04-03T03:39:25Z</time></trkpt><trkpt lat="-32.50610200" lon="115.69887900"><time>2010-04-03T03:39:26Z</time></trkpt><trkpt lat="-32.50610600" lon="115.69883800"><time>2010-04-03T03:39:27Z</time></trkpt><trkpt lat="-32.50610800" lon="115.69880400"><time>2010-04-03T03:39:28Z</time></trkpt><trkpt lat="-32.50611000" lon="115.69876700"><time>2010-04-03T03:39:29Z</time></trkpt><trkpt lat="-32.50611700" lon="115.69872800"><time>2010-04-03T03:39:30Z</time></trkpt><trkpt lat="-32.50612300" lon="115.69868900"><time>2010-04-03T03:39:31Z</time></trkpt><trkpt lat="-32.50612400" lon="115.69865100"><time>2010-04-03T03:39:32Z</time></trkpt><trkpt lat="-32.50612400" lon="115.69861300"><time>2010-04-03T03:39:33Z</time></trkpt><trkpt lat="-32.50612600" lon="115.69857000"><time>2010-04-03T03:39:34Z</time></trkpt><trkpt lat="-32.50612900" lon="115.69852700"><time>2010-04-03T03:39:35Z</time></trkpt><trkpt lat="-32.50613200" lon="115.69848500"><time>2010-04-03T03:39:36Z</time></trkpt><trkpt lat="-32.50613400" lon="115.69844500"><time>2010-04-03T03:39:37Z</time></trkpt><trkpt lat="-32.50613700" lon="115.69840500"><time>2010-04-03T03:39:38Z</time></trkpt><trkpt lat="-32.50614300" lon="115.69836700"><time>2010-04-03T03:39:39Z</time></trkpt><trkpt lat="-32.50614600" lon="115.69832900"><time>2010-04-03T03:39:40Z</time></trkpt><trkpt lat="-32.50614900" lon="115.69829500"><time>2010-04-03T03:39:41Z</time></trkpt><trkpt lat="-32.50615400" lon="115.69825600"><time>2010-04-03T03:39:42Z</time></trkpt><trkpt lat="-32.50615600" lon="115.69821700"><time>2010-04-03T03:39:43Z</time></trkpt><trkpt lat="-32.50615600" lon="115.69817700"><time>2010-04-03T03:39:44Z</time></trkpt><trkpt lat="-32.50615800" lon="115.69813800"><time>2010-04-03T03:39:45Z</time></trkpt><trkpt lat="-32.50616300" lon="115.69810400"><time>2010-04-03T03:39:46Z</time></trkpt><trkpt lat="-32.50616700" lon="115.69806500"><time>2010-04-03T03:39:47Z</time></trkpt><trkpt lat="-32.50616900" lon="115.69802300"><time>2010-04-03T03:39:48Z</time></trkpt><trkpt lat="-32.50617100" lon="115.69798500"><time>2010-04-03T03:39:49Z</time></trkpt><trkpt lat="-32.50617100" lon="115.69795300"><time>2010-04-03T03:39:50Z</time></trkpt><trkpt lat="-32.50617200" lon="115.69792000"><time>2010-04-03T03:39:51Z</time></trkpt><trkpt lat="-32.50618000" lon="115.69788900"><time>2010-04-03T03:39:52Z</time></trkpt><trkpt lat="-32.50618000" lon="115.69785100"><time>2010-04-03T03:39:53Z</time></trkpt><trkpt lat="-32.50618100" lon="115.69781400"><time>2010-04-03T03:39:54Z</time></trkpt><trkpt lat="-32.50618500" lon="115.69777800"><time>2010-04-03T03:39:55Z</time></trkpt><trkpt lat="-32.50618400" lon="115.69773800"><time>2010-04-03T03:39:56Z</time></trkpt><trkpt lat="-32.50618200" lon="115.69769900"><time>2010-04-03T03:39:57Z</time></trkpt><trkpt lat="-32.50617600" lon="115.69765800"><time>2010-04-03T03:39:58Z</time></trkpt><trkpt lat="-32.50617100" lon="115.69761900"><time>2010-04-03T03:39:59Z</time></trkpt><trkpt lat="-32.50617100" lon="115.69758000"><time>2010-04-03T03:40:00Z</time></trkpt><trkpt lat="-32.50617200" lon="115.69754300"><time>2010-04-03T03:40:01Z</time></trkpt><trkpt lat="-32.50616900" lon="115.69750300"><time>2010-04-03T03:40:02Z</time></trkpt><trkpt lat="-32.50616700" lon="115.69746100"><time>2010-04-03T03:40:03Z</time></trkpt><trkpt lat="-32.50616500" lon="115.69741900"><time>2010-04-03T03:40:04Z</time></trkpt><trkpt lat="-32.50616600" lon="115.69737800"><time>2010-04-03T03:40:05Z</time></trkpt><trkpt lat="-32.50616600" lon="115.69733500"><time>2010-04-03T03:40:06Z</time></trkpt><trkpt lat="-32.50616400" lon="115.69729400"><time>2010-04-03T03:40:07Z</time></trkpt><trkpt lat="-32.50616500" lon="115.69725300"><time>2010-04-03T03:40:08Z</time></trkpt><trkpt lat="-32.50616600" lon="115.69721000"><time>2010-04-03T03:40:09Z</time></trkpt><trkpt lat="-32.50616900" lon="115.69716700"><time>2010-04-03T03:40:10Z</time></trkpt><trkpt lat="-32.50617400" lon="115.69712100"><time>2010-04-03T03:40:11Z</time></trkpt><trkpt lat="-32.50617600" lon="115.69707700"><time>2010-04-03T03:40:12Z</time></trkpt><trkpt lat="-32.50617300" lon="115.69703200"><time>2010-04-03T03:40:13Z</time></trkpt><trkpt lat="-32.50617600" lon="115.69699400"><time>2010-04-03T03:40:14Z</time></trkpt><trkpt lat="-32.50618900" lon="115.69696800"><time>2010-04-03T03:40:15Z</time></trkpt><trkpt lat="-32.50620300" lon="115.69695600"><time>2010-04-03T03:40:16Z</time></trkpt><trkpt lat="-32.50621600" lon="115.69695600"><time>2010-04-03T03:40:17Z</time></trkpt><trkpt lat="-32.50623100" lon="115.69696400"><time>2010-04-03T03:40:18Z</time></trkpt><trkpt lat="-32.50624900" lon="115.69697100"><time>2010-04-03T03:40:19Z</time></trkpt><trkpt lat="-32.50627200" lon="115.69697900"><time>2010-04-03T03:40:20Z</time></trkpt><trkpt lat="-32.50629800" lon="115.69699200"><time>2010-04-03T03:40:21Z</time></trkpt><trkpt lat="-32.50632300" lon="115.69700200"><time>2010-04-03T03:40:22Z</time></trkpt><trkpt lat="-32.50635000" lon="115.69701300"><time>2010-04-03T03:40:23Z</time></trkpt><trkpt lat="-32.50638200" lon="115.69702500"><time>2010-04-03T03:40:24Z</time></trkpt><trkpt lat="-32.50641300" lon="115.69704100"><time>2010-04-03T03:40:25Z</time></trkpt><trkpt lat="-32.50644300" lon="115.69705900"><time>2010-04-03T03:40:26Z</time></trkpt><trkpt lat="-32.50647500" lon="115.69707500"><time>2010-04-03T03:40:27Z</time></trkpt><trkpt lat="-32.50650500" lon="115.69709300"><time>2010-04-03T03:40:28Z</time></trkpt><trkpt lat="-32.50653700" lon="115.69711000"><time>2010-04-03T03:40:29Z</time></trkpt><trkpt lat="-32.50656600" lon="115.69712400"><time>2010-04-03T03:40:30Z</time></trkpt><trkpt lat="-32.50659900" lon="115.69713800"><time>2010-04-03T03:40:31Z</time></trkpt><trkpt lat="-32.50662800" lon="115.69715400"><time>2010-04-03T03:40:32Z</time></trkpt><trkpt lat="-32.50665900" lon="115.69717300"><time>2010-04-03T03:40:33Z</time></trkpt><trkpt lat="-32.50669200" lon="115.69719000"><time>2010-04-03T03:40:34Z</time></trkpt><trkpt lat="-32.50672600" lon="115.69720600"><time>2010-04-03T03:40:35Z</time></trkpt><trkpt lat="-32.50675700" lon="115.69722300"><time>2010-04-03T03:40:36Z</time></trkpt><trkpt lat="-32.50678400" lon="115.69724300"><time>2010-04-03T03:40:37Z</time></trkpt><trkpt lat="-32.50681400" lon="115.69725700"><time>2010-04-03T03:40:38Z</time></trkpt><trkpt lat="-32.50684500" lon="115.69726800"><time>2010-04-03T03:40:39Z</time></trkpt><trkpt lat="-32.50687600" lon="115.69727600"><time>2010-04-03T03:40:40Z</time></trkpt><trkpt lat="-32.50690700" lon="115.69728700"><time>2010-04-03T03:40:41Z</time></trkpt><trkpt lat="-32.50694000" lon="115.69730200"><time>2010-04-03T03:40:42Z</time></trkpt><trkpt lat="-32.50697600" lon="115.69731600"><time>2010-04-03T03:40:43Z</time></trkpt><trkpt lat="-32.50700900" lon="115.69733200"><time>2010-04-03T03:40:44Z</time></trkpt><trkpt lat="-32.50704300" lon="115.69734900"><time>2010-04-03T03:40:45Z</time></trkpt><trkpt lat="-32.50707400" lon="115.69736100"><time>2010-04-03T03:40:46Z</time></trkpt><trkpt lat="-32.50711000" lon="115.69737100"><time>2010-04-03T03:40:47Z</time></trkpt><trkpt lat="-32.50714800" lon="115.69738300"><time>2010-04-03T03:40:48Z</time></trkpt><trkpt lat="-32.50718600" lon="115.69740000"><time>2010-04-03T03:40:49Z</time></trkpt><trkpt lat="-32.50722300" lon="115.69741700"><time>2010-04-03T03:40:50Z</time></trkpt><trkpt lat="-32.50725900" lon="115.69743700"><time>2010-04-03T03:40:51Z</time></trkpt><trkpt lat="-32.50729200" lon="115.69745300"><time>2010-04-03T03:40:52Z</time></trkpt><trkpt lat="-32.50732900" lon="115.69746300"><time>2010-04-03T03:40:53Z</time></trkpt><trkpt lat="-32.50736400" lon="115.69747100"><time>2010-04-03T03:40:54Z</time></trkpt><trkpt lat="-32.50739400" lon="115.69748800"><time>2010-04-03T03:40:55Z</time></trkpt><trkpt lat="-32.50742800" lon="115.69750500"><time>2010-04-03T03:40:56Z</time></trkpt><trkpt lat="-32.50746100" lon="115.69752400"><time>2010-04-03T03:40:57Z</time></trkpt><trkpt lat="-32.50749300" lon="115.69754300"><time>2010-04-03T03:40:58Z</time></trkpt><trkpt lat="-32.50752400" lon="115.69754700"><time>2010-04-03T03:40:59Z</time></trkpt><trkpt lat="-32.50754100" lon="115.69753500"><time>2010-04-03T03:41:00Z</time></trkpt><trkpt lat="-32.50754500" lon="115.69751800"><time>2010-04-03T03:41:01Z</time></trkpt><trkpt lat="-32.50754400" lon="115.69750300"><time>2010-04-03T03:41:02Z</time></trkpt><trkpt lat="-32.50754300" lon="115.69748400"><time>2010-04-03T03:41:03Z</time></trkpt><trkpt lat="-32.50754400" lon="115.69745600"><time>2010-04-03T03:41:04Z</time></trkpt><trkpt lat="-32.50754600" lon="115.69742200"><time>2010-04-03T03:41:05Z</time></trkpt><trkpt lat="-32.50755000" lon="115.69738600"><time>2010-04-03T03:41:06Z</time></trkpt><trkpt lat="-32.50755700" lon="115.69734900"><time>2010-04-03T03:41:07Z</time></trkpt><trkpt lat="-32.50756200" lon="115.69731300"><time>2010-04-03T03:41:08Z</time></trkpt><trkpt lat="-32.50756400" lon="115.69728100"><time>2010-04-03T03:41:09Z</time></trkpt><trkpt lat="-32.50756800" lon="115.69724400"><time>2010-04-03T03:41:10Z</time></trkpt><trkpt lat="-32.50757400" lon="115.69720600"><time>2010-04-03T03:41:11Z</time></trkpt><trkpt lat="-32.50758000" lon="115.69717100"><time>2010-04-03T03:41:12Z</time></trkpt><trkpt lat="-32.50758500" lon="115.69713600"><time>2010-04-03T03:41:13Z</time></trkpt><trkpt lat="-32.50759200" lon="115.69709900"><time>2010-04-03T03:41:14Z</time></trkpt><trkpt lat="-32.50759900" lon="115.69706000"><time>2010-04-03T03:41:15Z</time></trkpt><trkpt lat="-32.50760500" lon="115.69702200"><time>2010-04-03T03:41:16Z</time></trkpt><trkpt lat="-32.50761300" lon="115.69697800"><time>2010-04-03T03:41:17Z</time></trkpt><trkpt lat="-32.50761900" lon="115.69693500"><time>2010-04-03T03:41:18Z</time></trkpt><trkpt lat="-32.50762800" lon="115.69689700"><time>2010-04-03T03:41:19Z</time></trkpt><trkpt lat="-32.50764000" lon="115.69687600"><time>2010-04-03T03:41:20Z</time></trkpt><trkpt lat="-32.50765100" lon="115.69687000"><time>2010-04-03T03:41:21Z</time></trkpt><trkpt lat="-32.50766300" lon="115.69687600"><time>2010-04-03T03:41:22Z</time></trkpt><trkpt lat="-32.50768100" lon="115.69688500"><time>2010-04-03T03:41:23Z</time></trkpt><trkpt lat="-32.50770100" lon="115.69689500"><time>2010-04-03T03:41:24Z</time></trkpt><trkpt lat="-32.50772600" lon="115.69691400"><time>2010-04-03T03:41:25Z</time></trkpt><trkpt lat="-32.50775400" lon="115.69693000"><time>2010-04-03T03:41:26Z</time></trkpt><trkpt lat="-32.50778500" lon="115.69694400"><time>2010-04-03T03:41:27Z</time></trkpt><trkpt lat="-32.50781500" lon="115.69695800"><time>2010-04-03T03:41:28Z</time></trkpt><trkpt lat="-32.50784700" lon="115.69697600"><time>2010-04-03T03:41:29Z</time></trkpt><trkpt lat="-32.50788000" lon="115.69699300"><time>2010-04-03T03:41:30Z</time></trkpt><trkpt lat="-32.50791500" lon="115.69700700"><time>2010-04-03T03:41:31Z</time></trkpt><trkpt lat="-32.50794800" lon="115.69702400"><time>2010-04-03T03:41:32Z</time></trkpt><trkpt lat="-32.50797900" lon="115.69704000"><time>2010-04-03T03:41:33Z</time></trkpt><trkpt lat="-32.50801300" lon="115.69705500"><time>2010-04-03T03:41:34Z</time></trkpt><trkpt lat="-32.50804800" lon="115.69707200"><time>2010-04-03T03:41:35Z</time></trkpt><trkpt lat="-32.50808100" lon="115.69709300"><time>2010-04-03T03:41:36Z</time></trkpt><trkpt lat="-32.50811400" lon="115.69711600"><time>2010-04-03T03:41:37Z</time></trkpt><trkpt lat="-32.50814900" lon="115.69713700"><time>2010-04-03T03:41:38Z</time></trkpt><trkpt lat="-32.50818500" lon="115.69716000"><time>2010-04-03T03:41:39Z</time></trkpt><trkpt lat="-32.50822000" lon="115.69718400"><time>2010-04-03T03:41:40Z</time></trkpt><trkpt lat="-32.50825300" lon="115.69720800"><time>2010-04-03T03:41:41Z</time></trkpt><trkpt lat="-32.50828800" lon="115.69723500"><time>2010-04-03T03:41:42Z</time></trkpt><trkpt lat="-32.50831800" lon="115.69726700"><time>2010-04-03T03:41:43Z</time></trkpt><trkpt lat="-32.50835500" lon="115.69729800"><time>2010-04-03T03:41:44Z</time></trkpt><trkpt lat="-32.50839000" lon="115.69733300"><time>2010-04-03T03:41:45Z</time></trkpt><trkpt lat="-32.50842000" lon="115.69737100"><time>2010-04-03T03:41:46Z</time></trkpt><trkpt lat="-32.50845200" lon="115.69741000"><time>2010-04-03T03:41:47Z</time></trkpt><trkpt lat="-32.50848300" lon="115.69745200"><time>2010-04-03T03:41:48Z</time></trkpt><trkpt lat="-32.50851400" lon="115.69749700"><time>2010-04-03T03:41:49Z</time></trkpt><trkpt lat="-32.50854100" lon="115.69754200"><time>2010-04-03T03:41:50Z</time></trkpt><trkpt lat="-32.50857300" lon="115.69758300"><time>2010-04-03T03:41:51Z</time></trkpt><trkpt lat="-32.50860200" lon="115.69762300"><time>2010-04-03T03:41:52Z</time></trkpt><trkpt lat="-32.50862800" lon="115.69766100"><time>2010-04-03T03:41:53Z</time></trkpt><trkpt lat="-32.50865200" lon="115.69769500"><time>2010-04-03T03:41:54Z</time></trkpt><trkpt lat="-32.50867400" lon="115.69772700"><time>2010-04-03T03:41:55Z</time></trkpt><trkpt lat="-32.50868900" lon="115.69776500"><time>2010-04-03T03:41:56Z</time></trkpt><trkpt lat="-32.50870000" lon="115.69780300"><time>2010-04-03T03:41:57Z</time></trkpt><trkpt lat="-32.50870600" lon="115.69784400"><time>2010-04-03T03:41:58Z</time></trkpt><trkpt lat="-32.50870200" lon="115.69788600"><time>2010-04-03T03:41:59Z</time></trkpt><trkpt lat="-32.50869100" lon="115.69792600"><time>2010-04-03T03:42:00Z</time></trkpt><trkpt lat="-32.50867900" lon="115.69796400"><time>2010-04-03T03:42:01Z</time></trkpt><trkpt lat="-32.50866500" lon="115.69799800"><time>2010-04-03T03:42:02Z</time></trkpt><trkpt lat="-32.50865000" lon="115.69802800"><time>2010-04-03T03:42:03Z</time></trkpt><trkpt lat="-32.50863500" lon="115.69805800"><time>2010-04-03T03:42:04Z</time></trkpt><trkpt lat="-32.50862400" lon="115.69808900"><time>2010-04-03T03:42:05Z</time></trkpt><trkpt lat="-32.50861800" lon="115.69812700"><time>2010-04-03T03:42:06Z</time></trkpt><trkpt lat="-32.50861300" lon="115.69816600"><time>2010-04-03T03:42:07Z</time></trkpt><trkpt lat="-32.50861000" lon="115.69820700"><time>2010-04-03T03:42:08Z</time></trkpt><trkpt lat="-32.50860600" lon="115.69824500"><time>2010-04-03T03:42:09Z</time></trkpt><trkpt lat="-32.50860300" lon="115.69827800"><time>2010-04-03T03:42:10Z</time></trkpt><trkpt lat="-32.50859800" lon="115.69831000"><time>2010-04-03T03:42:11Z</time></trkpt><trkpt lat="-32.50859500" lon="115.69834900"><time>2010-04-03T03:42:12Z</time></trkpt><trkpt lat="-32.50858800" lon="115.69839600"><time>2010-04-03T03:42:13Z</time></trkpt><trkpt lat="-32.50858400" lon="115.69844100"><time>2010-04-03T03:42:14Z</time></trkpt><trkpt lat="-32.50858200" lon="115.69848700"><time>2010-04-03T03:42:15Z</time></trkpt><trkpt lat="-32.50858200" lon="115.69853100"><time>2010-04-03T03:42:16Z</time></trkpt><trkpt lat="-32.50858200" lon="115.69857500"><time>2010-04-03T03:42:17Z</time></trkpt><trkpt lat="-32.50858800" lon="115.69862100"><time>2010-04-03T03:42:18Z</time></trkpt><trkpt lat="-32.50859400" lon="115.69866400"><time>2010-04-03T03:42:19Z</time></trkpt><trkpt lat="-32.50860100" lon="115.69871400"><time>2010-04-03T03:42:20Z</time></trkpt><trkpt lat="-32.50860700" lon="115.69876900"><time>2010-04-03T03:42:21Z</time></trkpt><trkpt lat="-32.50861300" lon="115.69883000"><time>2010-04-03T03:42:22Z</time></trkpt><trkpt lat="-32.50862100" lon="115.69888700"><time>2010-04-03T03:42:23Z</time></trkpt><trkpt lat="-32.50863100" lon="115.69894400"><time>2010-04-03T03:42:24Z</time></trkpt><trkpt lat="-32.50864100" lon="115.69900400"><time>2010-04-03T03:42:25Z</time></trkpt><trkpt lat="-32.50864700" lon="115.69906600"><time>2010-04-03T03:42:26Z</time></trkpt><trkpt lat="-32.50865300" lon="115.69912700"><time>2010-04-03T03:42:27Z</time></trkpt><trkpt lat="-32.50865800" lon="115.69919000"><time>2010-04-03T03:42:28Z</time></trkpt><trkpt lat="-32.50865700" lon="115.69925600"><time>2010-04-03T03:42:29Z</time></trkpt><trkpt lat="-32.50865200" lon="115.69931900"><time>2010-04-03T03:42:30Z</time></trkpt><trkpt lat="-32.50864400" lon="115.69938500"><time>2010-04-03T03:42:31Z</time></trkpt><trkpt lat="-32.50863700" lon="115.69944900"><time>2010-04-03T03:42:32Z</time></trkpt><trkpt lat="-32.50863200" lon="115.69951100"><time>2010-04-03T03:42:33Z</time></trkpt><trkpt lat="-32.50863400" lon="115.69956900"><time>2010-04-03T03:42:34Z</time></trkpt><trkpt lat="-32.50863700" lon="115.69961900"><time>2010-04-03T03:42:35Z</time></trkpt><trkpt lat="-32.50863700" lon="115.69967100"><time>2010-04-03T03:42:36Z</time></trkpt><trkpt lat="-32.50863800" lon="115.69971600"><time>2010-04-03T03:42:37Z</time></trkpt><trkpt lat="-32.50864400" lon="115.69975500"><time>2010-04-03T03:42:38Z</time></trkpt><trkpt lat="-32.50864900" lon="115.69979300"><time>2010-04-03T03:42:39Z</time></trkpt><trkpt lat="-32.50865200" lon="115.69983500"><time>2010-04-03T03:42:40Z</time></trkpt><trkpt lat="-32.50865400" lon="115.69988000"><time>2010-04-03T03:42:41Z</time></trkpt><trkpt lat="-32.50865300" lon="115.69992900"><time>2010-04-03T03:42:42Z</time></trkpt><trkpt lat="-32.50865700" lon="115.69997500"><time>2010-04-03T03:42:43Z</time></trkpt><trkpt lat="-32.50866300" lon="115.70002400"><time>2010-04-03T03:42:44Z</time></trkpt><trkpt lat="-32.50867100" lon="115.70007000"><time>2010-04-03T03:42:45Z</time></trkpt><trkpt lat="-32.50868100" lon="115.70011700"><time>2010-04-03T03:42:46Z</time></trkpt><trkpt lat="-32.50869500" lon="115.70016500"><time>2010-04-03T03:42:47Z</time></trkpt><trkpt lat="-32.50870800" lon="115.70021400"><time>2010-04-03T03:42:48Z</time></trkpt><trkpt lat="-32.50872400" lon="115.70026000"><time>2010-04-03T03:42:49Z</time></trkpt><trkpt lat="-32.50874000" lon="115.70029900"><time>2010-04-03T03:42:50Z</time></trkpt><trkpt lat="-32.50875500" lon="115.70033800"><time>2010-04-03T03:42:51Z</time></trkpt><trkpt lat="-32.50876800" lon="115.70038200"><time>2010-04-03T03:42:52Z</time></trkpt><trkpt lat="-32.50877500" lon="115.70043600"><time>2010-04-03T03:42:53Z</time></trkpt><trkpt lat="-32.50877900" lon="115.70049900"><time>2010-04-03T03:42:54Z</time></trkpt><trkpt lat="-32.50878000" lon="115.70056700"><time>2010-04-03T03:42:55Z</time></trkpt><trkpt lat="-32.50877400" lon="115.70063600"><time>2010-04-03T03:42:56Z</time></trkpt><trkpt lat="-32.50876700" lon="115.70070700"><time>2010-04-03T03:42:57Z</time></trkpt><trkpt lat="-32.50876800" lon="115.70077800"><time>2010-04-03T03:42:58Z</time></trkpt><trkpt lat="-32.50877100" lon="115.70083900"><time>2010-04-03T03:42:59Z</time></trkpt><trkpt lat="-32.50877900" lon="115.70090000"><time>2010-04-03T03:43:00Z</time></trkpt><trkpt lat="-32.50878800" lon="115.70095600"><time>2010-04-03T03:43:01Z</time></trkpt><trkpt lat="-32.50879800" lon="115.70100900"><time>2010-04-03T03:43:02Z</time></trkpt><trkpt lat="-32.50880700" lon="115.70106100"><time>2010-04-03T03:43:03Z</time></trkpt><trkpt lat="-32.50880900" lon="115.70111700"><time>2010-04-03T03:43:04Z</time></trkpt><trkpt lat="-32.50880600" lon="115.70117900"><time>2010-04-03T03:43:05Z</time></trkpt><trkpt lat="-32.50880000" lon="115.70124200"><time>2010-04-03T03:43:06Z</time></trkpt><trkpt lat="-32.50879700" lon="115.70130200"><time>2010-04-03T03:43:07Z</time></trkpt><trkpt lat="-32.50879100" lon="115.70136400"><time>2010-04-03T03:43:08Z</time></trkpt><trkpt lat="-32.50878500" lon="115.70142700"><time>2010-04-03T03:43:09Z</time></trkpt><trkpt lat="-32.50877900" lon="115.70149400"><time>2010-04-03T03:43:10Z</time></trkpt><trkpt lat="-32.50877100" lon="115.70156500"><time>2010-04-03T03:43:11Z</time></trkpt><trkpt lat="-32.50876200" lon="115.70163300"><time>2010-04-03T03:43:12Z</time></trkpt><trkpt lat="-32.50875300" lon="115.70170300"><time>2010-04-03T03:43:13Z</time></trkpt><trkpt lat="-32.50874400" lon="115.70177500"><time>2010-04-03T03:43:14Z</time></trkpt><trkpt lat="-32.50873700" lon="115.70184600"><time>2010-04-03T03:43:15Z</time></trkpt><trkpt lat="-32.50873100" lon="115.70191500"><time>2010-04-03T03:43:16Z</time></trkpt><trkpt lat="-32.50872700" lon="115.70198200"><time>2010-04-03T03:43:17Z</time></trkpt><trkpt lat="-32.50872600" lon="115.70204500"><time>2010-04-03T03:43:18Z</time></trkpt><trkpt lat="-32.50872500" lon="115.70210500"><time>2010-04-03T03:43:19Z</time></trkpt><trkpt lat="-32.50873100" lon="115.70216400"><time>2010-04-03T03:43:20Z</time></trkpt><trkpt lat="-32.50874200" lon="115.70221400"><time>2010-04-03T03:43:21Z</time></trkpt><trkpt lat="-32.50875200" lon="115.70226500"><time>2010-04-03T03:43:22Z</time></trkpt><trkpt lat="-32.50875900" lon="115.70231600"><time>2010-04-03T03:43:23Z</time></trkpt><trkpt lat="-32.50876400" lon="115.70237300"><time>2010-04-03T03:43:24Z</time></trkpt><trkpt lat="-32.50876600" lon="115.70243300"><time>2010-04-03T03:43:25Z</time></trkpt><trkpt lat="-32.50876100" lon="115.70249700"><time>2010-04-03T03:43:26Z</time></trkpt><trkpt lat="-32.50875300" lon="115.70256300"><time>2010-04-03T03:43:27Z</time></trkpt><trkpt lat="-32.50874000" lon="115.70263000"><time>2010-04-03T03:43:28Z</time></trkpt><trkpt lat="-32.50872800" lon="115.70269200"><time>2010-04-03T03:43:29Z</time></trkpt><trkpt lat="-32.50871900" lon="115.70275800"><time>2010-04-03T03:43:30Z</time></trkpt><trkpt lat="-32.50870900" lon="115.70282900"><time>2010-04-03T03:43:31Z</time></trkpt><trkpt lat="-32.50869600" lon="115.70290500"><time>2010-04-03T03:43:32Z</time></trkpt><trkpt lat="-32.50867900" lon="115.70298100"><time>2010-04-03T03:43:33Z</time></trkpt><trkpt lat="-32.50865900" lon="115.70305100"><time>2010-04-03T03:43:34Z</time></trkpt><trkpt lat="-32.50864300" lon="115.70312100"><time>2010-04-03T03:43:35Z</time></trkpt><trkpt lat="-32.50863500" lon="115.70318700"><time>2010-04-03T03:43:36Z</time></trkpt><trkpt lat="-32.50862900" lon="115.70325800"><time>2010-04-03T03:43:37Z</time></trkpt><trkpt lat="-32.50861900" lon="115.70332800"><time>2010-04-03T03:43:38Z</time></trkpt><trkpt lat="-32.50860800" lon="115.70339400"><time>2010-04-03T03:43:39Z</time></trkpt><trkpt lat="-32.50859800" lon="115.70346300"><time>2010-04-03T03:43:40Z</time></trkpt><trkpt lat="-32.50858600" lon="115.70353700"><time>2010-04-03T03:43:41Z</time></trkpt><trkpt lat="-32.50857700" lon="115.70360500"><time>2010-04-03T03:43:42Z</time></trkpt><trkpt lat="-32.50857300" lon="115.70367100"><time>2010-04-03T03:43:43Z</time></trkpt><trkpt lat="-32.50856800" lon="115.70373600"><time>2010-04-03T03:43:44Z</time></trkpt><trkpt lat="-32.50856200" lon="115.70380300"><time>2010-04-03T03:43:45Z</time></trkpt><trkpt lat="-32.50855200" lon="115.70387100"><time>2010-04-03T03:43:46Z</time></trkpt><trkpt lat="-32.50854400" lon="115.70394000"><time>2010-04-03T03:43:47Z</time></trkpt><trkpt lat="-32.50853700" lon="115.70400900"><time>2010-04-03T03:43:48Z</time></trkpt><trkpt lat="-32.50853100" lon="115.70407700"><time>2010-04-03T03:43:49Z</time></trkpt><trkpt lat="-32.50852400" lon="115.70415000"><time>2010-04-03T03:43:50Z</time></trkpt><trkpt lat="-32.50851500" lon="115.70422300"><time>2010-04-03T03:43:51Z</time></trkpt><trkpt lat="-32.50850300" lon="115.70429500"><time>2010-04-03T03:43:52Z</time></trkpt><trkpt lat="-32.50849300" lon="115.70437100"><time>2010-04-03T03:43:53Z</time></trkpt><trkpt lat="-32.50848200" lon="115.70444400"><time>2010-04-03T03:43:54Z</time></trkpt><trkpt lat="-32.50847000" lon="115.70451700"><time>2010-04-03T03:43:55Z</time></trkpt><trkpt lat="-32.50845800" lon="115.70459300"><time>2010-04-03T03:43:56Z</time></trkpt><trkpt lat="-32.50844200" lon="115.70467200"><time>2010-04-03T03:43:57Z</time></trkpt><trkpt lat="-32.50842900" lon="115.70475100"><time>2010-04-03T03:43:58Z</time></trkpt><trkpt lat="-32.50842200" lon="115.70482800"><time>2010-04-03T03:43:59Z</time></trkpt><trkpt lat="-32.50842000" lon="115.70490300"><time>2010-04-03T03:44:00Z</time></trkpt><trkpt lat="-32.50841700" lon="115.70497700"><time>2010-04-03T03:44:01Z</time></trkpt><trkpt lat="-32.50841300" lon="115.70505200"><time>2010-04-03T03:44:02Z</time></trkpt><trkpt lat="-32.50841100" lon="115.70512200"><time>2010-04-03T03:44:03Z</time></trkpt><trkpt lat="-32.50841300" lon="115.70519000"><time>2010-04-03T03:44:04Z</time></trkpt><trkpt lat="-32.50841300" lon="115.70525700"><time>2010-04-03T03:44:05Z</time></trkpt><trkpt lat="-32.50841600" lon="115.70532200"><time>2010-04-03T03:44:06Z</time></trkpt><trkpt lat="-32.50841900" lon="115.70537900"><time>2010-04-03T03:44:07Z</time></trkpt><trkpt lat="-32.50841600" lon="115.70543600"><time>2010-04-03T03:44:08Z</time></trkpt><trkpt lat="-32.50840800" lon="115.70549600"><time>2010-04-03T03:44:09Z</time></trkpt><trkpt lat="-32.50839600" lon="115.70555300"><time>2010-04-03T03:44:10Z</time></trkpt><trkpt lat="-32.50838400" lon="115.70561100"><time>2010-04-03T03:44:11Z</time></trkpt><trkpt lat="-32.50836900" lon="115.70566900"><time>2010-04-03T03:44:12Z</time></trkpt><trkpt lat="-32.50835500" lon="115.70572700"><time>2010-04-03T03:44:13Z</time></trkpt><trkpt lat="-32.50834600" lon="115.70578400"><time>2010-04-03T03:44:14Z</time></trkpt><trkpt lat="-32.50833300" lon="115.70584300"><time>2010-04-03T03:44:15Z</time></trkpt><trkpt lat="-32.50831900" lon="115.70590100"><time>2010-04-03T03:44:16Z</time></trkpt><trkpt lat="-32.50830500" lon="115.70595300"><time>2010-04-03T03:44:17Z</time></trkpt><trkpt lat="-32.50828900" lon="115.70599900"><time>2010-04-03T03:44:18Z</time></trkpt><trkpt lat="-32.50827100" lon="115.70603200"><time>2010-04-03T03:44:19Z</time></trkpt><trkpt lat="-32.50825600" lon="115.70606000"><time>2010-04-03T03:44:20Z</time></trkpt><trkpt lat="-32.50824400" lon="115.70609100"><time>2010-04-03T03:44:21Z</time></trkpt><trkpt lat="-32.50823200" lon="115.70612800"><time>2010-04-03T03:44:22Z</time></trkpt><trkpt lat="-32.50821700" lon="115.70617100"><time>2010-04-03T03:44:23Z</time></trkpt><trkpt lat="-32.50819200" lon="115.70621400"><time>2010-04-03T03:44:24Z</time></trkpt><trkpt lat="-32.50816400" lon="115.70625500"><time>2010-04-03T03:44:25Z</time></trkpt><trkpt lat="-32.50813500" lon="115.70629300"><time>2010-04-03T03:44:26Z</time></trkpt><trkpt lat="-32.50810500" lon="115.70633000"><time>2010-04-03T03:44:27Z</time></trkpt><trkpt lat="-32.50807600" lon="115.70636600"><time>2010-04-03T03:44:28Z</time></trkpt><trkpt lat="-32.50805100" lon="115.70639400"><time>2010-04-03T03:44:29Z</time></trkpt><trkpt lat="-32.50803200" lon="115.70642000"><time>2010-04-03T03:44:30Z</time></trkpt><trkpt lat="-32.50801800" lon="115.70644100"><time>2010-04-03T03:44:31Z</time></trkpt><trkpt lat="-32.50800800" lon="115.70646500"><time>2010-04-03T03:44:32Z</time></trkpt><trkpt lat="-32.50799500" lon="115.70649900"><time>2010-04-03T03:44:33Z</time></trkpt><trkpt lat="-32.50797600" lon="115.70654400"><time>2010-04-03T03:44:34Z</time></trkpt><trkpt lat="-32.50795500" lon="115.70659400"><time>2010-04-03T03:44:35Z</time></trkpt><trkpt lat="-32.50793300" lon="115.70665200"><time>2010-04-03T03:44:36Z</time></trkpt><trkpt lat="-32.50790900" lon="115.70671300"><time>2010-04-03T03:44:37Z</time></trkpt><trkpt lat="-32.50789000" lon="115.70676700"><time>2010-04-03T03:44:38Z</time></trkpt><trkpt lat="-32.50786800" lon="115.70681800"><time>2010-04-03T03:44:39Z</time></trkpt><trkpt lat="-32.50783800" lon="115.70686100"><time>2010-04-03T03:44:40Z</time></trkpt><trkpt lat="-32.50780500" lon="115.70689800"><time>2010-04-03T03:44:41Z</time></trkpt><trkpt lat="-32.50777400" lon="115.70692800"><time>2010-04-03T03:44:42Z</time></trkpt><trkpt lat="-32.50774900" lon="115.70696000"><time>2010-04-03T03:44:43Z</time></trkpt><trkpt lat="-32.50773000" lon="115.70700000"><time>2010-04-03T03:44:44Z</time></trkpt><trkpt lat="-32.50771300" lon="115.70703900"><time>2010-04-03T03:44:45Z</time></trkpt><trkpt lat="-32.50770000" lon="115.70708100"><time>2010-04-03T03:44:46Z</time></trkpt><trkpt lat="-32.50768400" lon="115.70712200"><time>2010-04-03T03:44:47Z</time></trkpt><trkpt lat="-32.50766300" lon="115.70716300"><time>2010-04-03T03:44:48Z</time></trkpt><trkpt lat="-32.50764000" lon="115.70719900"><time>2010-04-03T03:44:49Z</time></trkpt><trkpt lat="-32.50761600" lon="115.70722900"><time>2010-04-03T03:44:50Z</time></trkpt><trkpt lat="-32.50759500" lon="115.70725900"><time>2010-04-03T03:44:51Z</time></trkpt><trkpt lat="-32.50758000" lon="115.70728800"><time>2010-04-03T03:44:52Z</time></trkpt><trkpt lat="-32.50757200" lon="115.70732100"><time>2010-04-03T03:44:53Z</time></trkpt><trkpt lat="-32.50756600" lon="115.70735900"><time>2010-04-03T03:44:54Z</time></trkpt><trkpt lat="-32.50755900" lon="115.70739700"><time>2010-04-03T03:44:55Z</time></trkpt><trkpt lat="-32.50754900" lon="115.70743500"><time>2010-04-03T03:44:56Z</time></trkpt><trkpt lat="-32.50753300" lon="115.70747200"><time>2010-04-03T03:44:57Z</time></trkpt><trkpt lat="-32.50751600" lon="115.70750700"><time>2010-04-03T03:44:58Z</time></trkpt><trkpt lat="-32.50750200" lon="115.70754300"><time>2010-04-03T03:44:59Z</time></trkpt><trkpt lat="-32.50749300" lon="115.70758000"><time>2010-04-03T03:45:00Z</time></trkpt><trkpt lat="-32.50748600" lon="115.70761700"><time>2010-04-03T03:45:01Z</time></trkpt><trkpt lat="-32.50747800" lon="115.70765700"><time>2010-04-03T03:45:02Z</time></trkpt><trkpt lat="-32.50746700" lon="115.70769900"><time>2010-04-03T03:45:03Z</time></trkpt><trkpt lat="-32.50745700" lon="115.70774300"><time>2010-04-03T03:45:04Z</time></trkpt><trkpt lat="-32.50744000" lon="115.70778200"><time>2010-04-03T03:45:05Z</time></trkpt><trkpt lat="-32.50741600" lon="115.70781700"><time>2010-04-03T03:45:06Z</time></trkpt><trkpt lat="-32.50738300" lon="115.70784500"><time>2010-04-03T03:45:07Z</time></trkpt><trkpt lat="-32.50734400" lon="115.70786600"><time>2010-04-03T03:45:08Z</time></trkpt><trkpt lat="-32.50730800" lon="115.70788600"><time>2010-04-03T03:45:09Z</time></trkpt><trkpt lat="-32.50727300" lon="115.70790800"><time>2010-04-03T03:45:10Z</time></trkpt><trkpt lat="-32.50724100" lon="115.70793600"><time>2010-04-03T03:45:11Z</time></trkpt><trkpt lat="-32.50721100" lon="115.70796100"><time>2010-04-03T03:45:12Z</time></trkpt><trkpt lat="-32.50718400" lon="115.70798400"><time>2010-04-03T03:45:13Z</time></trkpt><trkpt lat="-32.50715300" lon="115.70800800"><time>2010-04-03T03:45:14Z</time></trkpt><trkpt lat="-32.50711900" lon="115.70803100"><time>2010-04-03T03:45:15Z</time></trkpt><trkpt lat="-32.50708200" lon="115.70805500"><time>2010-04-03T03:45:16Z</time></trkpt><trkpt lat="-32.50704100" lon="115.70808200"><time>2010-04-03T03:45:17Z</time></trkpt><trkpt lat="-32.50700500" lon="115.70810400"><time>2010-04-03T03:45:18Z</time></trkpt><trkpt lat="-32.50697200" lon="115.70812400"><time>2010-04-03T03:45:19Z</time></trkpt><trkpt lat="-32.50694400" lon="115.70813700"><time>2010-04-03T03:45:20Z</time></trkpt><trkpt lat="-32.50691500" lon="115.70814400"><time>2010-04-03T03:45:21Z</time></trkpt><trkpt lat="-32.50688600" lon="115.70815200"><time>2010-04-03T03:45:22Z</time></trkpt><trkpt lat="-32.50685200" lon="115.70815800"><time>2010-04-03T03:45:23Z</time></trkpt><trkpt lat="-32.50681700" lon="115.70816200"><time>2010-04-03T03:45:24Z</time></trkpt><trkpt lat="-32.50678200" lon="115.70816500"><time>2010-04-03T03:45:25Z</time></trkpt><trkpt lat="-32.50674500" lon="115.70817100"><time>2010-04-03T03:45:26Z</time></trkpt><trkpt lat="-32.50670500" lon="115.70818500"><time>2010-04-03T03:45:27Z</time></trkpt><trkpt lat="-32.50666800" lon="115.70819900"><time>2010-04-03T03:45:28Z</time></trkpt><trkpt lat="-32.50663100" lon="115.70820900"><time>2010-04-03T03:45:29Z</time></trkpt><trkpt lat="-32.50659000" lon="115.70821700"><time>2010-04-03T03:45:30Z</time></trkpt><trkpt lat="-32.50655200" lon="115.70822500"><time>2010-04-03T03:45:31Z</time></trkpt><trkpt lat="-32.50651400" lon="115.70823800"><time>2010-04-03T03:45:32Z</time></trkpt><trkpt lat="-32.50647400" lon="115.70825400"><time>2010-04-03T03:45:33Z</time></trkpt><trkpt lat="-32.50643500" lon="115.70827200"><time>2010-04-03T03:45:34Z</time></trkpt><trkpt lat="-32.50639900" lon="115.70829400"><time>2010-04-03T03:45:35Z</time></trkpt><trkpt lat="-32.50636900" lon="115.70832100"><time>2010-04-03T03:45:36Z</time></trkpt><trkpt lat="-32.50634800" lon="115.70835200"><time>2010-04-03T03:45:37Z</time></trkpt><trkpt lat="-32.50632800" lon="115.70837400"><time>2010-04-03T03:45:38Z</time></trkpt><trkpt lat="-32.50629700" lon="115.70838800"><time>2010-04-03T03:45:39Z</time></trkpt><trkpt lat="-32.50626200" lon="115.70840100"><time>2010-04-03T03:45:40Z</time></trkpt><trkpt lat="-32.50622100" lon="115.70841600"><time>2010-04-03T03:45:41Z</time></trkpt><trkpt lat="-32.50618100" lon="115.70844000"><time>2010-04-03T03:45:42Z</time></trkpt><trkpt lat="-32.50614100" lon="115.70846800"><time>2010-04-03T03:45:43Z</time></trkpt><trkpt lat="-32.50610600" lon="115.70850100"><time>2010-04-03T03:45:44Z</time></trkpt><trkpt lat="-32.50607300" lon="115.70853100"><time>2010-04-03T03:45:45Z</time></trkpt><trkpt lat="-32.50604200" lon="115.70855400"><time>2010-04-03T03:45:46Z</time></trkpt><trkpt lat="-32.50600700" lon="115.70856800"><time>2010-04-03T03:45:47Z</time></trkpt><trkpt lat="-32.50597600" lon="115.70857900"><time>2010-04-03T03:45:48Z</time></trkpt><trkpt lat="-32.50594000" lon="115.70858500"><time>2010-04-03T03:45:49Z</time></trkpt><trkpt lat="-32.50590700" lon="115.70859000"><time>2010-04-03T03:45:50Z</time></trkpt><trkpt lat="-32.50587300" lon="115.70859500"><time>2010-04-03T03:45:51Z</time></trkpt><trkpt lat="-32.50583700" lon="115.70860600"><time>2010-04-03T03:45:52Z</time></trkpt><trkpt lat="-32.50580100" lon="115.70862100"><time>2010-04-03T03:45:53Z</time></trkpt><trkpt lat="-32.50576500" lon="115.70863600"><time>2010-04-03T03:45:54Z</time></trkpt><trkpt lat="-32.50572900" lon="115.70865400"><time>2010-04-03T03:45:55Z</time></trkpt><trkpt lat="-32.50569100" lon="115.70866800"><time>2010-04-03T03:45:56Z</time></trkpt><trkpt lat="-32.50565600" lon="115.70868300"><time>2010-04-03T03:45:57Z</time></trkpt><trkpt lat="-32.50562500" lon="115.70869300"><time>2010-04-03T03:45:58Z</time></trkpt><trkpt lat="-32.50559200" lon="115.70870200"><time>2010-04-03T03:45:59Z</time></trkpt><trkpt lat="-32.50555400" lon="115.70871000"><time>2010-04-03T03:46:00Z</time></trkpt><trkpt lat="-32.50551500" lon="115.70872100"><time>2010-04-03T03:46:01Z</time></trkpt><trkpt lat="-32.50547500" lon="115.70873100"><time>2010-04-03T03:46:02Z</time></trkpt><trkpt lat="-32.50543200" lon="115.70874900"><time>2010-04-03T03:46:03Z</time></trkpt><trkpt lat="-32.50538900" lon="115.70876900"><time>2010-04-03T03:46:04Z</time></trkpt><trkpt lat="-32.50534200" lon="115.70878800"><time>2010-04-03T03:46:05Z</time></trkpt><trkpt lat="-32.50529900" lon="115.70881200"><time>2010-04-03T03:46:06Z</time></trkpt><trkpt lat="-32.50525800" lon="115.70883400"><time>2010-04-03T03:46:07Z</time></trkpt><trkpt lat="-32.50522000" lon="115.70885100"><time>2010-04-03T03:46:08Z</time></trkpt><trkpt lat="-32.50518700" lon="115.70886700"><time>2010-04-03T03:46:09Z</time></trkpt><trkpt lat="-32.50515700" lon="115.70888500"><time>2010-04-03T03:46:10Z</time></trkpt><trkpt lat="-32.50512800" lon="115.70889900"><time>2010-04-03T03:46:11Z</time></trkpt><trkpt lat="-32.50510000" lon="115.70890600"><time>2010-04-03T03:46:12Z</time></trkpt><trkpt lat="-32.50506800" lon="115.70892200"><time>2010-04-03T03:46:13Z</time></trkpt><trkpt lat="-32.50503700" lon="115.70894600"><time>2010-04-03T03:46:14Z</time></trkpt><trkpt lat="-32.50500000" lon="115.70897000"><time>2010-04-03T03:46:15Z</time></trkpt><trkpt lat="-32.50496200" lon="115.70898700"><time>2010-04-03T03:46:16Z</time></trkpt><trkpt lat="-32.50492400" lon="115.70899600"><time>2010-04-03T03:46:17Z</time></trkpt><trkpt lat="-32.50488600" lon="115.70899900"><time>2010-04-03T03:46:18Z</time></trkpt><trkpt lat="-32.50484800" lon="115.70900500"><time>2010-04-03T03:46:19Z</time></trkpt><trkpt lat="-32.50481100" lon="115.70901100"><time>2010-04-03T03:46:20Z</time></trkpt><trkpt lat="-32.50476900" lon="115.70902400"><time>2010-04-03T03:46:21Z</time></trkpt><trkpt lat="-32.50473100" lon="115.70904300"><time>2010-04-03T03:46:22Z</time></trkpt><trkpt lat="-32.50469800" lon="115.70906800"><time>2010-04-03T03:46:23Z</time></trkpt><trkpt lat="-32.50467300" lon="115.70909600"><time>2010-04-03T03:46:24Z</time></trkpt><trkpt lat="-32.50464700" lon="115.70912200"><time>2010-04-03T03:46:25Z</time></trkpt><trkpt lat="-32.50462500" lon="115.70914600"><time>2010-04-03T03:46:26Z</time></trkpt><trkpt lat="-32.50460100" lon="115.70916200"><time>2010-04-03T03:46:27Z</time></trkpt><trkpt lat="-32.50457100" lon="115.70917800"><time>2010-04-03T03:46:28Z</time></trkpt><trkpt lat="-32.50453800" lon="115.70919700"><time>2010-04-03T03:46:29Z</time></trkpt><trkpt lat="-32.50450600" lon="115.70921900"><time>2010-04-03T03:46:30Z</time></trkpt><trkpt lat="-32.50447100" lon="115.70923500"><time>2010-04-03T03:46:31Z</time></trkpt><trkpt lat="-32.50443600" lon="115.70924800"><time>2010-04-03T03:46:32Z</time></trkpt><trkpt lat="-32.50439700" lon="115.70925500"><time>2010-04-03T03:46:33Z</time></trkpt><trkpt lat="-32.50435400" lon="115.70926700"><time>2010-04-03T03:46:34Z</time></trkpt><trkpt lat="-32.50431400" lon="115.70928900"><time>2010-04-03T03:46:35Z</time></trkpt><trkpt lat="-32.50427900" lon="115.70932300"><time>2010-04-03T03:46:36Z</time></trkpt><trkpt lat="-32.50424700" lon="115.70936300"><time>2010-04-03T03:46:37Z</time></trkpt><trkpt lat="-32.50422100" lon="115.70941200"><time>2010-04-03T03:46:38Z</time></trkpt><trkpt lat="-32.50420100" lon="115.70946100"><time>2010-04-03T03:46:39Z</time></trkpt><trkpt lat="-32.50418500" lon="115.70950400"><time>2010-04-03T03:46:40Z</time></trkpt><trkpt lat="-32.50416900" lon="115.70953800"><time>2010-04-03T03:46:41Z</time></trkpt><trkpt lat="-32.50414700" lon="115.70955800"><time>2010-04-03T03:46:42Z</time></trkpt><trkpt lat="-32.50411900" lon="115.70957100"><time>2010-04-03T03:46:43Z</time></trkpt><trkpt lat="-32.50408500" lon="115.70958200"><time>2010-04-03T03:46:44Z</time></trkpt><trkpt lat="-32.50404800" lon="115.70959500"><time>2010-04-03T03:46:45Z</time></trkpt><trkpt lat="-32.50401000" lon="115.70961400"><time>2010-04-03T03:46:46Z</time></trkpt><trkpt lat="-32.50397900" lon="115.70963900"><time>2010-04-03T03:46:47Z</time></trkpt><trkpt lat="-32.50395000" lon="115.70967100"><time>2010-04-03T03:46:48Z</time></trkpt><trkpt lat="-32.50392100" lon="115.70970000"><time>2010-04-03T03:46:49Z</time></trkpt><trkpt lat="-32.50388800" lon="115.70972100"><time>2010-04-03T03:46:50Z</time></trkpt><trkpt lat="-32.50385400" lon="115.70973900"><time>2010-04-03T03:46:51Z</time></trkpt><trkpt lat="-32.50381600" lon="115.70975600"><time>2010-04-03T03:46:52Z</time></trkpt><trkpt lat="-32.50378000" lon="115.70977600"><time>2010-04-03T03:46:53Z</time></trkpt><trkpt lat="-32.50375000" lon="115.70980000"><time>2010-04-03T03:46:54Z</time></trkpt><trkpt lat="-32.50372500" lon="115.70982600"><time>2010-04-03T03:46:55Z</time></trkpt><trkpt lat="-32.50370000" lon="115.70984700"><time>2010-04-03T03:46:56Z</time></trkpt><trkpt lat="-32.50366700" lon="115.70986600"><time>2010-04-03T03:46:57Z</time></trkpt><trkpt lat="-32.50363100" lon="115.70988900"><time>2010-04-03T03:46:58Z</time></trkpt><trkpt lat="-32.50360000" lon="115.70991600"><time>2010-04-03T03:46:59Z</time></trkpt><trkpt lat="-32.50357700" lon="115.70994500"><time>2010-04-03T03:47:00Z</time></trkpt><trkpt lat="-32.50355600" lon="115.70997300"><time>2010-04-03T03:47:01Z</time></trkpt><trkpt lat="-32.50353400" lon="115.70999600"><time>2010-04-03T03:47:02Z</time></trkpt><trkpt lat="-32.50350300" lon="115.71001700"><time>2010-04-03T03:47:03Z</time></trkpt><trkpt lat="-32.50347000" lon="115.71003700"><time>2010-04-03T03:47:04Z</time></trkpt><trkpt lat="-32.50343500" lon="115.71005300"><time>2010-04-03T03:47:05Z</time></trkpt><trkpt lat="-32.50340000" lon="115.71007000"><time>2010-04-03T03:47:06Z</time></trkpt><trkpt lat="-32.50336900" lon="115.71009100"><time>2010-04-03T03:47:07Z</time></trkpt><trkpt lat="-32.50334200" lon="115.71011000"><time>2010-04-03T03:47:08Z</time></trkpt><trkpt lat="-32.50331500" lon="115.71012800"><time>2010-04-03T03:47:09Z</time></trkpt><trkpt lat="-32.50328400" lon="115.71014500"><time>2010-04-03T03:47:10Z</time></trkpt><trkpt lat="-32.50324900" lon="115.71016700"><time>2010-04-03T03:47:11Z</time></trkpt><trkpt lat="-32.50321500" lon="115.71019700"><time>2010-04-03T03:47:12Z</time></trkpt><trkpt lat="-32.50318600" lon="115.71023300"><time>2010-04-03T03:47:13Z</time></trkpt><trkpt lat="-32.50315800" lon="115.71027300"><time>2010-04-03T03:47:14Z</time></trkpt><trkpt lat="-32.50313600" lon="115.71030300"><time>2010-04-03T03:47:15Z</time></trkpt><trkpt lat="-32.50311400" lon="115.71032600"><time>2010-04-03T03:47:16Z</time></trkpt><trkpt lat="-32.50308800" lon="115.71035100"><time>2010-04-03T03:47:17Z</time></trkpt><trkpt lat="-32.50306500" lon="115.71035700"><time>2010-04-03T03:47:18Z</time></trkpt><trkpt lat="-32.50303100" lon="115.71037000"><time>2010-04-03T03:47:19Z</time></trkpt><trkpt lat="-32.50299100" lon="115.71039100"><time>2010-04-03T03:47:20Z</time></trkpt><trkpt lat="-32.50295200" lon="115.71041500"><time>2010-04-03T03:47:21Z</time></trkpt><trkpt lat="-32.50291200" lon="115.71043500"><time>2010-04-03T03:47:22Z</time></trkpt><trkpt lat="-32.50287500" lon="115.71045200"><time>2010-04-03T03:47:23Z</time></trkpt><trkpt lat="-32.50283500" lon="115.71047300"><time>2010-04-03T03:47:24Z</time></trkpt><trkpt lat="-32.50279900" lon="115.71049600"><time>2010-04-03T03:47:25Z</time></trkpt><trkpt lat="-32.50276800" lon="115.71052100"><time>2010-04-03T03:47:26Z</time></trkpt><trkpt lat="-32.50273900" lon="115.71054000"><time>2010-04-03T03:47:27Z</time></trkpt><trkpt lat="-32.50271000" lon="115.71055400"><time>2010-04-03T03:47:28Z</time></trkpt><trkpt lat="-32.50267900" lon="115.71056800"><time>2010-04-03T03:47:29Z</time></trkpt><trkpt lat="-32.50264900" lon="115.71058500"><time>2010-04-03T03:47:30Z</time></trkpt><trkpt lat="-32.50261800" lon="115.71060600"><time>2010-04-03T03:47:31Z</time></trkpt><trkpt lat="-32.50258300" lon="115.71062600"><time>2010-04-03T03:47:32Z</time></trkpt><trkpt lat="-32.50254500" lon="115.71064100"><time>2010-04-03T03:47:33Z</time></trkpt><trkpt lat="-32.50250600" lon="115.71065300"><time>2010-04-03T03:47:34Z</time></trkpt><trkpt lat="-32.50246800" lon="115.71066700"><time>2010-04-03T03:47:35Z</time></trkpt><trkpt lat="-32.50243200" lon="115.71068200"><time>2010-04-03T03:47:36Z</time></trkpt><trkpt lat="-32.50239400" lon="115.71069600"><time>2010-04-03T03:47:37Z</time></trkpt><trkpt lat="-32.50235700" lon="115.71071300"><time>2010-04-03T03:47:38Z</time></trkpt><trkpt lat="-32.50232300" lon="115.71072900"><time>2010-04-03T03:47:39Z</time></trkpt><trkpt lat="-32.50229000" lon="115.71074100"><time>2010-04-03T03:47:40Z</time></trkpt><trkpt lat="-32.50225600" lon="115.71074700"><time>2010-04-03T03:47:41Z</time></trkpt><trkpt lat="-32.50221800" lon="115.71075500"><time>2010-04-03T03:47:42Z</time></trkpt><trkpt lat="-32.50218000" lon="115.71076400"><time>2010-04-03T03:47:43Z</time></trkpt><trkpt lat="-32.50214000" lon="115.71078000"><time>2010-04-03T03:47:44Z</time></trkpt><trkpt lat="-32.50209700" lon="115.71079900"><time>2010-04-03T03:47:45Z</time></trkpt><trkpt lat="-32.50205500" lon="115.71081900"><time>2010-04-03T03:47:46Z</time></trkpt><trkpt lat="-32.50201400" lon="115.71083900"><time>2010-04-03T03:47:47Z</time></trkpt><trkpt lat="-32.50197500" lon="115.71086300"><time>2010-04-03T03:47:48Z</time></trkpt><trkpt lat="-32.50193700" lon="115.71088800"><time>2010-04-03T03:47:49Z</time></trkpt><trkpt lat="-32.50190400" lon="115.71091800"><time>2010-04-03T03:47:50Z</time></trkpt><trkpt lat="-32.50187600" lon="115.71095700"><time>2010-04-03T03:47:51Z</time></trkpt><trkpt lat="-32.50185600" lon="115.71100000"><time>2010-04-03T03:47:52Z</time></trkpt><trkpt lat="-32.50183600" lon="115.71104800"><time>2010-04-03T03:47:53Z</time></trkpt><trkpt lat="-32.50181900" lon="115.71109300"><time>2010-04-03T03:47:54Z</time></trkpt><trkpt lat="-32.50180300" lon="115.71113200"><time>2010-04-03T03:47:55Z</time></trkpt><trkpt lat="-32.50178300" lon="115.71116500"><time>2010-04-03T03:47:56Z</time></trkpt><trkpt lat="-32.50176400" lon="115.71120100"><time>2010-04-03T03:47:57Z</time></trkpt><trkpt lat="-32.50174500" lon="115.71123600"><time>2010-04-03T03:47:58Z</time></trkpt><trkpt lat="-32.50172600" lon="115.71126900"><time>2010-04-03T03:47:59Z</time></trkpt><trkpt lat="-32.50170700" lon="115.71129900"><time>2010-04-03T03:48:00Z</time></trkpt><trkpt lat="-32.50168200" lon="115.71132800"><time>2010-04-03T03:48:01Z</time></trkpt><trkpt lat="-32.50166100" lon="115.71135600"><time>2010-04-03T03:48:02Z</time></trkpt><trkpt lat="-32.50164500" lon="115.71138800"><time>2010-04-03T03:48:03Z</time></trkpt><trkpt lat="-32.50162800" lon="115.71142100"><time>2010-04-03T03:48:04Z</time></trkpt><trkpt lat="-32.50161400" lon="115.71145600"><time>2010-04-03T03:48:05Z</time></trkpt><trkpt lat="-32.50160000" lon="115.71148800"><time>2010-04-03T03:48:06Z</time></trkpt><trkpt lat="-32.50158700" lon="115.71151800"><time>2010-04-03T03:48:07Z</time></trkpt><trkpt lat="-32.50157500" lon="115.71154800"><time>2010-04-03T03:48:08Z</time></trkpt><trkpt lat="-32.50156300" lon="115.71157600"><time>2010-04-03T03:48:09Z</time></trkpt><trkpt lat="-32.50155000" lon="115.71160300"><time>2010-04-03T03:48:10Z</time></trkpt><trkpt lat="-32.50153700" lon="115.71163200"><time>2010-04-03T03:48:11Z</time></trkpt><trkpt lat="-32.50152200" lon="115.71166300"><time>2010-04-03T03:48:12Z</time></trkpt><trkpt lat="-32.50150500" lon="115.71169600"><time>2010-04-03T03:48:13Z</time></trkpt><trkpt lat="-32.50149000" lon="115.71173000"><time>2010-04-03T03:48:14Z</time></trkpt><trkpt lat="-32.50147300" lon="115.71176700"><time>2010-04-03T03:48:15Z</time></trkpt><trkpt lat="-32.50145800" lon="115.71180400"><time>2010-04-03T03:48:16Z</time></trkpt><trkpt lat="-32.50144400" lon="115.71183700"><time>2010-04-03T03:48:17Z</time></trkpt><trkpt lat="-32.50142800" lon="115.71186400"><time>2010-04-03T03:48:18Z</time></trkpt><trkpt lat="-32.50140600" lon="115.71188700"><time>2010-04-03T03:48:19Z</time></trkpt><trkpt lat="-32.50138100" lon="115.71189800"><time>2010-04-03T03:48:20Z</time></trkpt><trkpt lat="-32.50135100" lon="115.71189600"><time>2010-04-03T03:48:21Z</time></trkpt><trkpt lat="-32.50131200" lon="115.71188400"><time>2010-04-03T03:48:22Z</time></trkpt><trkpt lat="-32.50126800" lon="115.71186600"><time>2010-04-03T03:48:23Z</time></trkpt><trkpt lat="-32.50122000" lon="115.71184500"><time>2010-04-03T03:48:24Z</time></trkpt><trkpt lat="-32.50117000" lon="115.71182500"><time>2010-04-03T03:48:25Z</time></trkpt><trkpt lat="-32.50111500" lon="115.71180500"><time>2010-04-03T03:48:26Z</time></trkpt><trkpt lat="-32.50105700" lon="115.71178900"><time>2010-04-03T03:48:27Z</time></trkpt><trkpt lat="-32.50100000" lon="115.71176900"><time>2010-04-03T03:48:28Z</time></trkpt><trkpt lat="-32.50095000" lon="115.71175100"><time>2010-04-03T03:48:29Z</time></trkpt><trkpt lat="-32.50090000" lon="115.71172200"><time>2010-04-03T03:48:30Z</time></trkpt><trkpt lat="-32.50084500" lon="115.71170100"><time>2010-04-03T03:48:31Z</time></trkpt><trkpt lat="-32.50078900" lon="115.71168100"><time>2010-04-03T03:48:32Z</time></trkpt><trkpt lat="-32.50073600" lon="115.71165900"><time>2010-04-03T03:48:33Z</time></trkpt><trkpt lat="-32.50067900" lon="115.71164400"><time>2010-04-03T03:48:34Z</time></trkpt><trkpt lat="-32.50062300" lon="115.71162600"><time>2010-04-03T03:48:35Z</time></trkpt><trkpt lat="-32.50056900" lon="115.71160000"><time>2010-04-03T03:48:36Z</time></trkpt><trkpt lat="-32.50051900" lon="115.71157600"><time>2010-04-03T03:48:37Z</time></trkpt><trkpt lat="-32.50047300" lon="115.71155400"><time>2010-04-03T03:48:38Z</time></trkpt><trkpt lat="-32.50042700" lon="115.71153200"><time>2010-04-03T03:48:39Z</time></trkpt><trkpt lat="-32.50037800" lon="115.71151300"><time>2010-04-03T03:48:40Z</time></trkpt><trkpt lat="-32.50032800" lon="115.71149200"><time>2010-04-03T03:48:41Z</time></trkpt><trkpt lat="-32.50027900" lon="115.71146900"><time>2010-04-03T03:48:42Z</time></trkpt><trkpt lat="-32.50022900" lon="115.71144600"><time>2010-04-03T03:48:43Z</time></trkpt><trkpt lat="-32.50018200" lon="115.71142700"><time>2010-04-03T03:48:44Z</time></trkpt><trkpt lat="-32.50013700" lon="115.71140400"><time>2010-04-03T03:48:45Z</time></trkpt><trkpt lat="-32.50009200" lon="115.71138400"><time>2010-04-03T03:48:46Z</time></trkpt><trkpt lat="-32.50004400" lon="115.71136700"><time>2010-04-03T03:48:47Z</time></trkpt><trkpt lat="-32.49998900" lon="115.71135100"><time>2010-04-03T03:48:48Z</time></trkpt><trkpt lat="-32.49993600" lon="115.71133300"><time>2010-04-03T03:48:49Z</time></trkpt><trkpt lat="-32.49988400" lon="115.71131300"><time>2010-04-03T03:48:50Z</time></trkpt><trkpt lat="-32.49983200" lon="115.71129400"><time>2010-04-03T03:48:51Z</time></trkpt><trkpt lat="-32.49977600" lon="115.71129300"><time>2010-04-03T03:48:52Z</time></trkpt><trkpt lat="-32.49971800" lon="115.71128100"><time>2010-04-03T03:48:53Z</time></trkpt><trkpt lat="-32.49965800" lon="115.71126600"><time>2010-04-03T03:48:54Z</time></trkpt><trkpt lat="-32.49959600" lon="115.71126100"><time>2010-04-03T03:48:55Z</time></trkpt><trkpt lat="-32.49953100" lon="115.71126100"><time>2010-04-03T03:48:56Z</time></trkpt><trkpt lat="-32.49946300" lon="115.71125700"><time>2010-04-03T03:48:57Z</time></trkpt><trkpt lat="-32.49939800" lon="115.71124300"><time>2010-04-03T03:48:58Z</time></trkpt><trkpt lat="-32.49933500" lon="115.71123000"><time>2010-04-03T03:48:59Z</time></trkpt><trkpt lat="-32.49927300" lon="115.71119500"><time>2010-04-03T03:49:00Z</time></trkpt><trkpt lat="-32.49921500" lon="115.71118300"><time>2010-04-03T03:49:01Z</time></trkpt><trkpt lat="-32.49916300" lon="115.71116500"><time>2010-04-03T03:49:02Z</time></trkpt><trkpt lat="-32.49911200" lon="115.71114500"><time>2010-04-03T03:49:03Z</time></trkpt><trkpt lat="-32.49906000" lon="115.71112400"><time>2010-04-03T03:49:04Z</time></trkpt><trkpt lat="-32.49900800" lon="115.71110700"><time>2010-04-03T03:49:05Z</time></trkpt><trkpt lat="-32.49895200" lon="115.71109600"><time>2010-04-03T03:49:06Z</time></trkpt><trkpt lat="-32.49889100" lon="115.71108500"><time>2010-04-03T03:49:07Z</time></trkpt><trkpt lat="-32.49883100" lon="115.71106500"><time>2010-04-03T03:49:08Z</time></trkpt><trkpt lat="-32.49877400" lon="115.71104800"><time>2010-04-03T03:49:09Z</time></trkpt><trkpt lat="-32.49871700" lon="115.71102700"><time>2010-04-03T03:49:10Z</time></trkpt><trkpt lat="-32.49866200" lon="115.71100500"><time>2010-04-03T03:49:11Z</time></trkpt><trkpt lat="-32.49860500" lon="115.71098800"><time>2010-04-03T03:49:12Z</time></trkpt><trkpt lat="-32.49854700" lon="115.71097700"><time>2010-04-03T03:49:13Z</time></trkpt><trkpt lat="-32.49849300" lon="115.71096500"><time>2010-04-03T03:49:14Z</time></trkpt><trkpt lat="-32.49844100" lon="115.71095400"><time>2010-04-03T03:49:15Z</time></trkpt><trkpt lat="-32.49838900" lon="115.71094000"><time>2010-04-03T03:49:16Z</time></trkpt><trkpt lat="-32.49833400" lon="115.71092400"><time>2010-04-03T03:49:17Z</time></trkpt><trkpt lat="-32.49827800" lon="115.71091100"><time>2010-04-03T03:49:18Z</time></trkpt><trkpt lat="-32.49821700" lon="115.71090400"><time>2010-04-03T03:49:19Z</time></trkpt><trkpt lat="-32.49815700" lon="115.71090000"><time>2010-04-03T03:49:20Z</time></trkpt><trkpt lat="-32.49809500" lon="115.71089700"><time>2010-04-03T03:49:21Z</time></trkpt><trkpt lat="-32.49803100" lon="115.71089100"><time>2010-04-03T03:49:22Z</time></trkpt><trkpt lat="-32.49796800" lon="115.71088000"><time>2010-04-03T03:49:23Z</time></trkpt><trkpt lat="-32.49790600" lon="115.71087400"><time>2010-04-03T03:49:24Z</time></trkpt><trkpt lat="-32.49784500" lon="115.71086800"><time>2010-04-03T03:49:25Z</time></trkpt><trkpt lat="-32.49778200" lon="115.71085800"><time>2010-04-03T03:49:26Z</time></trkpt><trkpt lat="-32.49771800" lon="115.71084700"><time>2010-04-03T03:49:27Z</time></trkpt><trkpt lat="-32.49765800" lon="115.71084100"><time>2010-04-03T03:49:28Z</time></trkpt><trkpt lat="-32.49760100" lon="115.71083100"><time>2010-04-03T03:49:29Z</time></trkpt><trkpt lat="-32.49754600" lon="115.71081400"><time>2010-04-03T03:49:30Z</time></trkpt><trkpt lat="-32.49748900" lon="115.71079700"><time>2010-04-03T03:49:31Z</time></trkpt><trkpt lat="-32.49743100" lon="115.71078100"><time>2010-04-03T03:49:32Z</time></trkpt><trkpt lat="-32.49737600" lon="115.71076600"><time>2010-04-03T03:49:33Z</time></trkpt><trkpt lat="-32.49731800" lon="115.71075400"><time>2010-04-03T03:49:34Z</time></trkpt><trkpt lat="-32.49726000" lon="115.71074300"><time>2010-04-03T03:49:35Z</time></trkpt><trkpt lat="-32.49720200" lon="115.71072800"><time>2010-04-03T03:49:36Z</time></trkpt><trkpt lat="-32.49714300" lon="115.71071000"><time>2010-04-03T03:49:37Z</time></trkpt><trkpt lat="-32.49708200" lon="115.71069200"><time>2010-04-03T03:49:38Z</time></trkpt><trkpt lat="-32.49702100" lon="115.71067500"><time>2010-04-03T03:49:39Z</time></trkpt><trkpt lat="-32.49695900" lon="115.71066100"><time>2010-04-03T03:49:40Z</time></trkpt><trkpt lat="-32.49689900" lon="115.71064700"><time>2010-04-03T03:49:41Z</time></trkpt><trkpt lat="-32.49684000" lon="115.71063300"><time>2010-04-03T03:49:42Z</time></trkpt><trkpt lat="-32.49678300" lon="115.71062500"><time>2010-04-03T03:49:43Z</time></trkpt><trkpt lat="-32.49672200" lon="115.71061400"><time>2010-04-03T03:49:44Z</time></trkpt><trkpt lat="-32.49666000" lon="115.71060800"><time>2010-04-03T03:49:45Z</time></trkpt><trkpt lat="-32.49659200" lon="115.71060200"><time>2010-04-03T03:49:46Z</time></trkpt><trkpt lat="-32.49652500" lon="115.71059800"><time>2010-04-03T03:49:47Z</time></trkpt><trkpt lat="-32.49645600" lon="115.71058800"><time>2010-04-03T03:49:48Z</time></trkpt><trkpt lat="-32.49639100" lon="115.71058100"><time>2010-04-03T03:49:49Z</time></trkpt><trkpt lat="-32.49632900" lon="115.71057000"><time>2010-04-03T03:49:50Z</time></trkpt><trkpt lat="-32.49626900" lon="115.71056000"><time>2010-04-03T03:49:51Z</time></trkpt><trkpt lat="-32.49621200" lon="115.71055000"><time>2010-04-03T03:49:52Z</time></trkpt><trkpt lat="-32.49615500" lon="115.71054100"><time>2010-04-03T03:49:53Z</time></trkpt><trkpt lat="-32.49610200" lon="115.71052300"><time>2010-04-03T03:49:54Z</time></trkpt><trkpt lat="-32.49604900" lon="115.71050500"><time>2010-04-03T03:49:55Z</time></trkpt><trkpt lat="-32.49599600" lon="115.71048700"><time>2010-04-03T03:49:56Z</time></trkpt><trkpt lat="-32.49594200" lon="115.71046700"><time>2010-04-03T03:49:57Z</time></trkpt><trkpt lat="-32.49588800" lon="115.71044200"><time>2010-04-03T03:49:58Z</time></trkpt><trkpt lat="-32.49583400" lon="115.71041600"><time>2010-04-03T03:49:59Z</time></trkpt><trkpt lat="-32.49578100" lon="115.71039200"><time>2010-04-03T03:50:00Z</time></trkpt><trkpt lat="-32.49572500" lon="115.71037200"><time>2010-04-03T03:50:01Z</time></trkpt><trkpt lat="-32.49566800" lon="115.71036000"><time>2010-04-03T03:50:02Z</time></trkpt><trkpt lat="-32.49561200" lon="115.71034700"><time>2010-04-03T03:50:03Z</time></trkpt><trkpt lat="-32.49555500" lon="115.71033300"><time>2010-04-03T03:50:04Z</time></trkpt><trkpt lat="-32.49549900" lon="115.71032200"><time>2010-04-03T03:50:05Z</time></trkpt><trkpt lat="-32.49544400" lon="115.71031300"><time>2010-04-03T03:50:06Z</time></trkpt><trkpt lat="-32.49538800" lon="115.71030700"><time>2010-04-03T03:50:07Z</time></trkpt><trkpt lat="-32.49533400" lon="115.71030600"><time>2010-04-03T03:50:08Z</time></trkpt><trkpt lat="-32.49528600" lon="115.71030100"><time>2010-04-03T03:50:09Z</time></trkpt><trkpt lat="-32.49523700" lon="115.71030100"><time>2010-04-03T03:50:10Z</time></trkpt><trkpt lat="-32.49518500" lon="115.71030300"><time>2010-04-03T03:50:11Z</time></trkpt><trkpt lat="-32.49513700" lon="115.71030500"><time>2010-04-03T03:50:12Z</time></trkpt><trkpt lat="-32.49508900" lon="115.71030500"><time>2010-04-03T03:50:13Z</time></trkpt><trkpt lat="-32.49504600" lon="115.71030600"><time>2010-04-03T03:50:14Z</time></trkpt><trkpt lat="-32.49501000" lon="115.71030500"><time>2010-04-03T03:50:15Z</time></trkpt><trkpt lat="-32.49497500" lon="115.71030100"><time>2010-04-03T03:50:16Z</time></trkpt><trkpt lat="-32.49494100" lon="115.71030300"><time>2010-04-03T03:50:17Z</time></trkpt><trkpt lat="-32.49490600" lon="115.71031100"><time>2010-04-03T03:50:18Z</time></trkpt><trkpt lat="-32.49487400" lon="115.71031800"><time>2010-04-03T03:50:19Z</time></trkpt><trkpt lat="-32.49484400" lon="115.71032200"><time>2010-04-03T03:50:20Z</time></trkpt><trkpt lat="-32.49481200" lon="115.71032400"><time>2010-04-03T03:50:21Z</time></trkpt><trkpt lat="-32.49478700" lon="115.71032300"><time>2010-04-03T03:50:22Z</time></trkpt><trkpt lat="-32.49476000" lon="115.71031600"><time>2010-04-03T03:50:23Z</time></trkpt><trkpt lat="-32.49473000" lon="115.71031000"><time>2010-04-03T03:50:24Z</time></trkpt><trkpt lat="-32.49469400" lon="115.71030800"><time>2010-04-03T03:50:25Z</time></trkpt><trkpt lat="-32.49465900" lon="115.71030300"><time>2010-04-03T03:50:26Z</time></trkpt><trkpt lat="-32.49462200" lon="115.71029700"><time>2010-04-03T03:50:27Z</time></trkpt><trkpt lat="-32.49459000" lon="115.71027800"><time>2010-04-03T03:50:28Z</time></trkpt><trkpt lat="-32.49456600" lon="115.71025000"><time>2010-04-03T03:50:29Z</time></trkpt><trkpt lat="-32.49455200" lon="115.71022000"><time>2010-04-03T03:50:30Z</time></trkpt><trkpt lat="-32.49454500" lon="115.71018400"><time>2010-04-03T03:50:31Z</time></trkpt><trkpt lat="-32.49454500" lon="115.71015300"><time>2010-04-03T03:50:32Z</time></trkpt><trkpt lat="-32.49454900" lon="115.71012700"><time>2010-04-03T03:50:33Z</time></trkpt><trkpt lat="-32.49454600" lon="115.71009200"><time>2010-04-03T03:50:34Z</time></trkpt><trkpt lat="-32.49454700" lon="115.71005700"><time>2010-04-03T03:50:35Z</time></trkpt><trkpt lat="-32.49454600" lon="115.71002300"><time>2010-04-03T03:50:36Z</time></trkpt><trkpt lat="-32.49454200" lon="115.70998600"><time>2010-04-03T03:50:37Z</time></trkpt><trkpt lat="-32.49453800" lon="115.70995000"><time>2010-04-03T03:50:38Z</time></trkpt><trkpt lat="-32.49453500" lon="115.70991300"><time>2010-04-03T03:50:39Z</time></trkpt><trkpt lat="-32.49453600" lon="115.70987500"><time>2010-04-03T03:50:40Z</time></trkpt><trkpt lat="-32.49453600" lon="115.70984000"><time>2010-04-03T03:50:41Z</time></trkpt><trkpt lat="-32.49453700" lon="115.70981100"><time>2010-04-03T03:50:42Z</time></trkpt><trkpt lat="-32.49453800" lon="115.70977400"><time>2010-04-03T03:50:43Z</time></trkpt><trkpt lat="-32.49454000" lon="115.70973700"><time>2010-04-03T03:50:44Z</time></trkpt><trkpt lat="-32.49454100" lon="115.70970100"><time>2010-04-03T03:50:45Z</time></trkpt><trkpt lat="-32.49454100" lon="115.70966600"><time>2010-04-03T03:50:46Z</time></trkpt><trkpt lat="-32.49454200" lon="115.70962800"><time>2010-04-03T03:50:47Z</time></trkpt><trkpt lat="-32.49454400" lon="115.70958800"><time>2010-04-03T03:50:48Z</time></trkpt><trkpt lat="-32.49454500" lon="115.70955000"><time>2010-04-03T03:50:49Z</time></trkpt><trkpt lat="-32.49454400" lon="115.70951000"><time>2010-04-03T03:50:50Z</time></trkpt><trkpt lat="-32.49454400" lon="115.70946800"><time>2010-04-03T03:50:51Z</time></trkpt><trkpt lat="-32.49454300" lon="115.70943100"><time>2010-04-03T03:50:52Z</time></trkpt><trkpt lat="-32.49454300" lon="115.70939000"><time>2010-04-03T03:50:53Z</time></trkpt><trkpt lat="-32.49454300" lon="115.70935100"><time>2010-04-03T03:50:54Z</time></trkpt><trkpt lat="-32.49453900" lon="115.70931600"><time>2010-04-03T03:50:55Z</time></trkpt><trkpt lat="-32.49453500" lon="115.70927700"><time>2010-04-03T03:50:56Z</time></trkpt><trkpt lat="-32.49453400" lon="115.70923600"><time>2010-04-03T03:50:57Z</time></trkpt><trkpt lat="-32.49453200" lon="115.70919900"><time>2010-04-03T03:50:58Z</time></trkpt><trkpt lat="-32.49453200" lon="115.70916900"><time>2010-04-03T03:50:59Z</time></trkpt><trkpt lat="-32.49453300" lon="115.70913300"><time>2010-04-03T03:51:00Z</time></trkpt><trkpt lat="-32.49453400" lon="115.70909000"><time>2010-04-03T03:51:01Z</time></trkpt><trkpt lat="-32.49453100" lon="115.70904800"><time>2010-04-03T03:51:02Z</time></trkpt><trkpt lat="-32.49453100" lon="115.70901100"><time>2010-04-03T03:51:03Z</time></trkpt><trkpt lat="-32.49453000" lon="115.70897200"><time>2010-04-03T03:51:04Z</time></trkpt><trkpt lat="-32.49452600" lon="115.70892900"><time>2010-04-03T03:51:05Z</time></trkpt><trkpt lat="-32.49452300" lon="115.70888500"><time>2010-04-03T03:51:06Z</time></trkpt><trkpt lat="-32.49452200" lon="115.70884300"><time>2010-04-03T03:51:07Z</time></trkpt><trkpt lat="-32.49452100" lon="115.70880300"><time>2010-04-03T03:51:08Z</time></trkpt><trkpt lat="-32.49451800" lon="115.70876200"><time>2010-04-03T03:51:09Z</time></trkpt><trkpt lat="-32.49451300" lon="115.70872100"><time>2010-04-03T03:51:10Z</time></trkpt><trkpt lat="-32.49451000" lon="115.70867900"><time>2010-04-03T03:51:11Z</time></trkpt><trkpt lat="-32.49451000" lon="115.70863500"><time>2010-04-03T03:51:12Z</time></trkpt><trkpt lat="-32.49451100" lon="115.70859000"><time>2010-04-03T03:51:13Z</time></trkpt><trkpt lat="-32.49451000" lon="115.70854800"><time>2010-04-03T03:51:14Z</time></trkpt><trkpt lat="-32.49450600" lon="115.70850500"><time>2010-04-03T03:51:15Z</time></trkpt><trkpt lat="-32.49450600" lon="115.70845800"><time>2010-04-03T03:51:16Z</time></trkpt><trkpt lat="-32.49450000" lon="115.70841100"><time>2010-04-03T03:51:17Z</time></trkpt><trkpt lat="-32.49449500" lon="115.70836800"><time>2010-04-03T03:51:18Z</time></trkpt><trkpt lat="-32.49449100" lon="115.70832600"><time>2010-04-03T03:51:19Z</time></trkpt><trkpt lat="-32.49448900" lon="115.70828400"><time>2010-04-03T03:51:20Z</time></trkpt><trkpt lat="-32.49448800" lon="115.70824500"><time>2010-04-03T03:51:21Z</time></trkpt><trkpt lat="-32.49448600" lon="115.70820500"><time>2010-04-03T03:51:22Z</time></trkpt><trkpt lat="-32.49448000" lon="115.70816300"><time>2010-04-03T03:51:23Z</time></trkpt><trkpt lat="-32.49447300" lon="115.70811800"><time>2010-04-03T03:51:24Z</time></trkpt><trkpt lat="-32.49447000" lon="115.70807300"><time>2010-04-03T03:51:25Z</time></trkpt><trkpt lat="-32.49446500" lon="115.70803300"><time>2010-04-03T03:51:26Z</time></trkpt><trkpt lat="-32.49446000" lon="115.70799400"><time>2010-04-03T03:51:27Z</time></trkpt><trkpt lat="-32.49445700" lon="115.70795200"><time>2010-04-03T03:51:28Z</time></trkpt><trkpt lat="-32.49445700" lon="115.70791400"><time>2010-04-03T03:51:29Z</time></trkpt><trkpt lat="-32.49445400" lon="115.70787100"><time>2010-04-03T03:51:30Z</time></trkpt><trkpt lat="-32.49444900" lon="115.70782700"><time>2010-04-03T03:51:31Z</time></trkpt><trkpt lat="-32.49444100" lon="115.70778200"><time>2010-04-03T03:51:32Z</time></trkpt><trkpt lat="-32.49443500" lon="115.70773900"><time>2010-04-03T03:51:33Z</time></trkpt><trkpt lat="-32.49443000" lon="115.70769900"><time>2010-04-03T03:51:34Z</time></trkpt><trkpt lat="-32.49442700" lon="115.70765800"><time>2010-04-03T03:51:35Z</time></trkpt><trkpt lat="-32.49443000" lon="115.70762100"><time>2010-04-03T03:51:36Z</time></trkpt><trkpt lat="-32.49444100" lon="115.70760100"><time>2010-04-03T03:51:37Z</time></trkpt><trkpt lat="-32.49445400" lon="115.70759400"><time>2010-04-03T03:51:38Z</time></trkpt><trkpt lat="-32.49446700" lon="115.70759500"><time>2010-04-03T03:51:39Z</time></trkpt><trkpt lat="-32.49448500" lon="115.70759700"><time>2010-04-03T03:51:40Z</time></trkpt><trkpt lat="-32.49451200" lon="115.70759400"><time>2010-04-03T03:51:41Z</time></trkpt><trkpt lat="-32.49453900" lon="115.70759600"><time>2010-04-03T03:51:42Z</time></trkpt><trkpt lat="-32.49456800" lon="115.70760400"><time>2010-04-03T03:51:43Z</time></trkpt><trkpt lat="-32.49460000" lon="115.70760500"><time>2010-04-03T03:51:44Z</time></trkpt><trkpt lat="-32.49463300" lon="115.70760400"><time>2010-04-03T03:51:45Z</time></trkpt><trkpt lat="-32.49466600" lon="115.70760200"><time>2010-04-03T03:51:46Z</time></trkpt><trkpt lat="-32.49470100" lon="115.70760200"><time>2010-04-03T03:51:47Z</time></trkpt><trkpt lat="-32.49473600" lon="115.70759800"><time>2010-04-03T03:51:48Z</time></trkpt><trkpt lat="-32.49476700" lon="115.70760000"><time>2010-04-03T03:51:49Z</time></trkpt><trkpt lat="-32.49479700" lon="115.70760600"><time>2010-04-03T03:51:50Z</time></trkpt><trkpt lat="-32.49482900" lon="115.70761200"><time>2010-04-03T03:51:51Z</time></trkpt><trkpt lat="-32.49485800" lon="115.70761700"><time>2010-04-03T03:51:52Z</time></trkpt><trkpt lat="-32.49488800" lon="115.70761900"><time>2010-04-03T03:51:53Z</time></trkpt><trkpt lat="-32.49492100" lon="115.70762100"><time>2010-04-03T03:51:54Z</time></trkpt><trkpt lat="-32.49495400" lon="115.70762300"><time>2010-04-03T03:51:55Z</time></trkpt><trkpt lat="-32.49498500" lon="115.70761900"><time>2010-04-03T03:51:56Z</time></trkpt><trkpt lat="-32.49501700" lon="115.70762200"><time>2010-04-03T03:51:57Z</time></trkpt><trkpt lat="-32.49504800" lon="115.70762400"><time>2010-04-03T03:51:58Z</time></trkpt><trkpt lat="-32.49508000" lon="115.70762400"><time>2010-04-03T03:51:59Z</time></trkpt><trkpt lat="-32.49511400" lon="115.70763000"><time>2010-04-03T03:52:00Z</time></trkpt><trkpt lat="-32.49514600" lon="115.70763300"><time>2010-04-03T03:52:01Z</time></trkpt><trkpt lat="-32.49517600" lon="115.70763300"><time>2010-04-03T03:52:02Z</time></trkpt><trkpt lat="-32.49521100" lon="115.70763600"><time>2010-04-03T03:52:03Z</time></trkpt><trkpt lat="-32.49524000" lon="115.70764000"><time>2010-04-03T03:52:04Z</time></trkpt><trkpt lat="-32.49527000" lon="115.70764300"><time>2010-04-03T03:52:05Z</time></trkpt><trkpt lat="-32.49529900" lon="115.70764700"><time>2010-04-03T03:52:06Z</time></trkpt><trkpt lat="-32.49533000" lon="115.70765000"><time>2010-04-03T03:52:07Z</time></trkpt><trkpt lat="-32.49536100" lon="115.70765200"><time>2010-04-03T03:52:08Z</time></trkpt><trkpt lat="-32.49539200" lon="115.70765300"><time>2010-04-03T03:52:09Z</time></trkpt><trkpt lat="-32.49542500" lon="115.70765600"><time>2010-04-03T03:52:10Z</time></trkpt><trkpt lat="-32.49545700" lon="115.70766300"><time>2010-04-03T03:52:11Z</time></trkpt><trkpt lat="-32.49548800" lon="115.70767300"><time>2010-04-03T03:52:12Z</time></trkpt><trkpt lat="-32.49551600" lon="115.70768400"><time>2010-04-03T03:52:13Z</time></trkpt><trkpt lat="-32.49555000" lon="115.70769000"><time>2010-04-03T03:52:14Z</time></trkpt><trkpt lat="-32.49558300" lon="115.70769400"><time>2010-04-03T03:52:15Z</time></trkpt><trkpt lat="-32.49561700" lon="115.70769900"><time>2010-04-03T03:52:16Z</time></trkpt><trkpt lat="-32.49564900" lon="115.70770500"><time>2010-04-03T03:52:17Z</time></trkpt><trkpt lat="-32.49568200" lon="115.70770800"><time>2010-04-03T03:52:18Z</time></trkpt><trkpt lat="-32.49571200" lon="115.70771000"><time>2010-04-03T03:52:19Z</time></trkpt><trkpt lat="-32.49574200" lon="115.70771200"><time>2010-04-03T03:52:20Z</time></trkpt><trkpt lat="-32.49577300" lon="115.70771800"><time>2010-04-03T03:52:21Z</time></trkpt><trkpt lat="-32.49580500" lon="115.70772100"><time>2010-04-03T03:52:22Z</time></trkpt><trkpt lat="-32.49583400" lon="115.70772500"><time>2010-04-03T03:52:23Z</time></trkpt><trkpt lat="-32.49586500" lon="115.70772800"><time>2010-04-03T03:52:24Z</time></trkpt><trkpt lat="-32.49589800" lon="115.70772500"><time>2010-04-03T03:52:25Z</time></trkpt><trkpt lat="-32.49593200" lon="115.70772400"><time>2010-04-03T03:52:26Z</time></trkpt><trkpt lat="-32.49595900" lon="115.70773200"><time>2010-04-03T03:52:27Z</time></trkpt><trkpt lat="-32.49598000" lon="115.70774700"><time>2010-04-03T03:52:28Z</time></trkpt><trkpt lat="-32.49601400" lon="115.70775500"><time>2010-04-03T03:52:29Z</time></trkpt><trkpt lat="-32.49604600" lon="115.70776100"><time>2010-04-03T03:52:30Z</time></trkpt><trkpt lat="-32.49607500" lon="115.70776800"><time>2010-04-03T03:52:31Z</time></trkpt><trkpt lat="-32.49610800" lon="115.70777200"><time>2010-04-03T03:52:32Z</time></trkpt><trkpt lat="-32.49614100" lon="115.70777600"><time>2010-04-03T03:52:33Z</time></trkpt><trkpt lat="-32.49617400" lon="115.70778200"><time>2010-04-03T03:52:34Z</time></trkpt><trkpt lat="-32.49620800" lon="115.70778600"><time>2010-04-03T03:52:35Z</time></trkpt><trkpt lat="-32.49624000" lon="115.70778900"><time>2010-04-03T03:52:36Z</time></trkpt><trkpt lat="-32.49626900" lon="115.70779300"><time>2010-04-03T03:52:37Z</time></trkpt><trkpt lat="-32.49629800" lon="115.70779800"><time>2010-04-03T03:52:38Z</time></trkpt><trkpt lat="-32.49632800" lon="115.70779900"><time>2010-04-03T03:52:39Z</time></trkpt><trkpt lat="-32.49635700" lon="115.70780300"><time>2010-04-03T03:52:40Z</time></trkpt><trkpt lat="-32.49638600" lon="115.70781100"><time>2010-04-03T03:52:41Z</time></trkpt><trkpt lat="-32.49641500" lon="115.70781800"><time>2010-04-03T03:52:42Z</time></trkpt><trkpt lat="-32.49644700" lon="115.70782300"><time>2010-04-03T03:52:43Z</time></trkpt><trkpt lat="-32.49648000" lon="115.70783000"><time>2010-04-03T03:52:44Z</time></trkpt><trkpt lat="-32.49651300" lon="115.70783700"><time>2010-04-03T03:52:45Z</time></trkpt><trkpt lat="-32.49654500" lon="115.70784700"><time>2010-04-03T03:52:46Z</time></trkpt><trkpt lat="-32.49657500" lon="115.70785100"><time>2010-04-03T03:52:47Z</time></trkpt><trkpt lat="-32.49660700" lon="115.70785400"><time>2010-04-03T03:52:48Z</time></trkpt><trkpt lat="-32.49664100" lon="115.70785900"><time>2010-04-03T03:52:49Z</time></trkpt><trkpt lat="-32.49667300" lon="115.70786800"><time>2010-04-03T03:52:50Z</time></trkpt><trkpt lat="-32.49670400" lon="115.70787500"><time>2010-04-03T03:52:51Z</time></trkpt><trkpt lat="-32.49673600" lon="115.70788300"><time>2010-04-03T03:52:52Z</time></trkpt><trkpt lat="-32.49676500" lon="115.70788900"><time>2010-04-03T03:52:53Z</time></trkpt><trkpt lat="-32.49679600" lon="115.70789200"><time>2010-04-03T03:52:54Z</time></trkpt><trkpt lat="-32.49682600" lon="115.70789400"><time>2010-04-03T03:52:55Z</time></trkpt><trkpt lat="-32.49685600" lon="115.70789800"><time>2010-04-03T03:52:56Z</time></trkpt><trkpt lat="-32.49688600" lon="115.70790400"><time>2010-04-03T03:52:57Z</time></trkpt><trkpt lat="-32.49691600" lon="115.70790400"><time>2010-04-03T03:52:58Z</time></trkpt><trkpt lat="-32.49694600" lon="115.70790300"><time>2010-04-03T03:52:59Z</time></trkpt><trkpt lat="-32.49697700" lon="115.70790000"><time>2010-04-03T03:53:00Z</time></trkpt><trkpt lat="-32.49700100" lon="115.70790400"><time>2010-04-03T03:53:01Z</time></trkpt><trkpt lat="-32.49702900" lon="115.70790700"><time>2010-04-03T03:53:02Z</time></trkpt><trkpt lat="-32.49705900" lon="115.70791100"><time>2010-04-03T03:53:03Z</time></trkpt><trkpt lat="-32.49708700" lon="115.70791300"><time>2010-04-03T03:53:04Z</time></trkpt><trkpt lat="-32.49711600" lon="115.70791300"><time>2010-04-03T03:53:05Z</time></trkpt><trkpt lat="-32.49714600" lon="115.70791100"><time>2010-04-03T03:53:06Z</time></trkpt><trkpt lat="-32.49717800" lon="115.70790900"><time>2010-04-03T03:53:07Z</time></trkpt><trkpt lat="-32.49720500" lon="115.70790500"><time>2010-04-03T03:53:08Z</time></trkpt><trkpt lat="-32.49723300" lon="115.70790300"><time>2010-04-03T03:53:09Z</time></trkpt><trkpt lat="-32.49726000" lon="115.70790400"><time>2010-04-03T03:53:10Z</time></trkpt><trkpt lat="-32.49728400" lon="115.70790800"><time>2010-04-03T03:53:11Z</time></trkpt><trkpt lat="-32.49731600" lon="115.70790800"><time>2010-04-03T03:53:12Z</time></trkpt><trkpt lat="-32.49734500" lon="115.70791000"><time>2010-04-03T03:53:13Z</time></trkpt><trkpt lat="-32.49736900" lon="115.70791200"><time>2010-04-03T03:53:14Z</time></trkpt><trkpt lat="-32.49740000" lon="115.70791100"><time>2010-04-03T03:53:15Z</time></trkpt><trkpt lat="-32.49742600" lon="115.70791000"><time>2010-04-03T03:53:16Z</time></trkpt><trkpt lat="-32.49745300" lon="115.70790900"><time>2010-04-03T03:53:17Z</time></trkpt><trkpt lat="-32.49748100" lon="115.70790700"><time>2010-04-03T03:53:18Z</time></trkpt><trkpt lat="-32.49751300" lon="115.70790700"><time>2010-04-03T03:53:19Z</time></trkpt><trkpt lat="-32.49754100" lon="115.70790700"><time>2010-04-03T03:53:20Z</time></trkpt><trkpt lat="-32.49757200" lon="115.70790700"><time>2010-04-03T03:53:21Z</time></trkpt><trkpt lat="-32.49760400" lon="115.70790800"><time>2010-04-03T03:53:22Z</time></trkpt><trkpt lat="-32.49763700" lon="115.70791000"><time>2010-04-03T03:53:23Z</time></trkpt><trkpt lat="-32.49767000" lon="115.70791500"><time>2010-04-03T03:53:24Z</time></trkpt><trkpt lat="-32.49770600" lon="115.70791600"><time>2010-04-03T03:53:25Z</time></trkpt><trkpt lat="-32.49773600" lon="115.70791800"><time>2010-04-03T03:53:26Z</time></trkpt><trkpt lat="-32.49776400" lon="115.70792100"><time>2010-04-03T03:53:27Z</time></trkpt><trkpt lat="-32.49778900" lon="115.70792400"><time>2010-04-03T03:53:28Z</time></trkpt><trkpt lat="-32.49782300" lon="115.70792200"><time>2010-04-03T03:53:29Z</time></trkpt><trkpt lat="-32.49785800" lon="115.70791700"><time>2010-04-03T03:53:30Z</time></trkpt><trkpt lat="-32.49788900" lon="115.70792000"><time>2010-04-03T03:53:31Z</time></trkpt><trkpt lat="-32.49791200" lon="115.70793300"><time>2010-04-03T03:53:32Z</time></trkpt><trkpt lat="-32.49793800" lon="115.70793800"><time>2010-04-03T03:53:33Z</time></trkpt><trkpt lat="-32.49796700" lon="115.70793900"><time>2010-04-03T03:53:34Z</time></trkpt><trkpt lat="-32.49799300" lon="115.70794300"><time>2010-04-03T03:53:35Z</time></trkpt><trkpt lat="-32.49802300" lon="115.70795100"><time>2010-04-03T03:53:36Z</time></trkpt><trkpt lat="-32.49805500" lon="115.70796000"><time>2010-04-03T03:53:37Z</time></trkpt><trkpt lat="-32.49808500" lon="115.70796500"><time>2010-04-03T03:53:38Z</time></trkpt><trkpt lat="-32.49810900" lon="115.70797700"><time>2010-04-03T03:53:39Z</time></trkpt><trkpt lat="-32.49813900" lon="115.70798500"><time>2010-04-03T03:53:40Z</time></trkpt><trkpt lat="-32.49817000" lon="115.70799200"><time>2010-04-03T03:53:41Z</time></trkpt><trkpt lat="-32.49819900" lon="115.70799800"><time>2010-04-03T03:53:42Z</time></trkpt><trkpt lat="-32.49823100" lon="115.70800100"><time>2010-04-03T03:53:43Z</time></trkpt><trkpt lat="-32.49826300" lon="115.70800100"><time>2010-04-03T03:53:44Z</time></trkpt><trkpt lat="-32.49829200" lon="115.70800700"><time>2010-04-03T03:53:45Z</time></trkpt><trkpt lat="-32.49832300" lon="115.70801300"><time>2010-04-03T03:53:46Z</time></trkpt><trkpt lat="-32.49835400" lon="115.70801800"><time>2010-04-03T03:53:47Z</time></trkpt><trkpt lat="-32.49838400" lon="115.70802500"><time>2010-04-03T03:53:48Z</time></trkpt><trkpt lat="-32.49841600" lon="115.70802800"><time>2010-04-03T03:53:49Z</time></trkpt><trkpt lat="-32.49844700" lon="115.70803000"><time>2010-04-03T03:53:50Z</time></trkpt><trkpt lat="-32.49848200" lon="115.70803200"><time>2010-04-03T03:53:51Z</time></trkpt><trkpt lat="-32.49851000" lon="115.70803700"><time>2010-04-03T03:53:52Z</time></trkpt><trkpt lat="-32.49853600" lon="115.70804500"><time>2010-04-03T03:53:53Z</time></trkpt><trkpt lat="-32.49856500" lon="115.70805200"><time>2010-04-03T03:53:54Z</time></trkpt><trkpt lat="-32.49859400" lon="115.70805800"><time>2010-04-03T03:53:55Z</time></trkpt><trkpt lat="-32.49862200" lon="115.70806500"><time>2010-04-03T03:53:56Z</time></trkpt><trkpt lat="-32.49865200" lon="115.70807400"><time>2010-04-03T03:53:57Z</time></trkpt><trkpt lat="-32.49868400" lon="115.70808000"><time>2010-04-03T03:53:58Z</time></trkpt><trkpt lat="-32.49871700" lon="115.70808400"><time>2010-04-03T03:53:59Z</time></trkpt><trkpt lat="-32.49874700" lon="115.70809100"><time>2010-04-03T03:54:00Z</time></trkpt><trkpt lat="-32.49877800" lon="115.70809400"><time>2010-04-03T03:54:01Z</time></trkpt><trkpt lat="-32.49881200" lon="115.70809500"><time>2010-04-03T03:54:02Z</time></trkpt><trkpt lat="-32.49884400" lon="115.70810100"><time>2010-04-03T03:54:03Z</time></trkpt><trkpt lat="-32.49887400" lon="115.70810800"><time>2010-04-03T03:54:04Z</time></trkpt><trkpt lat="-32.49890400" lon="115.70811300"><time>2010-04-03T03:54:05Z</time></trkpt><trkpt lat="-32.49893400" lon="115.70812100"><time>2010-04-03T03:54:06Z</time></trkpt><trkpt lat="-32.49896500" lon="115.70812200"><time>2010-04-03T03:54:07Z</time></trkpt><trkpt lat="-32.49899700" lon="115.70812100"><time>2010-04-03T03:54:08Z</time></trkpt><trkpt lat="-32.49902700" lon="115.70812600"><time>2010-04-03T03:54:09Z</time></trkpt><trkpt lat="-32.49905600" lon="115.70813800"><time>2010-04-03T03:54:10Z</time></trkpt><trkpt lat="-32.49909000" lon="115.70814200"><time>2010-04-03T03:54:11Z</time></trkpt><trkpt lat="-32.49912000" lon="115.70815000"><time>2010-04-03T03:54:12Z</time></trkpt><trkpt lat="-32.49915200" lon="115.70816000"><time>2010-04-03T03:54:13Z</time></trkpt><trkpt lat="-32.49918100" lon="115.70816600"><time>2010-04-03T03:54:14Z</time></trkpt><trkpt lat="-32.49921100" lon="115.70817400"><time>2010-04-03T03:54:15Z</time></trkpt><trkpt lat="-32.49924600" lon="115.70817700"><time>2010-04-03T03:54:16Z</time></trkpt><trkpt lat="-32.49928200" lon="115.70818400"><time>2010-04-03T03:54:17Z</time></trkpt><trkpt lat="-32.49931700" lon="115.70819100"><time>2010-04-03T03:54:18Z</time></trkpt><trkpt lat="-32.49935300" lon="115.70819800"><time>2010-04-03T03:54:19Z</time></trkpt><trkpt lat="-32.49938800" lon="115.70820600"><time>2010-04-03T03:54:20Z</time></trkpt><trkpt lat="-32.49942400" lon="115.70821300"><time>2010-04-03T03:54:21Z</time></trkpt><trkpt lat="-32.49946200" lon="115.70821500"><time>2010-04-03T03:54:22Z</time></trkpt><trkpt lat="-32.49949900" lon="115.70822400"><time>2010-04-03T03:54:23Z</time></trkpt><trkpt lat="-32.49953300" lon="115.70823200"><time>2010-04-03T03:54:24Z</time></trkpt><trkpt lat="-32.49956500" lon="115.70824000"><time>2010-04-03T03:54:25Z</time></trkpt><trkpt lat="-32.49959800" lon="115.70824800"><time>2010-04-03T03:54:26Z</time></trkpt><trkpt lat="-32.49963200" lon="115.70825600"><time>2010-04-03T03:54:27Z</time></trkpt><trkpt lat="-32.49966400" lon="115.70825800"><time>2010-04-03T03:54:28Z</time></trkpt><trkpt lat="-32.49969200" lon="115.70825300"><time>2010-04-03T03:54:29Z</time></trkpt><trkpt lat="-32.49971400" lon="115.70824200"><time>2010-04-03T03:54:30Z</time></trkpt><trkpt lat="-32.49972700" lon="115.70822700"><time>2010-04-03T03:54:31Z</time></trkpt><trkpt lat="-32.49973300" lon="115.70821400"><time>2010-04-03T03:54:32Z</time></trkpt><trkpt lat="-32.49973100" lon="115.70820300"><time>2010-04-03T03:54:33Z</time></trkpt><trkpt lat="-32.49972900" lon="115.70818000"><time>2010-04-03T03:54:34Z</time></trkpt><trkpt lat="-32.49973300" lon="115.70815200"><time>2010-04-03T03:54:35Z</time></trkpt><trkpt lat="-32.49973400" lon="115.70813100"><time>2010-04-03T03:54:36Z</time></trkpt><trkpt lat="-32.49973500" lon="115.70811100"><time>2010-04-03T03:54:37Z</time></trkpt><trkpt lat="-32.49973600" lon="115.70808200"><time>2010-04-03T03:54:38Z</time></trkpt><trkpt lat="-32.49973500" lon="115.70805200"><time>2010-04-03T03:54:39Z</time></trkpt><trkpt lat="-32.49973700" lon="115.70803200"><time>2010-04-03T03:54:40Z</time></trkpt><trkpt lat="-32.49973500" lon="115.70800000"><time>2010-04-03T03:54:41Z</time></trkpt><trkpt lat="-32.49973300" lon="115.70797600"><time>2010-04-03T03:54:42Z</time></trkpt><trkpt lat="-32.49972800" lon="115.70795300"><time>2010-04-03T03:54:43Z</time></trkpt><trkpt lat="-32.49972500" lon="115.70793000"><time>2010-04-03T03:54:44Z</time></trkpt><trkpt lat="-32.49972800" lon="115.70790700"><time>2010-04-03T03:54:45Z</time></trkpt><trkpt lat="-32.49972800" lon="115.70788800"><time>2010-04-03T03:54:46Z</time></trkpt><trkpt lat="-32.49972700" lon="115.70786700"><time>2010-04-03T03:54:47Z</time></trkpt><trkpt lat="-32.49972700" lon="115.70784400"><time>2010-04-03T03:54:48Z</time></trkpt><trkpt lat="-32.49972600" lon="115.70782500"><time>2010-04-03T03:54:49Z</time></trkpt><trkpt lat="-32.49972400" lon="115.70780400"><time>2010-04-03T03:54:50Z</time></trkpt><trkpt lat="-32.49972100" lon="115.70778300"><time>2010-04-03T03:54:51Z</time></trkpt><trkpt lat="-32.49972100" lon="115.70775800"><time>2010-04-03T03:54:52Z</time></trkpt><trkpt lat="-32.49971700" lon="115.70774000"><time>2010-04-03T03:54:53Z</time></trkpt><trkpt lat="-32.49971400" lon="115.70772100"><time>2010-04-03T03:54:54Z</time></trkpt><trkpt lat="-32.49971400" lon="115.70769600"><time>2010-04-03T03:54:55Z</time></trkpt><trkpt lat="-32.49971200" lon="115.70767200"><time>2010-04-03T03:54:56Z</time></trkpt><trkpt lat="-32.49971300" lon="115.70764800"><time>2010-04-03T03:54:57Z</time></trkpt><trkpt lat="-32.49971300" lon="115.70761900"><time>2010-04-03T03:54:58Z</time></trkpt><trkpt lat="-32.49971500" lon="115.70758700"><time>2010-04-03T03:54:59Z</time></trkpt><trkpt lat="-32.49971600" lon="115.70756300"><time>2010-04-03T03:55:00Z</time></trkpt><trkpt lat="-32.49971500" lon="115.70754000"><time>2010-04-03T03:55:01Z</time></trkpt><trkpt lat="-32.49971500" lon="115.70751600"><time>2010-04-03T03:55:02Z</time></trkpt><trkpt lat="-32.49971200" lon="115.70749100"><time>2010-04-03T03:55:03Z</time></trkpt><trkpt lat="-32.49971000" lon="115.70747300"><time>2010-04-03T03:55:04Z</time></trkpt><trkpt lat="-32.49970900" lon="115.70744900"><time>2010-04-03T03:55:05Z</time></trkpt><trkpt lat="-32.49971200" lon="115.70742400"><time>2010-04-03T03:55:06Z</time></trkpt><trkpt lat="-32.49971600" lon="115.70740500"><time>2010-04-03T03:55:07Z</time></trkpt><trkpt lat="-32.49971500" lon="115.70738300"><time>2010-04-03T03:55:08Z</time></trkpt><trkpt lat="-32.49971700" lon="115.70735800"><time>2010-04-03T03:55:09Z</time></trkpt><trkpt lat="-32.49972100" lon="115.70733200"><time>2010-04-03T03:55:10Z</time></trkpt><trkpt lat="-32.49972400" lon="115.70731300"><time>2010-04-03T03:55:11Z</time></trkpt><trkpt lat="-32.49972300" lon="115.70729300"><time>2010-04-03T03:55:12Z</time></trkpt><trkpt lat="-32.49972300" lon="115.70726800"><time>2010-04-03T03:55:13Z</time></trkpt><trkpt lat="-32.49972700" lon="115.70724400"><time>2010-04-03T03:55:14Z</time></trkpt><trkpt lat="-32.49973200" lon="115.70722400"><time>2010-04-03T03:55:15Z</time></trkpt><trkpt lat="-32.49973600" lon="115.70720500"><time>2010-04-03T03:55:16Z</time></trkpt><trkpt lat="-32.49973600" lon="115.70718500"><time>2010-04-03T03:55:17Z</time></trkpt><trkpt lat="-32.49973600" lon="115.70716400"><time>2010-04-03T03:55:18Z</time></trkpt><trkpt lat="-32.49973600" lon="115.70714300"><time>2010-04-03T03:55:19Z</time></trkpt><trkpt lat="-32.49973700" lon="115.70712200"><time>2010-04-03T03:55:20Z</time></trkpt><trkpt lat="-32.49973600" lon="115.70709800"><time>2010-04-03T03:55:21Z</time></trkpt><trkpt lat="-32.49974000" lon="115.70707600"><time>2010-04-03T03:55:22Z</time></trkpt><trkpt lat="-32.49974100" lon="115.70705400"><time>2010-04-03T03:55:23Z</time></trkpt><trkpt lat="-32.49973900" lon="115.70703900"><time>2010-04-03T03:55:24Z</time></trkpt><trkpt lat="-32.49973600" lon="115.70702400"><time>2010-04-03T03:55:25Z</time></trkpt><trkpt lat="-32.49973400" lon="115.70700400"><time>2010-04-03T03:55:26Z</time></trkpt><trkpt lat="-32.49973700" lon="115.70697700"><time>2010-04-03T03:55:27Z</time></trkpt><trkpt lat="-32.49973700" lon="115.70695700"><time>2010-04-03T03:55:28Z</time></trkpt><trkpt lat="-32.49973200" lon="115.70694200"><time>2010-04-03T03:55:29Z</time></trkpt><trkpt lat="-32.49973000" lon="115.70691800"><time>2010-04-03T03:55:30Z</time></trkpt><trkpt lat="-32.49973300" lon="115.70689300"><time>2010-04-03T03:55:31Z</time></trkpt><trkpt lat="-32.49973700" lon="115.70687900"><time>2010-04-03T03:55:32Z</time></trkpt><trkpt lat="-32.49973600" lon="115.70686400"><time>2010-04-03T03:55:33Z</time></trkpt><trkpt lat="-32.49973400" lon="115.70684700"><time>2010-04-03T03:55:34Z</time></trkpt><trkpt lat="-32.49972900" lon="115.70682800"><time>2010-04-03T03:55:35Z</time></trkpt><trkpt lat="-32.49972600" lon="115.70680900"><time>2010-04-03T03:55:36Z</time></trkpt><trkpt lat="-32.49972400" lon="115.70679400"><time>2010-04-03T03:55:37Z</time></trkpt><trkpt lat="-32.49972400" lon="115.70678300"><time>2010-04-03T03:55:38Z</time></trkpt><trkpt lat="-32.49972100" lon="115.70677100"><time>2010-04-03T03:55:39Z</time></trkpt><trkpt lat="-32.49971900" lon="115.70676100"><time>2010-04-03T03:55:40Z</time></trkpt><trkpt lat="-32.49972700" lon="115.70674900"><time>2010-04-03T03:55:41Z</time></trkpt><trkpt lat="-32.49973000" lon="115.70673500"><time>2010-04-03T03:55:42Z</time></trkpt><trkpt lat="-32.49972300" lon="115.70672600"><time>2010-04-03T03:55:43Z</time></trkpt><trkpt lat="-32.49972100" lon="115.70672200"><time>2010-04-03T03:55:44Z</time></trkpt><trkpt lat="-32.49971600" lon="115.70670800"><time>2010-04-03T03:55:45Z</time></trkpt><trkpt lat="-32.49971400" lon="115.70668800"><time>2010-04-03T03:55:46Z</time></trkpt><trkpt lat="-32.49971200" lon="115.70666900"><time>2010-04-03T03:55:47Z</time></trkpt><trkpt lat="-32.49970700" lon="115.70665200"><time>2010-04-03T03:55:48Z</time></trkpt><trkpt lat="-32.49970300" lon="115.70664100"><time>2010-04-03T03:55:49Z</time></trkpt><trkpt lat="-32.49969900" lon="115.70662400"><time>2010-04-03T03:55:50Z</time></trkpt><trkpt lat="-32.49969700" lon="115.70660400"><time>2010-04-03T03:55:51Z</time></trkpt><trkpt lat="-32.49969900" lon="115.70658200"><time>2010-04-03T03:55:52Z</time></trkpt><trkpt lat="-32.49969500" lon="115.70656000"><time>2010-04-03T03:55:53Z</time></trkpt><trkpt lat="-32.49969100" lon="115.70654300"><time>2010-04-03T03:55:54Z</time></trkpt><trkpt lat="-32.49969000" lon="115.70652300"><time>2010-04-03T03:55:55Z</time></trkpt><trkpt lat="-32.49969300" lon="115.70650300"><time>2010-04-03T03:55:56Z</time></trkpt><trkpt lat="-32.49969400" lon="115.70648100"><time>2010-04-03T03:55:57Z</time></trkpt><trkpt lat="-32.49969500" lon="115.70646100"><time>2010-04-03T03:55:58Z</time></trkpt><trkpt lat="-32.49969100" lon="115.70644000"><time>2010-04-03T03:55:59Z</time></trkpt><trkpt lat="-32.49968700" lon="115.70641900"><time>2010-04-03T03:56:00Z</time></trkpt><trkpt lat="-32.49968600" lon="115.70639400"><time>2010-04-03T03:56:01Z</time></trkpt><trkpt lat="-32.49968800" lon="115.70636800"><time>2010-04-03T03:56:02Z</time></trkpt><trkpt lat="-32.49969000" lon="115.70634200"><time>2010-04-03T03:56:03Z</time></trkpt><trkpt lat="-32.49968800" lon="115.70631900"><time>2010-04-03T03:56:04Z</time></trkpt><trkpt lat="-32.49968600" lon="115.70629800"><time>2010-04-03T03:56:05Z</time></trkpt><trkpt lat="-32.49968600" lon="115.70627400"><time>2010-04-03T03:56:06Z</time></trkpt><trkpt lat="-32.49968100" lon="115.70624600"><time>2010-04-03T03:56:07Z</time></trkpt><trkpt lat="-32.49967900" lon="115.70621900"><time>2010-04-03T03:56:08Z</time></trkpt><trkpt lat="-32.49967900" lon="115.70619400"><time>2010-04-03T03:56:09Z</time></trkpt><trkpt lat="-32.49967700" lon="115.70617200"><time>2010-04-03T03:56:10Z</time></trkpt><trkpt lat="-32.49967300" lon="115.70615200"><time>2010-04-03T03:56:11Z</time></trkpt><trkpt lat="-32.49967200" lon="115.70613200"><time>2010-04-03T03:56:12Z</time></trkpt><trkpt lat="-32.49966800" lon="115.70611000"><time>2010-04-03T03:56:13Z</time></trkpt><trkpt lat="-32.49966500" lon="115.70608400"><time>2010-04-03T03:56:14Z</time></trkpt><trkpt lat="-32.49966500" lon="115.70605300"><time>2010-04-03T03:56:15Z</time></trkpt><trkpt lat="-32.49966800" lon="115.70602400"><time>2010-04-03T03:56:16Z</time></trkpt><trkpt lat="-32.49966900" lon="115.70599700"><time>2010-04-03T03:56:17Z</time></trkpt><trkpt lat="-32.49966900" lon="115.70597100"><time>2010-04-03T03:56:18Z</time></trkpt><trkpt lat="-32.49966600" lon="115.70595100"><time>2010-04-03T03:56:19Z</time></trkpt><trkpt lat="-32.49966200" lon="115.70592700"><time>2010-04-03T03:56:20Z</time></trkpt><trkpt lat="-32.49966000" lon="115.70589700"><time>2010-04-03T03:56:21Z</time></trkpt><trkpt lat="-32.49966000" lon="115.70586800"><time>2010-04-03T03:56:22Z</time></trkpt><trkpt lat="-32.49965800" lon="115.70583900"><time>2010-04-03T03:56:23Z</time></trkpt><trkpt lat="-32.49965800" lon="115.70581300"><time>2010-04-03T03:56:24Z</time></trkpt><trkpt lat="-32.49965400" lon="115.70579000"><time>2010-04-03T03:56:25Z</time></trkpt><trkpt lat="-32.49965000" lon="115.70576300"><time>2010-04-03T03:56:26Z</time></trkpt><trkpt lat="-32.49965000" lon="115.70573500"><time>2010-04-03T03:56:27Z</time></trkpt><trkpt lat="-32.49965100" lon="115.70570400"><time>2010-04-03T03:56:28Z</time></trkpt><trkpt lat="-32.49965400" lon="115.70567600"><time>2010-04-03T03:56:29Z</time></trkpt><trkpt lat="-32.49965700" lon="115.70565000"><time>2010-04-03T03:56:30Z</time></trkpt><trkpt lat="-32.49966000" lon="115.70562900"><time>2010-04-03T03:56:31Z</time></trkpt><trkpt lat="-32.49966100" lon="115.70560700"><time>2010-04-03T03:56:32Z</time></trkpt><trkpt lat="-32.49966100" lon="115.70558700"><time>2010-04-03T03:56:33Z</time></trkpt></trkseg></trk></gpx>

Managed by UCC Webmasters ViewVC Help
Powered by ViewVC 1.1.26